<?xml version="1.0" encoding="UTF-8" standalone="no" ?>
<gpx xmlns="http://www.topografix.com/GPX/1/1" xmlns:xsi="http://www.w3.org/2001/XMLSchema-instance" xsi:schemaLocation="http://www.topografix.com/GPX/1/1 http://www.topografix.com/GPX/1/1/gpx.xsd" version="1.1" creator="VisuGPX - https://www.visugpx.com">
  <metadata>
    <name>J1 traversée aravis</name>
    <desc><![CDATA[J1 traversée aravis par PP]]></desc>
  </metadata>
  <trk>
    <name><![CDATA[J1 traversée aravis_4]]></name>
    <trkseg>
      <trkpt lat="45.96476" lon="6.52754">
        <ele>1859.3</ele>
      </trkpt>
      <trkpt lat="45.96467" lon="6.52819">
        <ele>1851.3</ele>
      </trkpt>
      <trkpt lat="45.96382" lon="6.52933">
        <ele>1877.4</ele>
      </trkpt>
      <trkpt lat="45.96376" lon="6.53063">
        <ele>1877.2</ele>
      </trkpt>
      <trkpt lat="45.96347" lon="6.53145">
        <ele>1893.9</ele>
      </trkpt>
      <trkpt lat="45.96347" lon="6.53234">
        <ele>1904.6</ele>
      </trkpt>
      <trkpt lat="45.96318" lon="6.53233">
        <ele>1909.1</ele>
      </trkpt>
      <trkpt lat="45.96374" lon="6.53411">
        <ele>1917.2</ele>
      </trkpt>
      <trkpt lat="45.96473" lon="6.53606">
        <ele>1943.3</ele>
      </trkpt>
      <trkpt lat="45.96382" lon="6.53794">
        <ele>1917</ele>
        <time>2020-07-30T14:34:43Z</time>
      </trkpt>
      <trkpt lat="45.9637" lon="6.53804">
        <ele>1917</ele>
        <time>2020-07-30T14:34:50Z</time>
      </trkpt>
      <trkpt lat="45.96367" lon="6.53796">
        <ele>1916</ele>
        <time>2020-07-30T14:34:53Z</time>
      </trkpt>
      <trkpt lat="45.96329" lon="6.5383">
        <ele>1921</ele>
        <time>2020-07-30T14:35:16Z</time>
      </trkpt>
      <trkpt lat="45.96316" lon="6.53837">
        <ele>1922</ele>
        <time>2020-07-30T14:35:23Z</time>
      </trkpt>
      <trkpt lat="45.96288" lon="6.53844">
        <ele>1920</ele>
        <time>2020-07-30T14:35:37Z</time>
      </trkpt>
      <trkpt lat="45.96278" lon="6.53854">
        <ele>1922</ele>
        <time>2020-07-30T14:35:43Z</time>
      </trkpt>
      <trkpt lat="45.96265" lon="6.5386">
        <ele>1922</ele>
        <time>2020-07-30T14:35:50Z</time>
      </trkpt>
      <trkpt lat="45.96246" lon="6.53881">
        <ele>1926</ele>
        <time>2020-07-30T14:36:02Z</time>
      </trkpt>
      <trkpt lat="45.96237" lon="6.53881">
        <ele>1925</ele>
        <time>2020-07-30T14:36:06Z</time>
      </trkpt>
      <trkpt lat="45.96237" lon="6.53889">
        <ele>1928</ele>
        <time>2020-07-30T14:36:09Z</time>
      </trkpt>
      <trkpt lat="45.96229" lon="6.53909">
        <ele>1933</ele>
        <time>2020-07-30T14:36:17Z</time>
      </trkpt>
      <trkpt lat="45.96221" lon="6.53922">
        <ele>1936</ele>
        <time>2020-07-30T14:36:23Z</time>
      </trkpt>
      <trkpt lat="45.96214" lon="6.53926">
        <ele>1936</ele>
        <time>2020-07-30T14:36:27Z</time>
      </trkpt>
      <trkpt lat="45.96201" lon="6.53943">
        <ele>1940</ele>
        <time>2020-07-30T14:36:36Z</time>
      </trkpt>
      <trkpt lat="45.96167" lon="6.53908">
        <ele>1923</ele>
        <time>2020-07-30T14:36:57Z</time>
      </trkpt>
      <trkpt lat="45.96152" lon="6.53902">
        <ele>1924</ele>
        <time>2020-07-30T14:37:04Z</time>
      </trkpt>
      <trkpt lat="45.96147" lon="6.53903">
        <ele>1924</ele>
        <time>2020-07-30T14:37:07Z</time>
      </trkpt>
      <trkpt lat="45.96135" lon="6.53917">
        <ele>1929</ele>
        <time>2020-07-30T14:37:15Z</time>
      </trkpt>
      <trkpt lat="45.96128" lon="6.53921">
        <ele>1931</ele>
        <time>2020-07-30T14:37:18Z</time>
      </trkpt>
      <trkpt lat="45.96117" lon="6.53922">
        <ele>1933</ele>
        <time>2020-07-30T14:37:24Z</time>
      </trkpt>
      <trkpt lat="45.96106" lon="6.53917">
        <ele>1932</ele>
        <time>2020-07-30T14:37:30Z</time>
      </trkpt>
      <trkpt lat="45.96084" lon="6.5393">
        <ele>1940</ele>
        <time>2020-07-30T14:37:42Z</time>
      </trkpt>
      <trkpt lat="45.96079" lon="6.53926">
        <ele>1939</ele>
        <time>2020-07-30T14:37:45Z</time>
      </trkpt>
      <trkpt lat="45.96074" lon="6.5393">
        <ele>1942</ele>
        <time>2020-07-30T14:37:47Z</time>
      </trkpt>
      <trkpt lat="45.96066" lon="6.5393">
        <ele>1944</ele>
        <time>2020-07-30T14:37:51Z</time>
      </trkpt>
      <trkpt lat="45.96047" lon="6.53937">
        <ele>1950</ele>
        <time>2020-07-30T14:38:01Z</time>
      </trkpt>
      <trkpt lat="45.96044" lon="6.53935">
        <ele>1950</ele>
        <time>2020-07-30T14:38:03Z</time>
      </trkpt>
      <trkpt lat="45.96031" lon="6.53936">
        <ele>1953</ele>
        <time>2020-07-30T14:38:09Z</time>
      </trkpt>
      <trkpt lat="45.96016" lon="6.53942">
        <ele>1958</ele>
        <time>2020-07-30T14:38:17Z</time>
      </trkpt>
      <trkpt lat="45.96" lon="6.53944">
        <ele>1962</ele>
        <time>2020-07-30T14:38:25Z</time>
      </trkpt>
      <trkpt lat="45.95991" lon="6.5395">
        <ele>1965</ele>
        <time>2020-07-30T14:38:30Z</time>
      </trkpt>
      <trkpt lat="45.95983" lon="6.53951">
        <ele>1966</ele>
        <time>2020-07-30T14:38:34Z</time>
      </trkpt>
      <trkpt lat="45.95968" lon="6.53959">
        <ele>1971</ele>
        <time>2020-07-30T14:38:42Z</time>
      </trkpt>
      <trkpt lat="45.95953" lon="6.5397">
        <ele>1976</ele>
        <time>2020-07-30T14:38:51Z</time>
      </trkpt>
      <trkpt lat="45.95941" lon="6.53967">
        <ele>1976</ele>
        <time>2020-07-30T14:38:57Z</time>
      </trkpt>
      <trkpt lat="45.95923" lon="6.53973">
        <ele>1979</ele>
        <time>2020-07-30T14:39:06Z</time>
      </trkpt>
      <trkpt lat="45.95922" lon="6.5398">
        <ele>1982</ele>
        <time>2020-07-30T14:39:08Z</time>
      </trkpt>
      <trkpt lat="45.95927" lon="6.53987">
        <ele>1984</ele>
        <time>2020-07-30T14:39:12Z</time>
      </trkpt>
      <trkpt lat="45.95924" lon="6.53992">
        <ele>1986</ele>
        <time>2020-07-30T14:39:14Z</time>
      </trkpt>
      <trkpt lat="45.95914" lon="6.53993">
        <ele>1988</ele>
        <time>2020-07-30T14:39:19Z</time>
      </trkpt>
      <trkpt lat="45.95888" lon="6.53988">
        <ele>1987</ele>
        <time>2020-07-30T14:39:32Z</time>
      </trkpt>
      <trkpt lat="45.9582" lon="6.54019">
        <ele>2005</ele>
        <time>2020-07-30T14:40:08Z</time>
      </trkpt>
      <trkpt lat="45.958" lon="6.5402">
        <ele>2008</ele>
        <time>2020-07-30T14:40:18Z</time>
      </trkpt>
      <trkpt lat="45.95789" lon="6.54016">
        <ele>2008</ele>
        <time>2020-07-30T14:40:24Z</time>
      </trkpt>
      <trkpt lat="45.95756" lon="6.54023">
        <ele>2015</ele>
        <time>2020-07-30T14:40:40Z</time>
      </trkpt>
      <trkpt lat="45.95735" lon="6.54003">
        <ele>2011</ele>
        <time>2020-07-30T14:40:53Z</time>
      </trkpt>
      <trkpt lat="45.95727" lon="6.54001">
        <ele>2011</ele>
        <time>2020-07-30T14:40:57Z</time>
      </trkpt>
      <trkpt lat="45.95699" lon="6.54034">
        <ele>2025</ele>
        <time>2020-07-30T14:41:15Z</time>
      </trkpt>
      <trkpt lat="45.95697" lon="6.54048">
        <ele>2030</ele>
        <time>2020-07-30T14:41:20Z</time>
      </trkpt>
      <trkpt lat="45.9569" lon="6.54055">
        <ele>2033</ele>
        <time>2020-07-30T14:41:24Z</time>
      </trkpt>
      <trkpt lat="45.95677" lon="6.54089">
        <ele>2045</ele>
        <time>2020-07-30T14:41:38Z</time>
      </trkpt>
      <trkpt lat="45.95672" lon="6.54095">
        <ele>2047</ele>
        <time>2020-07-30T14:41:41Z</time>
      </trkpt>
      <trkpt lat="45.95664" lon="6.54099">
        <ele>2049</ele>
        <time>2020-07-30T14:41:45Z</time>
      </trkpt>
      <trkpt lat="45.9565" lon="6.54115">
        <ele>2055</ele>
        <time>2020-07-30T14:41:54Z</time>
      </trkpt>
      <trkpt lat="45.95661" lon="6.54121">
        <ele>2056</ele>
        <time>2020-07-30T14:42:00Z</time>
      </trkpt>
      <trkpt lat="45.95662" lon="6.54128">
        <ele>2058</ele>
        <time>2020-07-30T14:42:03Z</time>
      </trkpt>
      <trkpt lat="45.95656" lon="6.54158">
        <ele>2068</ele>
        <time>2020-07-30T14:42:14Z</time>
      </trkpt>
      <trkpt lat="45.95645" lon="6.54163">
        <ele>2069</ele>
        <time>2020-07-30T14:42:19Z</time>
      </trkpt>
      <trkpt lat="45.95652" lon="6.54182">
        <ele>2075</ele>
        <time>2020-07-30T14:42:27Z</time>
      </trkpt>
      <trkpt lat="45.9565" lon="6.54195">
        <ele>2078</ele>
        <time>2020-07-30T14:42:32Z</time>
      </trkpt>
      <trkpt lat="45.95653" lon="6.54224">
        <ele>2087</ele>
        <time>2020-07-30T14:42:42Z</time>
      </trkpt>
      <trkpt lat="45.95652" lon="6.54261">
        <ele>2098</ele>
        <time>2020-07-30T14:42:55Z</time>
      </trkpt>
      <trkpt lat="45.95658" lon="6.54285">
        <ele>2106</ele>
        <time>2020-07-30T14:43:03Z</time>
      </trkpt>
      <trkpt lat="45.95656" lon="6.54306">
        <ele>2112</ele>
        <time>2020-07-30T14:43:11Z</time>
      </trkpt>
      <trkpt lat="45.95659" lon="6.54311">
        <ele>2114</ele>
        <time>2020-07-30T14:43:13Z</time>
      </trkpt>
      <trkpt lat="45.95669" lon="6.54313">
        <ele>2115</ele>
        <time>2020-07-30T14:43:18Z</time>
      </trkpt>
      <trkpt lat="45.95672" lon="6.54325">
        <ele>2119</ele>
        <time>2020-07-30T14:43:23Z</time>
      </trkpt>
      <trkpt lat="45.9567" lon="6.54331">
        <ele>2121</ele>
        <time>2020-07-30T14:43:25Z</time>
      </trkpt>
      <trkpt lat="45.95671" lon="6.54342">
        <ele>2124</ele>
        <time>2020-07-30T14:43:29Z</time>
      </trkpt>
      <trkpt lat="45.95659" lon="6.54361">
        <ele>2130</ele>
        <time>2020-07-30T14:43:38Z</time>
      </trkpt>
      <trkpt lat="45.95659" lon="6.54382">
        <ele>2136</ele>
        <time>2020-07-30T14:43:45Z</time>
      </trkpt>
      <trkpt lat="45.95665" lon="6.54387">
        <ele>2137</ele>
        <time>2020-07-30T14:43:49Z</time>
      </trkpt>
      <trkpt lat="45.95665" lon="6.5439">
        <ele>2138</ele>
        <time>2020-07-30T14:43:50Z</time>
      </trkpt>
      <trkpt lat="45.95631" lon="6.54409">
        <ele>2145</ele>
        <time>2020-07-30T14:44:08Z</time>
      </trkpt>
      <trkpt lat="45.95625" lon="6.54417">
        <ele>2148</ele>
        <time>2020-07-30T14:44:12Z</time>
      </trkpt>
      <trkpt lat="45.95618" lon="6.54418">
        <ele>2148</ele>
        <time>2020-07-30T14:44:15Z</time>
      </trkpt>
      <trkpt lat="45.9561" lon="6.54423">
        <ele>2150</ele>
        <time>2020-07-30T14:44:20Z</time>
      </trkpt>
      <trkpt lat="45.95602" lon="6.54437">
        <ele>2153</ele>
        <time>2020-07-30T14:44:26Z</time>
      </trkpt>
      <trkpt lat="45.95601" lon="6.54445">
        <ele>2155</ele>
        <time>2020-07-30T14:44:29Z</time>
      </trkpt>
      <trkpt lat="45.95605" lon="6.54456">
        <ele>2158</ele>
        <time>2020-07-30T14:44:33Z</time>
      </trkpt>
      <trkpt lat="45.95605" lon="6.54467">
        <ele>2161</ele>
        <time>2020-07-30T14:44:37Z</time>
      </trkpt>
      <trkpt lat="45.95601" lon="6.54473">
        <ele>2162</ele>
        <time>2020-07-30T14:44:40Z</time>
      </trkpt>
      <trkpt lat="45.956" lon="6.54486">
        <ele>2165</ele>
        <time>2020-07-30T14:44:45Z</time>
      </trkpt>
      <trkpt lat="45.95595" lon="6.54488">
        <ele>2166</ele>
        <time>2020-07-30T14:44:47Z</time>
      </trkpt>
      <trkpt lat="45.95589" lon="6.54505">
        <ele>2170</ele>
        <time>2020-07-30T14:44:54Z</time>
      </trkpt>
      <trkpt lat="45.9558" lon="6.54512">
        <ele>2173</ele>
        <time>2020-07-30T14:44:59Z</time>
      </trkpt>
      <trkpt lat="45.9557" lon="6.5453">
        <ele>2179</ele>
        <time>2020-07-30T14:45:07Z</time>
      </trkpt>
      <trkpt lat="45.95576" lon="6.54544">
        <ele>2183</ele>
        <time>2020-07-30T14:45:13Z</time>
      </trkpt>
      <trkpt lat="45.95577" lon="6.54556">
        <ele>2186</ele>
        <time>2020-07-30T14:45:17Z</time>
      </trkpt>
      <trkpt lat="45.95572" lon="6.54562">
        <ele>2188</ele>
        <time>2020-07-30T14:45:20Z</time>
      </trkpt>
      <trkpt lat="45.95575" lon="6.5457">
        <ele>2190</ele>
        <time>2020-07-30T14:45:23Z</time>
      </trkpt>
      <trkpt lat="45.95573" lon="6.54592">
        <ele>2197</ele>
        <time>2020-07-30T14:45:31Z</time>
      </trkpt>
      <trkpt lat="45.9557" lon="6.546">
        <ele>2199</ele>
        <time>2020-07-30T14:45:34Z</time>
      </trkpt>
      <trkpt lat="45.95571" lon="6.5461">
        <ele>2202</ele>
        <time>2020-07-30T14:45:38Z</time>
      </trkpt>
      <trkpt lat="45.95565" lon="6.54621">
        <ele>2206</ele>
        <time>2020-07-30T14:45:42Z</time>
      </trkpt>
      <trkpt lat="45.95564" lon="6.54635">
        <ele>2210</ele>
        <time>2020-07-30T14:45:47Z</time>
      </trkpt>
      <trkpt lat="45.95566" lon="6.54643">
        <ele>2212</ele>
        <time>2020-07-30T14:45:50Z</time>
      </trkpt>
      <trkpt lat="45.95562" lon="6.5465">
        <ele>2214</ele>
        <time>2020-07-30T14:45:54Z</time>
      </trkpt>
      <trkpt lat="45.95562" lon="6.5466">
        <ele>2217</ele>
        <time>2020-07-30T14:45:57Z</time>
      </trkpt>
      <trkpt lat="45.95557" lon="6.54676">
        <ele>2222</ele>
        <time>2020-07-30T14:46:03Z</time>
      </trkpt>
      <trkpt lat="45.95557" lon="6.54691">
        <ele>2225</ele>
        <time>2020-07-30T14:46:08Z</time>
      </trkpt>
      <trkpt lat="45.95564" lon="6.54701">
        <ele>2228</ele>
        <time>2020-07-30T14:46:13Z</time>
      </trkpt>
      <trkpt lat="45.95563" lon="6.54729">
        <ele>2235</ele>
        <time>2020-07-30T14:46:23Z</time>
      </trkpt>
      <trkpt lat="45.95565" lon="6.54739">
        <ele>2237</ele>
        <time>2020-07-30T14:46:27Z</time>
      </trkpt>
      <trkpt lat="45.9556" lon="6.54771">
        <ele>2245</ele>
        <time>2020-07-30T14:46:38Z</time>
      </trkpt>
      <trkpt lat="45.95565" lon="6.5478">
        <ele>2247</ele>
        <time>2020-07-30T14:46:42Z</time>
      </trkpt>
      <trkpt lat="45.95562" lon="6.54794">
        <ele>2250</ele>
        <time>2020-07-30T14:46:47Z</time>
      </trkpt>
      <trkpt lat="45.95568" lon="6.54828">
        <ele>2258</ele>
        <time>2020-07-30T14:46:59Z</time>
      </trkpt>
      <trkpt lat="45.95568" lon="6.54835">
        <ele>2259</ele>
        <time>2020-07-30T14:47:02Z</time>
      </trkpt>
      <trkpt lat="45.95563" lon="6.54838">
        <ele>2260</ele>
        <time>2020-07-30T14:47:04Z</time>
      </trkpt>
      <trkpt lat="45.95564" lon="6.54843">
        <ele>2261</ele>
        <time>2020-07-30T14:47:06Z</time>
      </trkpt>
      <trkpt lat="45.95561" lon="6.54847">
        <ele>2262</ele>
        <time>2020-07-30T14:47:08Z</time>
      </trkpt>
      <trkpt lat="45.95562" lon="6.5486">
        <ele>2266</ele>
        <time>2020-07-30T14:47:13Z</time>
      </trkpt>
      <trkpt lat="45.95558" lon="6.5488">
        <ele>2271</ele>
        <time>2020-07-30T14:47:20Z</time>
      </trkpt>
      <trkpt lat="45.95566" lon="6.54902">
        <ele>2278</ele>
        <time>2020-07-30T14:47:29Z</time>
      </trkpt>
      <trkpt lat="45.95564" lon="6.54915">
        <ele>2281</ele>
        <time>2020-07-30T14:47:33Z</time>
      </trkpt>
      <trkpt lat="45.95566" lon="6.54922">
        <ele>2284</ele>
        <time>2020-07-30T14:47:36Z</time>
      </trkpt>
      <trkpt lat="45.95571" lon="6.54927">
        <ele>2285</ele>
        <time>2020-07-30T14:47:39Z</time>
      </trkpt>
      <trkpt lat="45.95576" lon="6.54927">
        <ele>2286</ele>
        <time>2020-07-30T14:47:42Z</time>
      </trkpt>
      <trkpt lat="45.9558" lon="6.5493">
        <ele>2287</ele>
        <time>2020-07-30T14:47:44Z</time>
      </trkpt>
      <trkpt lat="45.95581" lon="6.54935">
        <ele>2288</ele>
        <time>2020-07-30T14:47:46Z</time>
      </trkpt>
      <trkpt lat="45.95593" lon="6.54945">
        <ele>2291</ele>
        <time>2020-07-30T14:47:53Z</time>
      </trkpt>
      <trkpt lat="45.95588" lon="6.54952">
        <ele>2293</ele>
        <time>2020-07-30T14:47:56Z</time>
      </trkpt>
      <trkpt lat="45.9559" lon="6.54954">
        <ele>2294</ele>
        <time>2020-07-30T14:47:57Z</time>
      </trkpt>
      <trkpt lat="45.95593" lon="6.54974">
        <ele>2300</ele>
        <time>2020-07-30T14:48:04Z</time>
      </trkpt>
      <trkpt lat="45.95589" lon="6.5498">
        <ele>2301</ele>
        <time>2020-07-30T14:48:07Z</time>
      </trkpt>
      <trkpt lat="45.9559" lon="6.54985">
        <ele>2303</ele>
        <time>2020-07-30T14:48:09Z</time>
      </trkpt>
      <trkpt lat="45.95582" lon="6.54999">
        <ele>2307</ele>
        <time>2020-07-30T14:48:15Z</time>
      </trkpt>
      <trkpt lat="45.95588" lon="6.5501">
        <ele>2312</ele>
        <time>2020-07-30T14:48:20Z</time>
      </trkpt>
      <trkpt lat="45.95588" lon="6.55017">
        <ele>2315</ele>
        <time>2020-07-30T14:48:23Z</time>
      </trkpt>
      <trkpt lat="45.95596" lon="6.55028">
        <ele>2320</ele>
        <time>2020-07-30T14:48:28Z</time>
      </trkpt>
      <trkpt lat="45.95602" lon="6.55031">
        <ele>2321</ele>
        <time>2020-07-30T14:48:31Z</time>
      </trkpt>
      <trkpt lat="45.95604" lon="6.55049">
        <ele>2329</ele>
        <time>2020-07-30T14:48:38Z</time>
      </trkpt>
      <trkpt lat="45.95602" lon="6.55064">
        <ele>2336</ele>
        <time>2020-07-30T14:48:43Z</time>
      </trkpt>
      <trkpt lat="45.95606" lon="6.55068">
        <ele>2338</ele>
        <time>2020-07-30T14:48:46Z</time>
      </trkpt>
      <trkpt lat="45.95604" lon="6.55074">
        <ele>2340</ele>
        <time>2020-07-30T14:48:48Z</time>
      </trkpt>
      <trkpt lat="45.95609" lon="6.55082">
        <ele>2344</ele>
        <time>2020-07-30T14:48:52Z</time>
      </trkpt>
      <trkpt lat="45.95608" lon="6.55088">
        <ele>2348</ele>
        <time>2020-07-30T14:48:54Z</time>
      </trkpt>
      <trkpt lat="45.95611" lon="6.55093">
        <ele>2351</ele>
        <time>2020-07-30T14:48:56Z</time>
      </trkpt>
      <trkpt lat="45.95611" lon="6.55103">
        <ele>2358</ele>
        <time>2020-07-30T14:49:00Z</time>
      </trkpt>
      <trkpt lat="45.95616" lon="6.55112">
        <ele>2364</ele>
        <time>2020-07-30T14:49:04Z</time>
      </trkpt>
      <trkpt lat="45.95614" lon="6.55112">
        <ele>2364</ele>
        <time>2020-07-30T14:49:05Z</time>
      </trkpt>
      <trkpt lat="45.95616" lon="6.55132">
        <ele>2377</ele>
        <time>2020-07-30T14:49:12Z</time>
      </trkpt>
      <trkpt lat="45.95614" lon="6.55139">
        <ele>2382</ele>
        <time>2020-07-30T14:49:14Z</time>
      </trkpt>
      <trkpt lat="45.95612" lon="6.55139">
        <ele>2382</ele>
        <time>2020-07-30T14:49:15Z</time>
      </trkpt>
      <trkpt lat="45.95612" lon="6.55149">
        <ele>2389</ele>
        <time>2020-07-30T14:49:19Z</time>
      </trkpt>
      <trkpt lat="45.95607" lon="6.55158">
        <ele>2396</ele>
        <time>2020-07-30T14:49:23Z</time>
      </trkpt>
      <trkpt lat="45.95595" lon="6.55169">
        <ele>2407</ele>
        <time>2020-07-30T14:49:30Z</time>
      </trkpt>
      <trkpt lat="45.95599" lon="6.55179">
        <ele>2412</ele>
        <time>2020-07-30T14:49:34Z</time>
      </trkpt>
      <trkpt lat="45.95595" lon="6.5518">
        <ele>2414</ele>
        <time>2020-07-30T14:49:36Z</time>
      </trkpt>
      <trkpt lat="45.95589" lon="6.55193">
        <ele>2424</ele>
        <time>2020-07-30T14:49:41Z</time>
      </trkpt>
      <trkpt lat="45.95588" lon="6.55198">
        <ele>2427</ele>
        <time>2020-07-30T14:49:43Z</time>
      </trkpt>
      <trkpt lat="45.9559" lon="6.55197">
        <ele>2426</ele>
        <time>2020-07-30T14:49:44Z</time>
      </trkpt>
      <trkpt lat="45.9559" lon="6.55199">
        <ele>2427</ele>
        <time>2020-07-30T14:49:45Z</time>
      </trkpt>
      <trkpt lat="45.95585" lon="6.5521">
        <ele>2436</ele>
        <time>2020-07-30T14:49:49Z</time>
      </trkpt>
      <trkpt lat="45.95585" lon="6.55218">
        <ele>2441</ele>
        <time>2020-07-30T14:49:52Z</time>
      </trkpt>
      <trkpt lat="45.95588" lon="6.55221">
        <ele>2442</ele>
        <time>2020-07-30T14:49:54Z</time>
      </trkpt>
      <trkpt lat="45.95585" lon="6.55232">
        <ele>2450</ele>
        <time>2020-07-30T14:49:58Z</time>
      </trkpt>
      <trkpt lat="45.95598" lon="6.55226">
        <ele>2443</ele>
        <time>2020-07-30T14:50:05Z</time>
      </trkpt>
      <trkpt lat="45.95595" lon="6.5525">
        <ele>2459</ele>
        <time>2020-07-30T14:50:13Z</time>
      </trkpt>
      <trkpt lat="45.95597" lon="6.55246">
        <ele>2456</ele>
        <time>2020-07-30T14:50:15Z</time>
      </trkpt>
      <trkpt lat="45.95604" lon="6.55242">
        <ele>2452</ele>
        <time>2020-07-30T14:50:19Z</time>
      </trkpt>
      <trkpt lat="45.95609" lon="6.55242">
        <ele>2451</ele>
        <time>2020-07-30T14:50:21Z</time>
      </trkpt>
      <trkpt lat="45.95621" lon="6.55236">
        <ele>2444</ele>
        <time>2020-07-30T14:50:28Z</time>
      </trkpt>
      <trkpt lat="45.95625" lon="6.55237">
        <ele>2444</ele>
        <time>2020-07-30T14:50:30Z</time>
      </trkpt>
      <trkpt lat="45.95631" lon="6.55231">
        <ele>2438</ele>
        <time>2020-07-30T14:50:33Z</time>
      </trkpt>
      <trkpt lat="45.95634" lon="6.55232">
        <ele>2438</ele>
        <time>2020-07-30T14:50:35Z</time>
      </trkpt>
      <trkpt lat="45.95638" lon="6.55229">
        <ele>2435</ele>
        <time>2020-07-30T14:50:37Z</time>
      </trkpt>
      <trkpt lat="45.95644" lon="6.55232">
        <ele>2436</ele>
        <time>2020-07-30T14:50:40Z</time>
      </trkpt>
      <trkpt lat="45.95646" lon="6.55257">
        <ele>2451</ele>
        <time>2020-07-30T14:50:49Z</time>
      </trkpt>
      <trkpt lat="45.95642" lon="6.55267">
        <ele>2457</ele>
        <time>2020-07-30T14:50:53Z</time>
      </trkpt>
      <trkpt lat="45.95643" lon="6.55275">
        <ele>2462</ele>
        <time>2020-07-30T14:50:56Z</time>
      </trkpt>
      <trkpt lat="45.95656" lon="6.55269">
        <ele>2455</ele>
        <time>2020-07-30T14:51:03Z</time>
      </trkpt>
      <trkpt lat="45.95661" lon="6.55269">
        <ele>2454</ele>
        <time>2020-07-30T14:51:05Z</time>
      </trkpt>
      <trkpt lat="45.95662" lon="6.55273">
        <ele>2456</ele>
        <time>2020-07-30T14:51:07Z</time>
      </trkpt>
      <trkpt lat="45.95659" lon="6.55278">
        <ele>2459</ele>
        <time>2020-07-30T14:51:09Z</time>
      </trkpt>
      <trkpt lat="45.95658" lon="6.55289">
        <ele>2465</ele>
        <time>2020-07-30T14:51:13Z</time>
      </trkpt>
      <trkpt lat="45.95655" lon="6.55293">
        <ele>2468</ele>
        <time>2020-07-30T14:51:15Z</time>
      </trkpt>
      <trkpt lat="45.95656" lon="6.55305">
        <ele>2475</ele>
        <time>2020-07-30T14:51:19Z</time>
      </trkpt>
      <trkpt lat="45.95651" lon="6.55319">
        <ele>2484</ele>
        <time>2020-07-30T14:51:25Z</time>
      </trkpt>
      <trkpt lat="45.95653" lon="6.55322">
        <ele>2485</ele>
        <time>2020-07-30T14:51:26Z</time>
      </trkpt>
      <trkpt lat="45.95625" lon="6.55347">
        <ele>2506</ele>
        <time>2020-07-30T14:51:43Z</time>
      </trkpt>
      <trkpt lat="45.95618" lon="6.55362">
        <ele>2516</ele>
        <time>2020-07-30T14:51:49Z</time>
      </trkpt>
      <trkpt lat="45.9562" lon="6.55363">
        <ele>2516</ele>
        <time>2020-07-30T14:51:50Z</time>
      </trkpt>
      <trkpt lat="45.95613" lon="6.55366">
        <ele>2520</ele>
        <time>2020-07-30T14:51:54Z</time>
      </trkpt>
      <trkpt lat="45.95609" lon="6.55375">
        <ele>2527</ele>
        <time>2020-07-30T14:51:57Z</time>
      </trkpt>
      <trkpt lat="45.95604" lon="6.5538">
        <ele>2533</ele>
        <time>2020-07-30T14:52:00Z</time>
      </trkpt>
      <trkpt lat="45.95599" lon="6.55394">
        <ele>2544</ele>
        <time>2020-07-30T14:52:06Z</time>
      </trkpt>
      <trkpt lat="45.95601" lon="6.55398">
        <ele>2545</ele>
        <time>2020-07-30T14:52:08Z</time>
      </trkpt>
      <trkpt lat="45.95594" lon="6.55408">
        <ele>2555</ele>
        <time>2020-07-30T14:52:13Z</time>
      </trkpt>
      <trkpt lat="45.95592" lon="6.55415">
        <ele>2561</ele>
        <time>2020-07-30T14:52:15Z</time>
      </trkpt>
      <trkpt lat="45.95594" lon="6.55418">
        <ele>2562</ele>
        <time>2020-07-30T14:52:17Z</time>
      </trkpt>
      <trkpt lat="45.95592" lon="6.55428">
        <ele>2569</ele>
        <time>2020-07-30T14:52:20Z</time>
      </trkpt>
      <trkpt lat="45.95588" lon="6.55431">
        <ele>2573</ele>
        <time>2020-07-30T14:52:23Z</time>
      </trkpt>
      <trkpt lat="45.95584" lon="6.5543">
        <ele>2576</ele>
        <time>2020-07-30T14:52:25Z</time>
      </trkpt>
      <trkpt lat="45.95584" lon="6.55433">
        <ele>2577</ele>
        <time>2020-07-30T14:52:26Z</time>
      </trkpt>
      <trkpt lat="45.95575" lon="6.55445">
        <ele>2589</ele>
        <time>2020-07-30T14:52:32Z</time>
      </trkpt>
      <trkpt lat="45.95571" lon="6.55448">
        <ele>2592</ele>
        <time>2020-07-30T14:52:34Z</time>
      </trkpt>
      <trkpt lat="45.95567" lon="6.55447">
        <ele>2593</ele>
        <time>2020-07-30T14:52:36Z</time>
      </trkpt>
      <trkpt lat="45.95559" lon="6.55455">
        <ele>2601</ele>
        <time>2020-07-30T14:52:41Z</time>
      </trkpt>
      <trkpt lat="45.9555" lon="6.55453">
        <ele>2604</ele>
        <time>2020-07-30T14:52:45Z</time>
      </trkpt>
      <trkpt lat="45.95549" lon="6.55449">
        <ele>2602</ele>
        <time>2020-07-30T14:52:47Z</time>
      </trkpt>
      <trkpt lat="45.95544" lon="6.55446">
        <ele>2602</ele>
        <time>2020-07-30T14:52:50Z</time>
      </trkpt>
      <trkpt lat="45.95543" lon="6.5546">
        <ele>2611</ele>
        <time>2020-07-30T14:52:55Z</time>
      </trkpt>
      <trkpt lat="45.95541" lon="6.55462">
        <ele>2614</ele>
        <time>2020-07-30T14:52:56Z</time>
      </trkpt>
      <trkpt lat="45.95535" lon="6.55457">
        <ele>2613</ele>
        <time>2020-07-30T14:52:59Z</time>
      </trkpt>
      <trkpt lat="45.95532" lon="6.55458">
        <ele>2615</ele>
        <time>2020-07-30T14:53:01Z</time>
      </trkpt>
      <trkpt lat="45.95533" lon="6.55462">
        <ele>2617</ele>
        <time>2020-07-30T14:53:02Z</time>
      </trkpt>
      <trkpt lat="45.95529" lon="6.55468">
        <ele>2623</ele>
        <time>2020-07-30T14:53:05Z</time>
      </trkpt>
      <trkpt lat="45.95524" lon="6.55467">
        <ele>2624</ele>
        <time>2020-07-30T14:53:08Z</time>
      </trkpt>
      <trkpt lat="45.95517" lon="6.5546">
        <ele>2623</ele>
        <time>2020-07-30T14:53:12Z</time>
      </trkpt>
      <trkpt lat="45.95508" lon="6.55458">
        <ele>2625</ele>
        <time>2020-07-30T14:53:17Z</time>
      </trkpt>
      <trkpt lat="45.95508" lon="6.55463">
        <ele>2629</ele>
        <time>2020-07-30T14:53:18Z</time>
      </trkpt>
      <trkpt lat="45.95503" lon="6.55461">
        <ele>2629</ele>
        <time>2020-07-30T14:53:21Z</time>
      </trkpt>
      <trkpt lat="45.95502" lon="6.55472">
        <ele>2637</ele>
        <time>2020-07-30T14:53:25Z</time>
      </trkpt>
      <trkpt lat="45.95506" lon="6.55484">
        <ele>2643</ele>
        <time>2020-07-30T14:53:29Z</time>
      </trkpt>
      <trkpt lat="45.95511" lon="6.55485">
        <ele>2641</ele>
        <time>2020-07-30T14:53:32Z</time>
      </trkpt>
      <trkpt lat="45.95511" lon="6.55487">
        <ele>2643</ele>
        <time>2020-07-30T14:53:33Z</time>
      </trkpt>
      <trkpt lat="45.95497" lon="6.55486">
        <ele>2646</ele>
        <time>2020-07-30T14:53:40Z</time>
      </trkpt>
      <trkpt lat="45.95496" lon="6.55483">
        <ele>2643</ele>
        <time>2020-07-30T14:53:41Z</time>
      </trkpt>
      <trkpt lat="45.95499" lon="6.55489">
        <ele>2648</ele>
        <time>2020-07-30T14:53:43Z</time>
      </trkpt>
      <trkpt lat="45.95498" lon="6.55495">
        <ele>2652</ele>
        <time>2020-07-30T14:53:45Z</time>
      </trkpt>
      <trkpt lat="45.95494" lon="6.55495">
        <ele>2650</ele>
        <time>2020-07-30T14:53:47Z</time>
      </trkpt>
      <trkpt lat="45.9549" lon="6.5549">
        <ele>2645</ele>
        <time>2020-07-30T14:53:50Z</time>
      </trkpt>
      <trkpt lat="45.95486" lon="6.5549">
        <ele>2644</ele>
        <time>2020-07-30T14:53:52Z</time>
      </trkpt>
      <trkpt lat="45.95485" lon="6.55499">
        <ele>2649</ele>
        <time>2020-07-30T14:53:55Z</time>
      </trkpt>
      <trkpt lat="45.9548" lon="6.55507">
        <ele>2650</ele>
        <time>2020-07-30T14:53:59Z</time>
      </trkpt>
      <trkpt lat="45.95481" lon="6.55512">
        <ele>2653</ele>
        <time>2020-07-30T14:54:01Z</time>
      </trkpt>
      <trkpt lat="45.95478" lon="6.55514">
        <ele>2652</ele>
        <time>2020-07-30T14:54:02Z</time>
      </trkpt>
      <trkpt lat="45.95479" lon="6.55521">
        <ele>2655</ele>
        <time>2020-07-30T14:54:05Z</time>
      </trkpt>
      <trkpt lat="45.95473" lon="6.55524">
        <ele>2653</ele>
        <time>2020-07-30T14:54:08Z</time>
      </trkpt>
      <trkpt lat="45.95492" lon="6.55543">
        <ele>2671</ele>
        <time>2020-07-30T14:54:20Z</time>
      </trkpt>
      <trkpt lat="45.95499" lon="6.55545">
        <ele>2676</ele>
        <time>2020-07-30T14:54:23Z</time>
      </trkpt>
      <trkpt lat="45.95505" lon="6.55552">
        <ele>2679</ele>
        <time>2020-07-30T14:54:27Z</time>
      </trkpt>
      <trkpt lat="45.95505" lon="6.55561">
        <ele>2683</ele>
        <time>2020-07-30T14:54:30Z</time>
      </trkpt>
      <trkpt lat="45.95509" lon="6.55563">
        <ele>2683</ele>
        <time>2020-07-30T14:54:32Z</time>
      </trkpt>
      <trkpt lat="45.95511" lon="6.55561">
        <ele>2682</ele>
        <time>2020-07-30T14:54:34Z</time>
      </trkpt>
      <trkpt lat="45.95516" lon="6.55567">
        <ele>2684</ele>
        <time>2020-07-30T14:54:37Z</time>
      </trkpt>
      <trkpt lat="45.95521" lon="6.55565">
        <ele>2683</ele>
        <time>2020-07-30T14:54:39Z</time>
      </trkpt>
      <trkpt lat="45.9552" lon="6.55575">
        <ele>2688</ele>
        <time>2020-07-30T14:54:43Z</time>
      </trkpt>
      <trkpt lat="45.95523" lon="6.5558">
        <ele>2691</ele>
        <time>2020-07-30T14:54:45Z</time>
      </trkpt>
      <trkpt lat="45.95528" lon="6.55566">
        <ele>2682</ele>
        <time>2020-07-30T14:54:51Z</time>
      </trkpt>
      <trkpt lat="45.95537" lon="6.55564">
        <ele>2680</ele>
        <time>2020-07-30T14:54:55Z</time>
      </trkpt>
      <trkpt lat="45.95542" lon="6.5557">
        <ele>2683</ele>
        <time>2020-07-30T14:54:59Z</time>
      </trkpt>
      <trkpt lat="45.95545" lon="6.55581">
        <ele>2690</ele>
        <time>2020-07-30T14:55:03Z</time>
      </trkpt>
      <trkpt lat="45.95549" lon="6.55586">
        <ele>2690</ele>
        <time>2020-07-30T14:55:05Z</time>
      </trkpt>
      <trkpt lat="45.95558" lon="6.55588">
        <ele>2689</ele>
        <time>2020-07-30T14:55:10Z</time>
      </trkpt>
      <trkpt lat="45.95559" lon="6.55593">
        <ele>2688</ele>
        <time>2020-07-30T14:55:12Z</time>
      </trkpt>
      <trkpt lat="45.95571" lon="6.55589">
        <ele>2689</ele>
        <time>2020-07-30T14:55:18Z</time>
      </trkpt>
      <trkpt lat="45.95574" lon="6.55589">
        <ele>2689</ele>
        <time>2020-07-30T14:55:19Z</time>
      </trkpt>
      <trkpt lat="45.95573" lon="6.55591">
        <ele>2689</ele>
        <time>2020-07-30T14:55:20Z</time>
      </trkpt>
      <trkpt lat="45.95563" lon="6.55596">
        <ele>2688</ele>
        <time>2020-07-30T14:55:26Z</time>
      </trkpt>
      <trkpt lat="45.95556" lon="6.55588">
        <ele>2690</ele>
        <time>2020-07-30T14:55:30Z</time>
      </trkpt>
      <trkpt lat="45.95549" lon="6.55587">
        <ele>2690</ele>
        <time>2020-07-30T14:55:34Z</time>
      </trkpt>
      <trkpt lat="45.95545" lon="6.55583">
        <ele>2691</ele>
        <time>2020-07-30T14:55:36Z</time>
      </trkpt>
      <trkpt lat="45.95545" lon="6.55576">
        <ele>2686</ele>
        <time>2020-07-30T14:55:38Z</time>
      </trkpt>
      <trkpt lat="45.95539" lon="6.55565">
        <ele>2680</ele>
        <time>2020-07-30T14:55:43Z</time>
      </trkpt>
      <trkpt lat="45.95533" lon="6.55564">
        <ele>2680</ele>
        <time>2020-07-30T14:55:46Z</time>
      </trkpt>
      <trkpt lat="45.95529" lon="6.55566">
        <ele>2682</ele>
        <time>2020-07-30T14:55:48Z</time>
      </trkpt>
      <trkpt lat="45.95528" lon="6.55571">
        <ele>2685</ele>
        <time>2020-07-30T14:55:50Z</time>
      </trkpt>
      <trkpt lat="45.9552" lon="6.5558">
        <ele>2691</ele>
        <time>2020-07-30T14:55:55Z</time>
      </trkpt>
      <trkpt lat="45.95517" lon="6.55566">
        <ele>2684</ele>
        <time>2020-07-30T14:56:00Z</time>
      </trkpt>
      <trkpt lat="45.95511" lon="6.55558">
        <ele>2680</ele>
        <time>2020-07-30T14:56:05Z</time>
      </trkpt>
      <trkpt lat="45.95506" lon="6.55559">
        <ele>2682</ele>
        <time>2020-07-30T14:56:07Z</time>
      </trkpt>
      <trkpt lat="45.95506" lon="6.55552">
        <ele>2678</ele>
        <time>2020-07-30T14:56:09Z</time>
      </trkpt>
      <trkpt lat="45.95493" lon="6.55546">
        <ele>2673</ele>
        <time>2020-07-30T14:56:16Z</time>
      </trkpt>
      <trkpt lat="45.95486" lon="6.55533">
        <ele>2663</ele>
        <time>2020-07-30T14:56:22Z</time>
      </trkpt>
      <trkpt lat="45.95479" lon="6.55526">
        <ele>2657</ele>
        <time>2020-07-30T14:56:26Z</time>
      </trkpt>
      <trkpt lat="45.95473" lon="6.55514">
        <ele>2650</ele>
        <time>2020-07-30T14:56:31Z</time>
      </trkpt>
      <trkpt lat="45.95475" lon="6.55512">
        <ele>2650</ele>
        <time>2020-07-30T14:56:33Z</time>
      </trkpt>
      <trkpt lat="45.95466" lon="6.55497">
        <ele>2640</ele>
        <time>2020-07-30T14:56:40Z</time>
      </trkpt>
      <trkpt lat="45.95464" lon="6.55504">
        <ele>2642</ele>
        <time>2020-07-30T14:56:42Z</time>
      </trkpt>
      <trkpt lat="45.95461" lon="6.55506">
        <ele>2641</ele>
        <time>2020-07-30T14:56:44Z</time>
      </trkpt>
      <trkpt lat="45.95457" lon="6.55505">
        <ele>2639</ele>
        <time>2020-07-30T14:56:46Z</time>
      </trkpt>
      <trkpt lat="45.95451" lon="6.55515">
        <ele>2639</ele>
        <time>2020-07-30T14:56:50Z</time>
      </trkpt>
      <trkpt lat="45.95452" lon="6.55513">
        <ele>2639</ele>
        <time>2020-07-30T14:56:51Z</time>
      </trkpt>
      <trkpt lat="45.95449" lon="6.5551">
        <ele>2637</ele>
        <time>2020-07-30T14:56:53Z</time>
      </trkpt>
      <trkpt lat="45.95443" lon="6.55512">
        <ele>2635</ele>
        <time>2020-07-30T14:56:56Z</time>
      </trkpt>
      <trkpt lat="45.95441" lon="6.55518">
        <ele>2635</ele>
        <time>2020-07-30T14:56:59Z</time>
      </trkpt>
      <trkpt lat="45.95442" lon="6.55525">
        <ele>2637</ele>
        <time>2020-07-30T14:57:01Z</time>
      </trkpt>
      <trkpt lat="45.95431" lon="6.55518">
        <ele>2630</ele>
        <time>2020-07-30T14:57:07Z</time>
      </trkpt>
      <trkpt lat="45.9543" lon="6.5552">
        <ele>2630</ele>
        <time>2020-07-30T14:57:08Z</time>
      </trkpt>
      <trkpt lat="45.95429" lon="6.55516">
        <ele>2629</ele>
        <time>2020-07-30T14:57:09Z</time>
      </trkpt>
      <trkpt lat="45.9543" lon="6.55518">
        <ele>2630</ele>
        <time>2020-07-30T14:57:10Z</time>
      </trkpt>
      <trkpt lat="45.95423" lon="6.55523">
        <ele>2627</ele>
        <time>2020-07-30T14:57:14Z</time>
      </trkpt>
      <trkpt lat="45.9542" lon="6.55534">
        <ele>2627</ele>
        <time>2020-07-30T14:57:18Z</time>
      </trkpt>
      <trkpt lat="45.95414" lon="6.55538">
        <ele>2623</ele>
        <time>2020-07-30T14:57:22Z</time>
      </trkpt>
      <trkpt lat="45.95413" lon="6.55547">
        <ele>2623</ele>
        <time>2020-07-30T14:57:25Z</time>
      </trkpt>
      <trkpt lat="45.95409" lon="6.55545">
        <ele>2619</ele>
        <time>2020-07-30T14:57:27Z</time>
      </trkpt>
      <trkpt lat="45.95399" lon="6.55548">
        <ele>2610</ele>
        <time>2020-07-30T14:57:32Z</time>
      </trkpt>
      <trkpt lat="45.95396" lon="6.55546">
        <ele>2606</ele>
        <time>2020-07-30T14:57:34Z</time>
      </trkpt>
      <trkpt lat="45.95388" lon="6.55553">
        <ele>2599</ele>
        <time>2020-07-30T14:57:38Z</time>
      </trkpt>
      <trkpt lat="45.95377" lon="6.55557">
        <ele>2589</ele>
        <time>2020-07-30T14:57:44Z</time>
      </trkpt>
      <trkpt lat="45.95369" lon="6.55568">
        <ele>2581</ele>
        <time>2020-07-30T14:57:50Z</time>
      </trkpt>
      <trkpt lat="45.95367" lon="6.55567">
        <ele>2579</ele>
        <time>2020-07-30T14:57:51Z</time>
      </trkpt>
      <trkpt lat="45.95365" lon="6.55572">
        <ele>2578</ele>
        <time>2020-07-30T14:57:53Z</time>
      </trkpt>
      <trkpt lat="45.95367" lon="6.55588">
        <ele>2577</ele>
        <time>2020-07-30T14:57:58Z</time>
      </trkpt>
      <trkpt lat="45.95361" lon="6.55603">
        <ele>2561</ele>
        <time>2020-07-30T14:58:04Z</time>
      </trkpt>
      <trkpt lat="45.95351" lon="6.55605">
        <ele>2551</ele>
        <time>2020-07-30T14:58:09Z</time>
      </trkpt>
      <trkpt lat="45.95325" lon="6.55602">
        <ele>2531</ele>
        <time>2020-07-30T14:58:22Z</time>
      </trkpt>
      <trkpt lat="45.95322" lon="6.55604">
        <ele>2528</ele>
        <time>2020-07-30T14:58:24Z</time>
      </trkpt>
      <trkpt lat="45.95322" lon="6.55614">
        <ele>2522</ele>
        <time>2020-07-30T14:58:28Z</time>
      </trkpt>
      <trkpt lat="45.95337" lon="6.55624">
        <ele>2527</ele>
        <time>2020-07-30T14:58:36Z</time>
      </trkpt>
      <trkpt lat="45.95367" lon="6.55657">
        <ele>2531</ele>
        <time>2020-07-30T14:58:55Z</time>
      </trkpt>
      <trkpt lat="45.95374" lon="6.55676">
        <ele>2523</ele>
        <time>2020-07-30T14:59:02Z</time>
      </trkpt>
      <trkpt lat="45.95377" lon="6.55704">
        <ele>2508</ele>
        <time>2020-07-30T14:59:12Z</time>
      </trkpt>
      <trkpt lat="45.95377" lon="6.55711">
        <ele>2503</ele>
        <time>2020-07-30T14:59:14Z</time>
      </trkpt>
      <trkpt lat="45.95374" lon="6.55715">
        <ele>2499</ele>
        <time>2020-07-30T14:59:17Z</time>
      </trkpt>
      <trkpt lat="45.95376" lon="6.55721">
        <ele>2496</ele>
        <time>2020-07-30T14:59:19Z</time>
      </trkpt>
      <trkpt lat="45.95388" lon="6.55743">
        <ele>2489</ele>
        <time>2020-07-30T14:59:29Z</time>
      </trkpt>
      <trkpt lat="45.95396" lon="6.5575">
        <ele>2489</ele>
        <time>2020-07-30T14:59:33Z</time>
      </trkpt>
      <trkpt lat="45.95401" lon="6.55751">
        <ele>2491</ele>
        <time>2020-07-30T14:59:36Z</time>
      </trkpt>
      <trkpt lat="45.95411" lon="6.55764">
        <ele>2490</ele>
        <time>2020-07-30T14:59:43Z</time>
      </trkpt>
      <trkpt lat="45.9541" lon="6.55774">
        <ele>2484</ele>
        <time>2020-07-30T14:59:46Z</time>
      </trkpt>
      <trkpt lat="45.95405" lon="6.55779">
        <ele>2479</ele>
        <time>2020-07-30T14:59:49Z</time>
      </trkpt>
      <trkpt lat="45.95411" lon="6.5579">
        <ele>2476</ele>
        <time>2020-07-30T14:59:54Z</time>
      </trkpt>
      <trkpt lat="45.95415" lon="6.55792">
        <ele>2477</ele>
        <time>2020-07-30T14:59:56Z</time>
      </trkpt>
      <trkpt lat="45.95417" lon="6.5579">
        <ele>2480</ele>
        <time>2020-07-30T14:59:57Z</time>
      </trkpt>
      <trkpt lat="45.95422" lon="6.55802">
        <ele>2477</ele>
        <time>2020-07-30T15:00:02Z</time>
      </trkpt>
      <trkpt lat="45.95431" lon="6.55814">
        <ele>2477</ele>
        <time>2020-07-30T15:00:08Z</time>
      </trkpt>
      <trkpt lat="45.95431" lon="6.55834">
        <ele>2467</ele>
        <time>2020-07-30T15:00:15Z</time>
      </trkpt>
      <trkpt lat="45.95419" lon="6.55827">
        <ele>2462</ele>
        <time>2020-07-30T15:00:22Z</time>
      </trkpt>
      <trkpt lat="45.95422" lon="6.55848">
        <ele>2453</ele>
        <time>2020-07-30T15:00:29Z</time>
      </trkpt>
      <trkpt lat="45.95415" lon="6.55884">
        <ele>2430</ele>
        <time>2020-07-30T15:00:42Z</time>
      </trkpt>
      <trkpt lat="45.95409" lon="6.55894">
        <ele>2422</ele>
        <time>2020-07-30T15:00:47Z</time>
      </trkpt>
      <trkpt lat="45.9541" lon="6.55899">
        <ele>2420</ele>
        <time>2020-07-30T15:00:49Z</time>
      </trkpt>
      <trkpt lat="45.95417" lon="6.55904">
        <ele>2422</ele>
        <time>2020-07-30T15:00:53Z</time>
      </trkpt>
      <trkpt lat="45.95417" lon="6.55908">
        <ele>2420</ele>
        <time>2020-07-30T15:00:54Z</time>
      </trkpt>
      <trkpt lat="45.95421" lon="6.55912">
        <ele>2420</ele>
        <time>2020-07-30T15:00:56Z</time>
      </trkpt>
      <trkpt lat="45.95423" lon="6.55935">
        <ele>2414</ele>
        <time>2020-07-30T15:01:04Z</time>
      </trkpt>
      <trkpt lat="45.95431" lon="6.55947">
        <ele>2416</ele>
        <time>2020-07-30T15:01:10Z</time>
      </trkpt>
      <trkpt lat="45.95432" lon="6.56005">
        <ele>2398</ele>
        <time>2020-07-30T15:01:30Z</time>
      </trkpt>
      <trkpt lat="45.95428" lon="6.56013">
        <ele>2391</ele>
        <time>2020-07-30T15:01:34Z</time>
      </trkpt>
      <trkpt lat="45.95426" lon="6.56028">
        <ele>2382</ele>
        <time>2020-07-30T15:01:39Z</time>
      </trkpt>
      <trkpt lat="45.95422" lon="6.56023">
        <ele>2382</ele>
        <time>2020-07-30T15:01:42Z</time>
      </trkpt>
      <trkpt lat="45.95415" lon="6.56047">
        <ele>2364</ele>
        <time>2020-07-30T15:01:51Z</time>
      </trkpt>
      <trkpt lat="45.95405" lon="6.56054">
        <ele>2352</ele>
        <time>2020-07-30T15:01:56Z</time>
      </trkpt>
      <trkpt lat="45.95393" lon="6.56046">
        <ele>2345</ele>
        <time>2020-07-30T15:02:03Z</time>
      </trkpt>
      <trkpt lat="45.95389" lon="6.56037">
        <ele>2346</ele>
        <time>2020-07-30T15:02:07Z</time>
      </trkpt>
      <trkpt lat="45.95389" lon="6.56031">
        <ele>2349</ele>
        <time>2020-07-30T15:02:09Z</time>
      </trkpt>
      <trkpt lat="45.95387" lon="6.56033">
        <ele>2346</ele>
        <time>2020-07-30T15:02:10Z</time>
      </trkpt>
      <trkpt lat="45.95381" lon="6.56031">
        <ele>2342</ele>
        <time>2020-07-30T15:02:13Z</time>
      </trkpt>
      <trkpt lat="45.95377" lon="6.56026">
        <ele>2341</ele>
        <time>2020-07-30T15:02:16Z</time>
      </trkpt>
      <trkpt lat="45.95376" lon="6.56028">
        <ele>2339</ele>
        <time>2020-07-30T15:02:17Z</time>
      </trkpt>
      <trkpt lat="45.9538" lon="6.56047">
        <ele>2333</ele>
        <time>2020-07-30T15:02:24Z</time>
      </trkpt>
      <trkpt lat="45.9538" lon="6.5606">
        <ele>2327</ele>
        <time>2020-07-30T15:02:28Z</time>
      </trkpt>
      <trkpt lat="45.95376" lon="6.56063">
        <ele>2322</ele>
        <time>2020-07-30T15:02:30Z</time>
      </trkpt>
      <trkpt lat="45.95377" lon="6.56073">
        <ele>2318</ele>
        <time>2020-07-30T15:02:34Z</time>
      </trkpt>
      <trkpt lat="45.95378" lon="6.56077">
        <ele>2317</ele>
        <time>2020-07-30T15:02:35Z</time>
      </trkpt>
      <trkpt lat="45.95387" lon="6.56085">
        <ele>2321</ele>
        <time>2020-07-30T15:02:41Z</time>
      </trkpt>
      <trkpt lat="45.9539" lon="6.56091">
        <ele>2321</ele>
        <time>2020-07-30T15:02:43Z</time>
      </trkpt>
      <trkpt lat="45.95389" lon="6.56098">
        <ele>2317</ele>
        <time>2020-07-30T15:02:46Z</time>
      </trkpt>
      <trkpt lat="45.95399" lon="6.56124">
        <ele>2312</ele>
        <time>2020-07-30T15:02:56Z</time>
      </trkpt>
      <trkpt lat="45.95402" lon="6.56145">
        <ele>2303</ele>
        <time>2020-07-30T15:03:03Z</time>
      </trkpt>
      <trkpt lat="45.95407" lon="6.5615">
        <ele>2303</ele>
        <time>2020-07-30T15:03:06Z</time>
      </trkpt>
      <trkpt lat="45.9541" lon="6.56165">
        <ele>2296</ele>
        <time>2020-07-30T15:03:12Z</time>
      </trkpt>
      <trkpt lat="45.954" lon="6.56165">
        <ele>2291</ele>
        <time>2020-07-30T15:03:17Z</time>
      </trkpt>
      <trkpt lat="45.95399" lon="6.5617">
        <ele>2288</ele>
        <time>2020-07-30T15:03:19Z</time>
      </trkpt>
      <trkpt lat="45.95405" lon="6.56185">
        <ele>2283</ele>
        <time>2020-07-30T15:03:25Z</time>
      </trkpt>
      <trkpt lat="45.954" lon="6.56198">
        <ele>2274</ele>
        <time>2020-07-30T15:03:30Z</time>
      </trkpt>
      <trkpt lat="45.95396" lon="6.56195">
        <ele>2274</ele>
        <time>2020-07-30T15:03:32Z</time>
      </trkpt>
      <trkpt lat="45.95392" lon="6.56197">
        <ele>2271</ele>
        <time>2020-07-30T15:03:34Z</time>
      </trkpt>
      <trkpt lat="45.9539" lon="6.56204">
        <ele>2267</ele>
        <time>2020-07-30T15:03:37Z</time>
      </trkpt>
      <trkpt lat="45.95388" lon="6.56219">
        <ele>2259</ele>
        <time>2020-07-30T15:03:42Z</time>
      </trkpt>
      <trkpt lat="45.95392" lon="6.56239">
        <ele>2251</ele>
        <time>2020-07-30T15:03:49Z</time>
      </trkpt>
      <trkpt lat="45.95383" lon="6.56255">
        <ele>2240</ele>
        <time>2020-07-30T15:03:57Z</time>
      </trkpt>
      <trkpt lat="45.95379" lon="6.56295">
        <ele>2222</ele>
        <time>2020-07-30T15:04:11Z</time>
      </trkpt>
      <trkpt lat="45.9538" lon="6.56335">
        <ele>2206</ele>
        <time>2020-07-30T15:04:25Z</time>
      </trkpt>
      <trkpt lat="45.95353" lon="6.56452">
        <ele>2187</ele>
        <time>2020-07-30T15:05:08Z</time>
      </trkpt>
      <trkpt lat="45.95349" lon="6.56457">
        <ele>2186</ele>
        <time>2020-07-30T15:05:10Z</time>
      </trkpt>
      <trkpt lat="45.9532" lon="6.56475">
        <ele>2181</ele>
        <time>2020-07-30T15:05:26Z</time>
      </trkpt>
      <trkpt lat="45.95286" lon="6.56484">
        <ele>2170</ele>
        <time>2020-07-30T15:05:43Z</time>
      </trkpt>
      <trkpt lat="45.95258" lon="6.56485">
        <ele>2162</ele>
        <time>2020-07-30T15:05:57Z</time>
      </trkpt>
      <trkpt lat="45.95244" lon="6.56492">
        <ele>2159</ele>
        <time>2020-07-30T15:06:05Z</time>
      </trkpt>
      <trkpt lat="45.95213" lon="6.56523">
        <ele>2146</ele>
        <time>2020-07-30T15:06:24Z</time>
      </trkpt>
      <trkpt lat="45.95203" lon="6.5653">
        <ele>2142</ele>
        <time>2020-07-30T15:06:29Z</time>
      </trkpt>
      <trkpt lat="45.95176" lon="6.56525">
        <ele>2139</ele>
        <time>2020-07-30T15:06:43Z</time>
      </trkpt>
      <trkpt lat="45.95164" lon="6.56517">
        <ele>2140</ele>
        <time>2020-07-30T15:06:49Z</time>
      </trkpt>
      <trkpt lat="45.95154" lon="6.56502">
        <ele>2141</ele>
        <time>2020-07-30T15:06:57Z</time>
      </trkpt>
      <trkpt lat="45.95154" lon="6.56454">
        <ele>2132</ele>
        <time>2020-07-30T15:07:13Z</time>
      </trkpt>
      <trkpt lat="45.95155" lon="6.56439">
        <ele>2130</ele>
        <time>2020-07-30T15:07:19Z</time>
      </trkpt>
      <trkpt lat="45.95161" lon="6.56413">
        <ele>2127</ele>
        <time>2020-07-30T15:07:28Z</time>
      </trkpt>
      <trkpt lat="45.95168" lon="6.56406">
        <ele>2128</ele>
        <time>2020-07-30T15:07:32Z</time>
      </trkpt>
      <trkpt lat="45.9517" lon="6.56399">
        <ele>2129</ele>
        <time>2020-07-30T15:07:35Z</time>
      </trkpt>
      <trkpt lat="45.95147" lon="6.56354">
        <ele>2122</ele>
        <time>2020-07-30T15:07:54Z</time>
      </trkpt>
      <trkpt lat="45.95147" lon="6.56326">
        <ele>2123</ele>
        <time>2020-07-30T15:08:04Z</time>
      </trkpt>
      <trkpt lat="45.95096" lon="6.56266">
        <ele>2113</ele>
        <time>2020-07-30T15:08:37Z</time>
      </trkpt>
      <trkpt lat="45.95083" lon="6.56235">
        <ele>2112</ele>
        <time>2020-07-30T15:08:50Z</time>
      </trkpt>
      <trkpt lat="45.95083" lon="6.56226">
        <ele>2114</ele>
        <time>2020-07-30T15:08:53Z</time>
      </trkpt>
      <trkpt lat="45.95058" lon="6.56161">
        <ele>2114</ele>
        <time>2020-07-30T15:09:19Z</time>
      </trkpt>
      <trkpt lat="45.95049" lon="6.56124">
        <ele>2119</ele>
        <time>2020-07-30T15:09:32Z</time>
      </trkpt>
      <trkpt lat="45.95039" lon="6.56104">
        <ele>2120</ele>
        <time>2020-07-30T15:09:41Z</time>
      </trkpt>
      <trkpt lat="45.95027" lon="6.56088">
        <ele>2119</ele>
        <time>2020-07-30T15:09:49Z</time>
      </trkpt>
      <trkpt lat="45.95017" lon="6.56066">
        <ele>2123</ele>
        <time>2020-07-30T15:09:58Z</time>
      </trkpt>
      <trkpt lat="45.94992" lon="6.56036">
        <ele>2128</ele>
        <time>2020-07-30T15:10:15Z</time>
      </trkpt>
      <trkpt lat="45.9497" lon="6.55993">
        <ele>2141</ele>
        <time>2020-07-30T15:10:33Z</time>
      </trkpt>
      <trkpt lat="45.94961" lon="6.5599">
        <ele>2141</ele>
        <time>2020-07-30T15:10:38Z</time>
      </trkpt>
      <trkpt lat="45.9496" lon="6.55986">
        <ele>2142</ele>
        <time>2020-07-30T15:10:39Z</time>
      </trkpt>
      <trkpt lat="45.94943" lon="6.55978">
        <ele>2142</ele>
        <time>2020-07-30T15:10:48Z</time>
      </trkpt>
      <trkpt lat="45.94936" lon="6.55966">
        <ele>2146</ele>
        <time>2020-07-30T15:10:54Z</time>
      </trkpt>
      <trkpt lat="45.94926" lon="6.55962">
        <ele>2145</ele>
        <time>2020-07-30T15:10:59Z</time>
      </trkpt>
      <trkpt lat="45.94919" lon="6.55963">
        <ele>2143</ele>
        <time>2020-07-30T15:11:02Z</time>
      </trkpt>
      <trkpt lat="45.94909" lon="6.55973">
        <ele>2138</ele>
        <time>2020-07-30T15:11:08Z</time>
      </trkpt>
      <trkpt lat="45.94893" lon="6.5596">
        <ele>2141</ele>
        <time>2020-07-30T15:11:18Z</time>
      </trkpt>
      <trkpt lat="45.9489" lon="6.55938">
        <ele>2148</ele>
        <time>2020-07-30T15:11:25Z</time>
      </trkpt>
      <trkpt lat="45.94881" lon="6.5593">
        <ele>2149</ele>
        <time>2020-07-30T15:11:31Z</time>
      </trkpt>
      <trkpt lat="45.94863" lon="6.55926">
        <ele>2146</ele>
        <time>2020-07-30T15:11:40Z</time>
      </trkpt>
      <trkpt lat="45.94855" lon="6.5592">
        <ele>2146</ele>
        <time>2020-07-30T15:11:44Z</time>
      </trkpt>
      <trkpt lat="45.94849" lon="6.55907">
        <ele>2148</ele>
        <time>2020-07-30T15:11:50Z</time>
      </trkpt>
      <trkpt lat="45.94844" lon="6.55865">
        <ele>2155</ele>
        <time>2020-07-30T15:12:05Z</time>
      </trkpt>
      <trkpt lat="45.94839" lon="6.55849">
        <ele>2157</ele>
        <time>2020-07-30T15:12:11Z</time>
      </trkpt>
      <trkpt lat="45.9483" lon="6.55838">
        <ele>2155</ele>
        <time>2020-07-30T15:12:17Z</time>
      </trkpt>
      <trkpt lat="45.94825" lon="6.55822">
        <ele>2156</ele>
        <time>2020-07-30T15:12:23Z</time>
      </trkpt>
      <trkpt lat="45.94816" lon="6.55825">
        <ele>2151</ele>
        <time>2020-07-30T15:12:27Z</time>
      </trkpt>
      <trkpt lat="45.94808" lon="6.5582">
        <ele>2148</ele>
        <time>2020-07-30T15:12:32Z</time>
      </trkpt>
      <trkpt lat="45.94799" lon="6.5581">
        <ele>2146</ele>
        <time>2020-07-30T15:12:37Z</time>
      </trkpt>
      <trkpt lat="45.94779" lon="6.55772">
        <ele>2144</ele>
        <time>2020-07-30T15:12:54Z</time>
      </trkpt>
      <trkpt lat="45.94773" lon="6.55766">
        <ele>2142</ele>
        <time>2020-07-30T15:12:58Z</time>
      </trkpt>
      <trkpt lat="45.94762" lon="6.55742">
        <ele>2140</ele>
        <time>2020-07-30T15:13:08Z</time>
      </trkpt>
      <trkpt lat="45.94718" lon="6.55679">
        <ele>2124</ele>
        <time>2020-07-30T15:13:39Z</time>
      </trkpt>
      <trkpt lat="45.947" lon="6.55627">
        <ele>2119</ele>
        <time>2020-07-30T15:13:59Z</time>
      </trkpt>
      <trkpt lat="45.94693" lon="6.55616">
        <ele>2116</ele>
        <time>2020-07-30T15:14:04Z</time>
      </trkpt>
      <trkpt lat="45.94689" lon="6.55598">
        <ele>2115</ele>
        <time>2020-07-30T15:14:11Z</time>
      </trkpt>
      <trkpt lat="45.94679" lon="6.55582">
        <ele>2110</ele>
        <time>2020-07-30T15:14:18Z</time>
      </trkpt>
      <trkpt lat="45.94677" lon="6.55549">
        <ele>2113</ele>
        <time>2020-07-30T15:14:30Z</time>
      </trkpt>
      <trkpt lat="45.94668" lon="6.55533">
        <ele>2109</ele>
        <time>2020-07-30T15:14:37Z</time>
      </trkpt>
      <trkpt lat="45.94654" lon="6.5548">
        <ele>2101</ele>
        <time>2020-07-30T15:14:57Z</time>
      </trkpt>
      <trkpt lat="45.94646" lon="6.5547">
        <ele>2095</ele>
        <time>2020-07-30T15:15:02Z</time>
      </trkpt>
      <trkpt lat="45.94631" lon="6.5543">
        <ele>2084</ele>
        <time>2020-07-30T15:15:18Z</time>
      </trkpt>
      <trkpt lat="45.94627" lon="6.55425">
        <ele>2082</ele>
        <time>2020-07-30T15:15:20Z</time>
      </trkpt>
      <trkpt lat="45.94617" lon="6.5543">
        <ele>2074</ele>
        <time>2020-07-30T15:15:26Z</time>
      </trkpt>
      <trkpt lat="45.94612" lon="6.55426">
        <ele>2071</ele>
        <time>2020-07-30T15:15:29Z</time>
      </trkpt>
      <trkpt lat="45.94608" lon="6.55418">
        <ele>2069</ele>
        <time>2020-07-30T15:15:32Z</time>
      </trkpt>
      <trkpt lat="45.9461" lon="6.55409">
        <ele>2070</ele>
        <time>2020-07-30T15:15:35Z</time>
      </trkpt>
      <trkpt lat="45.94608" lon="6.55399">
        <ele>2068</ele>
        <time>2020-07-30T15:15:39Z</time>
      </trkpt>
      <trkpt lat="45.94597" lon="6.55404">
        <ele>2061</ele>
        <time>2020-07-30T15:15:45Z</time>
      </trkpt>
      <trkpt lat="45.94593" lon="6.55394">
        <ele>2057</ele>
        <time>2020-07-30T15:15:49Z</time>
      </trkpt>
      <trkpt lat="45.94588" lon="6.55392">
        <ele>2054</ele>
        <time>2020-07-30T15:15:51Z</time>
      </trkpt>
      <trkpt lat="45.94581" lon="6.55398">
        <ele>2050</ele>
        <time>2020-07-30T15:15:55Z</time>
      </trkpt>
      <trkpt lat="45.94578" lon="6.55406">
        <ele>2048</ele>
        <time>2020-07-30T15:15:59Z</time>
      </trkpt>
      <trkpt lat="45.9456" lon="6.55391">
        <ele>2038</ele>
        <time>2020-07-30T15:16:09Z</time>
      </trkpt>
      <trkpt lat="45.94558" lon="6.55387">
        <ele>2036</ele>
        <time>2020-07-30T15:16:11Z</time>
      </trkpt>
      <trkpt lat="45.94551" lon="6.55384">
        <ele>2032</ele>
        <time>2020-07-30T15:16:14Z</time>
      </trkpt>
      <trkpt lat="45.94541" lon="6.55369">
        <ele>2027</ele>
        <time>2020-07-30T15:16:22Z</time>
      </trkpt>
      <trkpt lat="45.94518" lon="6.5537">
        <ele>2015</ele>
        <time>2020-07-30T15:16:33Z</time>
      </trkpt>
      <trkpt lat="45.94487" lon="6.5535">
        <ele>2001</ele>
        <time>2020-07-30T15:16:50Z</time>
      </trkpt>
      <trkpt lat="45.94481" lon="6.55339">
        <ele>1999</ele>
        <time>2020-07-30T15:16:55Z</time>
      </trkpt>
      <trkpt lat="45.94466" lon="6.55284">
        <ele>1988</ele>
        <time>2020-07-30T15:17:15Z</time>
      </trkpt>
      <trkpt lat="45.9445" lon="6.55259">
        <ele>1979</ele>
        <time>2020-07-30T15:17:27Z</time>
      </trkpt>
      <trkpt lat="45.94443" lon="6.55235">
        <ele>1975</ele>
        <time>2020-07-30T15:17:36Z</time>
      </trkpt>
      <trkpt lat="45.94418" lon="6.55185">
        <ele>1964</ele>
        <time>2020-07-30T15:17:58Z</time>
      </trkpt>
      <trkpt lat="45.94411" lon="6.55159">
        <ele>1961</ele>
        <time>2020-07-30T15:18:07Z</time>
      </trkpt>
      <trkpt lat="45.94407" lon="6.55159">
        <ele>1960</ele>
        <time>2020-07-30T15:18:09Z</time>
      </trkpt>
      <trkpt lat="45.944" lon="6.55166">
        <ele>1958</ele>
        <time>2020-07-30T15:18:14Z</time>
      </trkpt>
      <trkpt lat="45.94399" lon="6.55174">
        <ele>1958</ele>
        <time>2020-07-30T15:18:17Z</time>
      </trkpt>
      <trkpt lat="45.94385" lon="6.55206">
        <ele>1953</ele>
        <time>2020-07-30T15:18:30Z</time>
      </trkpt>
      <trkpt lat="45.94362" lon="6.55233">
        <ele>1943</ele>
        <time>2020-07-30T15:18:45Z</time>
      </trkpt>
      <trkpt lat="45.94354" lon="6.5524">
        <ele>1939</ele>
        <time>2020-07-30T15:18:49Z</time>
      </trkpt>
      <trkpt lat="45.94341" lon="6.55244">
        <ele>1934</ele>
        <time>2020-07-30T15:18:56Z</time>
      </trkpt>
      <trkpt lat="45.943" lon="6.55278">
        <ele>1918</ele>
        <time>2020-07-30T15:19:20Z</time>
      </trkpt>
      <trkpt lat="45.94295" lon="6.55277">
        <ele>1917</ele>
        <time>2020-07-30T15:19:22Z</time>
      </trkpt>
      <trkpt lat="45.94281" lon="6.55261">
        <ele>1912</ele>
        <time>2020-07-30T15:19:31Z</time>
      </trkpt>
      <trkpt lat="45.94263" lon="6.55234">
        <ele>1908</ele>
        <time>2020-07-30T15:19:44Z</time>
      </trkpt>
      <trkpt lat="45.94242" lon="6.5521">
        <ele>1903</ele>
        <time>2020-07-30T15:19:58Z</time>
      </trkpt>
      <trkpt lat="45.94235" lon="6.55207">
        <ele>1902</ele>
        <time>2020-07-30T15:20:01Z</time>
      </trkpt>
      <trkpt lat="45.94229" lon="6.55212">
        <ele>1900</ele>
        <time>2020-07-30T15:20:05Z</time>
      </trkpt>
      <trkpt lat="45.94223" lon="6.55212">
        <ele>1899</ele>
        <time>2020-07-30T15:20:08Z</time>
      </trkpt>
      <trkpt lat="45.94213" lon="6.55208">
        <ele>1898</ele>
        <time>2020-07-30T15:20:13Z</time>
      </trkpt>
      <trkpt lat="45.94208" lon="6.55198">
        <ele>1897</ele>
        <time>2020-07-30T15:20:17Z</time>
      </trkpt>
      <trkpt lat="45.94193" lon="6.55179">
        <ele>1896</ele>
        <time>2020-07-30T15:20:27Z</time>
      </trkpt>
      <trkpt lat="45.94193" lon="6.55153">
        <ele>1897</ele>
        <time>2020-07-30T15:20:36Z</time>
      </trkpt>
      <trkpt lat="45.94187" lon="6.55139">
        <ele>1896</ele>
        <time>2020-07-30T15:20:42Z</time>
      </trkpt>
      <trkpt lat="45.94183" lon="6.55137">
        <ele>1895</ele>
        <time>2020-07-30T15:20:44Z</time>
      </trkpt>
      <trkpt lat="45.94175" lon="6.55124">
        <ele>1894</ele>
        <time>2020-07-30T15:20:50Z</time>
      </trkpt>
      <trkpt lat="45.94164" lon="6.55123">
        <ele>1894</ele>
        <time>2020-07-30T15:20:56Z</time>
      </trkpt>
      <trkpt lat="45.9416" lon="6.55117">
        <ele>1896</ele>
        <time>2020-07-30T15:20:58Z</time>
      </trkpt>
      <trkpt lat="45.9415" lon="6.55113">
        <ele>1901</ele>
        <time>2020-07-30T15:21:04Z</time>
      </trkpt>
      <trkpt lat="45.94146" lon="6.55106">
        <ele>1903</ele>
        <time>2020-07-30T15:21:07Z</time>
      </trkpt>
      <trkpt lat="45.94137" lon="6.55075">
        <ele>1907</ele>
        <time>2020-07-30T15:21:19Z</time>
      </trkpt>
      <trkpt lat="45.94123" lon="6.55054">
        <ele>1911</ele>
        <time>2020-07-30T15:21:29Z</time>
      </trkpt>
      <trkpt lat="45.94112" lon="6.55045">
        <ele>1915</ele>
        <time>2020-07-30T15:21:35Z</time>
      </trkpt>
      <trkpt lat="45.94104" lon="6.55029">
        <ele>1916</ele>
        <time>2020-07-30T15:21:42Z</time>
      </trkpt>
      <trkpt lat="45.94089" lon="6.55012">
        <ele>1918</ele>
        <time>2020-07-30T15:21:51Z</time>
      </trkpt>
      <trkpt lat="45.94078" lon="6.54987">
        <ele>1921</ele>
        <time>2020-07-30T15:22:02Z</time>
      </trkpt>
      <trkpt lat="45.94071" lon="6.5498">
        <ele>1925</ele>
        <time>2020-07-30T15:22:06Z</time>
      </trkpt>
      <trkpt lat="45.94066" lon="6.54964">
        <ele>1927</ele>
        <time>2020-07-30T15:22:12Z</time>
      </trkpt>
      <trkpt lat="45.94061" lon="6.54964">
        <ele>1930</ele>
        <time>2020-07-30T15:22:15Z</time>
      </trkpt>
      <trkpt lat="45.94058" lon="6.54959">
        <ele>1931</ele>
        <time>2020-07-30T15:22:17Z</time>
      </trkpt>
      <trkpt lat="45.94052" lon="6.54956">
        <ele>1935</ele>
        <time>2020-07-30T15:22:20Z</time>
      </trkpt>
      <trkpt lat="45.94049" lon="6.5495">
        <ele>1936</ele>
        <time>2020-07-30T15:22:23Z</time>
      </trkpt>
      <trkpt lat="45.94038" lon="6.54951">
        <ele>1943</ele>
        <time>2020-07-30T15:22:28Z</time>
      </trkpt>
      <trkpt lat="45.94025" lon="6.54941">
        <ele>1949</ele>
        <time>2020-07-30T15:22:35Z</time>
      </trkpt>
      <trkpt lat="45.94012" lon="6.54946">
        <ele>1957</ele>
        <time>2020-07-30T15:22:42Z</time>
      </trkpt>
      <trkpt lat="45.94013" lon="6.54959">
        <ele>1959</ele>
        <time>2020-07-30T15:22:47Z</time>
      </trkpt>
      <trkpt lat="45.9401" lon="6.54975">
        <ele>1963</ele>
        <time>2020-07-30T15:22:53Z</time>
      </trkpt>
      <trkpt lat="45.93996" lon="6.5498">
        <ele>1971</ele>
        <time>2020-07-30T15:23:00Z</time>
      </trkpt>
      <trkpt lat="45.93987" lon="6.54973">
        <ele>1972</ele>
        <time>2020-07-30T15:23:05Z</time>
      </trkpt>
      <trkpt lat="45.93966" lon="6.5497">
        <ele>1978</ele>
        <time>2020-07-30T15:23:15Z</time>
      </trkpt>
      <trkpt lat="45.93951" lon="6.54944">
        <ele>1979</ele>
        <time>2020-07-30T15:23:27Z</time>
      </trkpt>
      <trkpt lat="45.93934" lon="6.54925">
        <ele>1981</ele>
        <time>2020-07-30T15:23:38Z</time>
      </trkpt>
      <trkpt lat="45.9392" lon="6.54882">
        <ele>1985</ele>
        <time>2020-07-30T15:23:55Z</time>
      </trkpt>
      <trkpt lat="45.93906" lon="6.54854">
        <ele>1988</ele>
        <time>2020-07-30T15:24:07Z</time>
      </trkpt>
      <trkpt lat="45.93885" lon="6.54839">
        <ele>1991</ele>
        <time>2020-07-30T15:24:18Z</time>
      </trkpt>
      <trkpt lat="45.93869" lon="6.54808">
        <ele>1993</ele>
        <time>2020-07-30T15:24:32Z</time>
      </trkpt>
      <trkpt lat="45.93841" lon="6.54773">
        <ele>1995</ele>
        <time>2020-07-30T15:24:50Z</time>
      </trkpt>
      <trkpt lat="45.93824" lon="6.54761">
        <ele>1996</ele>
        <time>2020-07-30T15:25:00Z</time>
      </trkpt>
      <trkpt lat="45.938" lon="6.54749">
        <ele>1997</ele>
        <time>2020-07-30T15:25:12Z</time>
      </trkpt>
      <trkpt lat="45.93774" lon="6.5474">
        <ele>1999</ele>
        <time>2020-07-30T15:25:26Z</time>
      </trkpt>
      <trkpt lat="45.93762" lon="6.54723">
        <ele>1998</ele>
        <time>2020-07-30T15:25:34Z</time>
      </trkpt>
      <trkpt lat="45.93754" lon="6.54704">
        <ele>1997</ele>
        <time>2020-07-30T15:25:42Z</time>
      </trkpt>
      <trkpt lat="45.9373" lon="6.54667">
        <ele>2000</ele>
        <time>2020-07-30T15:26:00Z</time>
      </trkpt>
      <trkpt lat="45.93719" lon="6.54639">
        <ele>2000</ele>
        <time>2020-07-30T15:26:11Z</time>
      </trkpt>
      <trkpt lat="45.93707" lon="6.54617">
        <ele>2001</ele>
        <time>2020-07-30T15:26:21Z</time>
      </trkpt>
      <trkpt lat="45.93687" lon="6.54602">
        <ele>2003</ele>
        <time>2020-07-30T15:26:32Z</time>
      </trkpt>
      <trkpt lat="45.93666" lon="6.54599">
        <ele>2005</ele>
        <time>2020-07-30T15:26:42Z</time>
      </trkpt>
      <trkpt lat="45.93653" lon="6.54588">
        <ele>2007</ele>
        <time>2020-07-30T15:26:50Z</time>
      </trkpt>
      <trkpt lat="45.93638" lon="6.54586">
        <ele>2010</ele>
        <time>2020-07-30T15:26:57Z</time>
      </trkpt>
      <trkpt lat="45.9363" lon="6.54581">
        <ele>2012</ele>
        <time>2020-07-30T15:27:02Z</time>
      </trkpt>
      <trkpt lat="45.93621" lon="6.5458">
        <ele>2014</ele>
        <time>2020-07-30T15:27:06Z</time>
      </trkpt>
      <trkpt lat="45.93553" lon="6.54541">
        <ele>2025</ele>
        <time>2020-07-30T15:27:43Z</time>
      </trkpt>
      <trkpt lat="45.93521" lon="6.54529">
        <ele>2028</ele>
        <time>2020-07-30T15:28:00Z</time>
      </trkpt>
      <trkpt lat="45.9351" lon="6.54527">
        <ele>2030</ele>
        <time>2020-07-30T15:28:05Z</time>
      </trkpt>
      <trkpt lat="45.93495" lon="6.54529">
        <ele>2032</ele>
        <time>2020-07-30T15:28:13Z</time>
      </trkpt>
      <trkpt lat="45.93469" lon="6.54538">
        <ele>2032</ele>
        <time>2020-07-30T15:28:26Z</time>
      </trkpt>
      <trkpt lat="45.93454" lon="6.54547">
        <ele>2033</ele>
        <time>2020-07-30T15:28:34Z</time>
      </trkpt>
      <trkpt lat="45.93411" lon="6.54531">
        <ele>2032</ele>
        <time>2020-07-30T15:28:56Z</time>
      </trkpt>
      <trkpt lat="45.93395" lon="6.54533">
        <ele>2033</ele>
        <time>2020-07-30T15:29:04Z</time>
      </trkpt>
      <trkpt lat="45.93389" lon="6.54528">
        <ele>2033</ele>
        <time>2020-07-30T15:29:08Z</time>
      </trkpt>
      <trkpt lat="45.93379" lon="6.54499">
        <ele>2034</ele>
        <time>2020-07-30T15:29:19Z</time>
      </trkpt>
      <trkpt lat="45.93376" lon="6.54477">
        <ele>2035</ele>
        <time>2020-07-30T15:29:27Z</time>
      </trkpt>
      <trkpt lat="45.93361" lon="6.54448">
        <ele>2037</ele>
        <time>2020-07-30T15:29:39Z</time>
      </trkpt>
      <trkpt lat="45.93345" lon="6.54434">
        <ele>2040</ele>
        <time>2020-07-30T15:29:49Z</time>
      </trkpt>
      <trkpt lat="45.93335" lon="6.54428">
        <ele>2042</ele>
        <time>2020-07-30T15:29:54Z</time>
      </trkpt>
      <trkpt lat="45.93315" lon="6.54424">
        <ele>2045</ele>
        <time>2020-07-30T15:30:04Z</time>
      </trkpt>
      <trkpt lat="45.93273" lon="6.54431">
        <ele>2051</ele>
        <time>2020-07-30T15:30:26Z</time>
      </trkpt>
      <trkpt lat="45.9326" lon="6.54424">
        <ele>2054</ele>
        <time>2020-07-30T15:30:32Z</time>
      </trkpt>
      <trkpt lat="45.93256" lon="6.54428">
        <ele>2054</ele>
        <time>2020-07-30T15:30:35Z</time>
      </trkpt>
      <trkpt lat="45.93247" lon="6.54431">
        <ele>2055</ele>
        <time>2020-07-30T15:30:40Z</time>
      </trkpt>
      <trkpt lat="45.93234" lon="6.54424">
        <ele>2056</ele>
        <time>2020-07-30T15:30:47Z</time>
      </trkpt>
      <trkpt lat="45.93224" lon="6.54413">
        <ele>2057</ele>
        <time>2020-07-30T15:30:53Z</time>
      </trkpt>
      <trkpt lat="45.93191" lon="6.54364">
        <ele>2061</ele>
        <time>2020-07-30T15:31:17Z</time>
      </trkpt>
      <trkpt lat="45.93129" lon="6.54327">
        <ele>2062</ele>
        <time>2020-07-30T15:31:50Z</time>
      </trkpt>
      <trkpt lat="45.93123" lon="6.54315">
        <ele>2063</ele>
        <time>2020-07-30T15:31:55Z</time>
      </trkpt>
      <trkpt lat="45.93118" lon="6.54293">
        <ele>2065</ele>
        <time>2020-07-30T15:32:03Z</time>
      </trkpt>
      <trkpt lat="45.9311" lon="6.54283">
        <ele>2065</ele>
        <time>2020-07-30T15:32:09Z</time>
      </trkpt>
      <trkpt lat="45.93085" lon="6.54271">
        <ele>2065</ele>
        <time>2020-07-30T15:32:22Z</time>
      </trkpt>
      <trkpt lat="45.93061" lon="6.54241">
        <ele>2068</ele>
        <time>2020-07-30T15:32:38Z</time>
      </trkpt>
      <trkpt lat="45.93042" lon="6.5423">
        <ele>2069</ele>
        <time>2020-07-30T15:32:48Z</time>
      </trkpt>
      <trkpt lat="45.93021" lon="6.54228">
        <ele>2069</ele>
        <time>2020-07-30T15:32:59Z</time>
      </trkpt>
      <trkpt lat="45.92993" lon="6.54219">
        <ele>2070</ele>
        <time>2020-07-30T15:33:13Z</time>
      </trkpt>
      <trkpt lat="45.9298" lon="6.5422">
        <ele>2071</ele>
        <time>2020-07-30T15:33:19Z</time>
      </trkpt>
      <trkpt lat="45.92956" lon="6.54181">
        <ele>2074</ele>
        <time>2020-07-30T15:33:38Z</time>
      </trkpt>
      <trkpt lat="45.92931" lon="6.54155">
        <ele>2078</ele>
        <time>2020-07-30T15:33:53Z</time>
      </trkpt>
      <trkpt lat="45.92912" lon="6.54143">
        <ele>2080</ele>
        <time>2020-07-30T15:34:03Z</time>
      </trkpt>
      <trkpt lat="45.92898" lon="6.5413">
        <ele>2083</ele>
        <time>2020-07-30T15:34:12Z</time>
      </trkpt>
      <trkpt lat="45.92856" lon="6.54112">
        <ele>2090</ele>
        <time>2020-07-30T15:34:34Z</time>
      </trkpt>
      <trkpt lat="45.92825" lon="6.54079">
        <ele>2096</ele>
        <time>2020-07-30T15:34:53Z</time>
      </trkpt>
      <trkpt lat="45.92801" lon="6.54061">
        <ele>2101</ele>
        <time>2020-07-30T15:35:06Z</time>
      </trkpt>
      <trkpt lat="45.92766" lon="6.54013">
        <ele>2106</ele>
        <time>2020-07-30T15:35:31Z</time>
      </trkpt>
      <trkpt lat="45.92763" lon="6.54004">
        <ele>2107</ele>
        <time>2020-07-30T15:35:34Z</time>
      </trkpt>
      <trkpt lat="45.92756" lon="6.53999">
        <ele>2108</ele>
        <time>2020-07-30T15:35:38Z</time>
      </trkpt>
      <trkpt lat="45.92749" lon="6.53987">
        <ele>2110</ele>
        <time>2020-07-30T15:35:44Z</time>
      </trkpt>
      <trkpt lat="45.92736" lon="6.53973">
        <ele>2115</ele>
        <time>2020-07-30T15:35:52Z</time>
      </trkpt>
      <trkpt lat="45.9273" lon="6.5396">
        <ele>2117</ele>
        <time>2020-07-30T15:35:57Z</time>
      </trkpt>
      <trkpt lat="45.92698" lon="6.53923">
        <ele>2127</ele>
        <time>2020-07-30T15:36:18Z</time>
      </trkpt>
      <trkpt lat="45.92686" lon="6.53885">
        <ele>2138</ele>
        <time>2020-07-30T15:36:32Z</time>
      </trkpt>
      <trkpt lat="45.92667" lon="6.53863">
        <ele>2145</ele>
        <time>2020-07-30T15:36:44Z</time>
      </trkpt>
      <trkpt lat="45.92657" lon="6.53841">
        <ele>2152</ele>
        <time>2020-07-30T15:36:54Z</time>
      </trkpt>
      <trkpt lat="45.92654" lon="6.5384">
        <ele>2153</ele>
        <time>2020-07-30T15:36:55Z</time>
      </trkpt>
      <trkpt lat="45.92649" lon="6.53832">
        <ele>2155</ele>
        <time>2020-07-30T15:36:59Z</time>
      </trkpt>
      <trkpt lat="45.92644" lon="6.53818">
        <ele>2159</ele>
        <time>2020-07-30T15:37:04Z</time>
      </trkpt>
      <trkpt lat="45.9264" lon="6.53814">
        <ele>2161</ele>
        <time>2020-07-30T15:37:07Z</time>
      </trkpt>
      <trkpt lat="45.92634" lon="6.53813">
        <ele>2162</ele>
        <time>2020-07-30T15:37:10Z</time>
      </trkpt>
      <trkpt lat="45.92623" lon="6.53778">
        <ele>2170</ele>
        <time>2020-07-30T15:37:23Z</time>
      </trkpt>
      <trkpt lat="45.9261" lon="6.53752">
        <ele>2176</ele>
        <time>2020-07-30T15:37:34Z</time>
      </trkpt>
      <trkpt lat="45.92609" lon="6.53743">
        <ele>2178</ele>
        <time>2020-07-30T15:37:37Z</time>
      </trkpt>
      <trkpt lat="45.92605" lon="6.5374">
        <ele>2180</ele>
        <time>2020-07-30T15:37:40Z</time>
      </trkpt>
      <trkpt lat="45.92603" lon="6.53733">
        <ele>2182</ele>
        <time>2020-07-30T15:37:42Z</time>
      </trkpt>
      <trkpt lat="45.92598" lon="6.53727">
        <ele>2184</ele>
        <time>2020-07-30T15:37:46Z</time>
      </trkpt>
      <trkpt lat="45.92589" lon="6.53722">
        <ele>2186</ele>
        <time>2020-07-30T15:37:50Z</time>
      </trkpt>
      <trkpt lat="45.92592" lon="6.53717">
        <ele>2187</ele>
        <time>2020-07-30T15:37:53Z</time>
      </trkpt>
      <trkpt lat="45.9259" lon="6.53705">
        <ele>2191</ele>
        <time>2020-07-30T15:37:57Z</time>
      </trkpt>
      <trkpt lat="45.92588" lon="6.53703">
        <ele>2192</ele>
        <time>2020-07-30T15:37:58Z</time>
      </trkpt>
      <trkpt lat="45.92587" lon="6.53705">
        <ele>2191</ele>
        <time>2020-07-30T15:37:59Z</time>
      </trkpt>
      <trkpt lat="45.92578" lon="6.53705">
        <ele>2192</ele>
        <time>2020-07-30T15:38:04Z</time>
      </trkpt>
      <trkpt lat="45.92577" lon="6.53696">
        <ele>2196</ele>
        <time>2020-07-30T15:38:07Z</time>
      </trkpt>
      <trkpt lat="45.92574" lon="6.53695">
        <ele>2197</ele>
        <time>2020-07-30T15:38:08Z</time>
      </trkpt>
      <trkpt lat="45.92571" lon="6.53698">
        <ele>2197</ele>
        <time>2020-07-30T15:38:10Z</time>
      </trkpt>
      <trkpt lat="45.92565" lon="6.53693">
        <ele>2200</ele>
        <time>2020-07-30T15:38:14Z</time>
      </trkpt>
      <trkpt lat="45.92564" lon="6.53696">
        <ele>2199</ele>
        <time>2020-07-30T15:38:15Z</time>
      </trkpt>
      <trkpt lat="45.92556" lon="6.53699">
        <ele>2200</ele>
        <time>2020-07-30T15:38:19Z</time>
      </trkpt>
      <trkpt lat="45.9255" lon="6.53688">
        <ele>2205</ele>
        <time>2020-07-30T15:38:24Z</time>
      </trkpt>
      <trkpt lat="45.92543" lon="6.53694">
        <ele>2205</ele>
        <time>2020-07-30T15:38:28Z</time>
      </trkpt>
      <trkpt lat="45.92541" lon="6.53687">
        <ele>2208</ele>
        <time>2020-07-30T15:38:30Z</time>
      </trkpt>
      <trkpt lat="45.92538" lon="6.5369">
        <ele>2208</ele>
        <time>2020-07-30T15:38:32Z</time>
      </trkpt>
      <trkpt lat="45.92534" lon="6.5369">
        <ele>2209</ele>
        <time>2020-07-30T15:38:34Z</time>
      </trkpt>
      <trkpt lat="45.9252" lon="6.53686">
        <ele>2214</ele>
        <time>2020-07-30T15:38:41Z</time>
      </trkpt>
      <trkpt lat="45.92513" lon="6.53681">
        <ele>2218</ele>
        <time>2020-07-30T15:38:45Z</time>
      </trkpt>
      <trkpt lat="45.92507" lon="6.53682">
        <ele>2219</ele>
        <time>2020-07-30T15:38:48Z</time>
      </trkpt>
      <trkpt lat="45.92499" lon="6.53679">
        <ele>2222</ele>
        <time>2020-07-30T15:38:53Z</time>
      </trkpt>
      <trkpt lat="45.92496" lon="6.53681">
        <ele>2221</ele>
        <time>2020-07-30T15:38:54Z</time>
      </trkpt>
      <trkpt lat="45.92493" lon="6.53676">
        <ele>2223</ele>
        <time>2020-07-30T15:38:56Z</time>
      </trkpt>
      <trkpt lat="45.92489" lon="6.53675">
        <ele>2223</ele>
        <time>2020-07-30T15:38:58Z</time>
      </trkpt>
      <trkpt lat="45.92489" lon="6.5367">
        <ele>2225</ele>
        <time>2020-07-30T15:39:00Z</time>
      </trkpt>
      <trkpt lat="45.92459" lon="6.53644">
        <ele>2234</ele>
        <time>2020-07-30T15:39:18Z</time>
      </trkpt>
      <trkpt lat="45.92448" lon="6.53616">
        <ele>2244</ele>
        <time>2020-07-30T15:39:29Z</time>
      </trkpt>
      <trkpt lat="45.92448" lon="6.53601">
        <ele>2249</ele>
        <time>2020-07-30T15:39:34Z</time>
      </trkpt>
      <trkpt lat="45.92444" lon="6.53592">
        <ele>2252</ele>
        <time>2020-07-30T15:39:38Z</time>
      </trkpt>
      <trkpt lat="45.92448" lon="6.53569">
        <ele>2260</ele>
        <time>2020-07-30T15:39:46Z</time>
      </trkpt>
      <trkpt lat="45.92451" lon="6.5357">
        <ele>2260</ele>
        <time>2020-07-30T15:39:48Z</time>
      </trkpt>
      <trkpt lat="45.92459" lon="6.53561">
        <ele>2263</ele>
        <time>2020-07-30T15:39:53Z</time>
      </trkpt>
      <trkpt lat="45.92456" lon="6.53555">
        <ele>2265</ele>
        <time>2020-07-30T15:39:55Z</time>
      </trkpt>
      <trkpt lat="45.92456" lon="6.53537">
        <ele>2272</ele>
        <time>2020-07-30T15:40:02Z</time>
      </trkpt>
      <trkpt lat="45.92461" lon="6.5353">
        <ele>2275</ele>
        <time>2020-07-30T15:40:05Z</time>
      </trkpt>
      <trkpt lat="45.92461" lon="6.5351">
        <ele>2282</ele>
        <time>2020-07-30T15:40:12Z</time>
      </trkpt>
      <trkpt lat="45.92465" lon="6.53502">
        <ele>2285</ele>
        <time>2020-07-30T15:40:15Z</time>
      </trkpt>
      <trkpt lat="45.92465" lon="6.53495">
        <ele>2287</ele>
        <time>2020-07-30T15:40:18Z</time>
      </trkpt>
      <trkpt lat="45.92471" lon="6.53487">
        <ele>2289</ele>
        <time>2020-07-30T15:40:22Z</time>
      </trkpt>
      <trkpt lat="45.92466" lon="6.5348">
        <ele>2290</ele>
        <time>2020-07-30T15:40:26Z</time>
      </trkpt>
      <trkpt lat="45.9247" lon="6.53478">
        <ele>2291</ele>
        <time>2020-07-30T15:40:28Z</time>
      </trkpt>
      <trkpt lat="45.92471" lon="6.5347">
        <ele>2293</ele>
        <time>2020-07-30T15:40:30Z</time>
      </trkpt>
      <trkpt lat="45.92469" lon="6.53466">
        <ele>2293</ele>
        <time>2020-07-30T15:40:32Z</time>
      </trkpt>
      <trkpt lat="45.92474" lon="6.53461">
        <ele>2295</ele>
        <time>2020-07-30T15:40:35Z</time>
      </trkpt>
      <trkpt lat="45.92472" lon="6.53459">
        <ele>2295</ele>
        <time>2020-07-30T15:40:36Z</time>
      </trkpt>
      <trkpt lat="45.92473" lon="6.53444">
        <ele>2298</ele>
        <time>2020-07-30T15:40:42Z</time>
      </trkpt>
      <trkpt lat="45.92463" lon="6.5343">
        <ele>2300</ele>
        <time>2020-07-30T15:40:49Z</time>
      </trkpt>
      <trkpt lat="45.9245" lon="6.53402">
        <ele>2306</ele>
        <time>2020-07-30T15:41:00Z</time>
      </trkpt>
      <trkpt lat="45.92443" lon="6.53374">
        <ele>2312</ele>
        <time>2020-07-30T15:41:11Z</time>
      </trkpt>
      <trkpt lat="45.92435" lon="6.53336">
        <ele>2321</ele>
        <time>2020-07-30T15:41:25Z</time>
      </trkpt>
      <trkpt lat="45.92435" lon="6.5328">
        <ele>2335</ele>
        <time>2020-07-30T15:41:44Z</time>
      </trkpt>
      <trkpt lat="45.92425" lon="6.53249">
        <ele>2345</ele>
        <time>2020-07-30T15:41:56Z</time>
      </trkpt>
      <trkpt lat="45.92427" lon="6.53235">
        <ele>2350</ele>
        <time>2020-07-30T15:42:01Z</time>
      </trkpt>
      <trkpt lat="45.9243" lon="6.53234">
        <ele>2350</ele>
        <time>2020-07-30T15:42:02Z</time>
      </trkpt>
      <trkpt lat="45.92431" lon="6.53237">
        <ele>2348</ele>
        <time>2020-07-30T15:42:04Z</time>
      </trkpt>
      <trkpt lat="45.92435" lon="6.53237">
        <ele>2347</ele>
        <time>2020-07-30T15:42:06Z</time>
      </trkpt>
      <trkpt lat="45.92435" lon="6.53235">
        <ele>2348</ele>
        <time>2020-07-30T15:42:06Z</time>
      </trkpt>
      <trkpt lat="45.92431" lon="6.53224">
        <ele>2353</ele>
        <time>2020-07-30T15:42:11Z</time>
      </trkpt>
      <trkpt lat="45.92425" lon="6.53216">
        <ele>2357</ele>
        <time>2020-07-30T15:42:15Z</time>
      </trkpt>
      <trkpt lat="45.92421" lon="6.53169">
        <ele>2374</ele>
        <time>2020-07-30T15:42:31Z</time>
      </trkpt>
      <trkpt lat="45.92418" lon="6.53157">
        <ele>2381</ele>
        <time>2020-07-30T15:42:36Z</time>
      </trkpt>
      <trkpt lat="45.92414" lon="6.53146">
        <ele>2385</ele>
        <time>2020-07-30T15:42:40Z</time>
      </trkpt>
      <trkpt lat="45.92399" lon="6.53126">
        <ele>2384</ele>
        <time>2020-07-30T15:42:50Z</time>
      </trkpt>
      <trkpt lat="45.92397" lon="6.53116">
        <ele>2389</ele>
        <time>2020-07-30T15:42:54Z</time>
      </trkpt>
      <trkpt lat="45.92398" lon="6.53109">
        <ele>2394</ele>
        <time>2020-07-30T15:42:56Z</time>
      </trkpt>
      <trkpt lat="45.924" lon="6.53109">
        <ele>2395</ele>
        <time>2020-07-30T15:42:57Z</time>
      </trkpt>
      <trkpt lat="45.924" lon="6.53105">
        <ele>2398</ele>
        <time>2020-07-30T15:42:59Z</time>
      </trkpt>
      <trkpt lat="45.92403" lon="6.53105">
        <ele>2401</ele>
        <time>2020-07-30T15:43:00Z</time>
      </trkpt>
      <trkpt lat="45.92404" lon="6.531">
        <ele>2404</ele>
        <time>2020-07-30T15:43:02Z</time>
      </trkpt>
      <trkpt lat="45.92408" lon="6.53103">
        <ele>2406</ele>
        <time>2020-07-30T15:43:04Z</time>
      </trkpt>
      <trkpt lat="45.92404" lon="6.53083">
        <ele>2415</ele>
        <time>2020-07-30T15:43:12Z</time>
      </trkpt>
      <trkpt lat="45.92407" lon="6.5308">
        <ele>2417</ele>
        <time>2020-07-30T15:43:13Z</time>
      </trkpt>
      <trkpt lat="45.92406" lon="6.53076">
        <ele>2416</ele>
        <time>2020-07-30T15:43:15Z</time>
      </trkpt>
      <trkpt lat="45.92409" lon="6.53075">
        <ele>2419</ele>
        <time>2020-07-30T15:43:16Z</time>
      </trkpt>
      <trkpt lat="45.92409" lon="6.53071">
        <ele>2418</ele>
        <time>2020-07-30T15:43:18Z</time>
      </trkpt>
      <trkpt lat="45.92411" lon="6.53072">
        <ele>2420</ele>
        <time>2020-07-30T15:43:19Z</time>
      </trkpt>
      <trkpt lat="45.92412" lon="6.53068">
        <ele>2421</ele>
        <time>2020-07-30T15:43:20Z</time>
      </trkpt>
      <trkpt lat="45.92415" lon="6.53067">
        <ele>2423</ele>
        <time>2020-07-30T15:43:22Z</time>
      </trkpt>
      <trkpt lat="45.92414" lon="6.53063">
        <ele>2422</ele>
        <time>2020-07-30T15:43:23Z</time>
      </trkpt>
      <trkpt lat="45.92419" lon="6.53059">
        <ele>2423</ele>
        <time>2020-07-30T15:43:26Z</time>
      </trkpt>
      <trkpt lat="45.92394" lon="6.53023">
        <ele>2408</ele>
        <time>2020-07-30T15:43:44Z</time>
      </trkpt>
      <trkpt lat="45.92385" lon="6.52998">
        <ele>2405</ele>
        <time>2020-07-30T15:43:54Z</time>
      </trkpt>
      <trkpt lat="45.92345" lon="6.52932">
        <ele>2392</ele>
        <time>2020-07-30T15:44:24Z</time>
      </trkpt>
      <trkpt lat="45.92338" lon="6.52915">
        <ele>2392</ele>
        <time>2020-07-30T15:44:31Z</time>
      </trkpt>
      <trkpt lat="45.92312" lon="6.52883">
        <ele>2374</ele>
        <time>2020-07-30T15:44:48Z</time>
      </trkpt>
      <trkpt lat="45.92305" lon="6.5288">
        <ele>2369</ele>
        <time>2020-07-30T15:44:52Z</time>
      </trkpt>
      <trkpt lat="45.92301" lon="6.52875">
        <ele>2367</ele>
        <time>2020-07-30T15:44:55Z</time>
      </trkpt>
      <trkpt lat="45.92298" lon="6.52865">
        <ele>2366</ele>
        <time>2020-07-30T15:44:58Z</time>
      </trkpt>
      <trkpt lat="45.92298" lon="6.52851">
        <ele>2366</ele>
        <time>2020-07-30T15:45:03Z</time>
      </trkpt>
      <trkpt lat="45.92304" lon="6.52845">
        <ele>2369</ele>
        <time>2020-07-30T15:45:07Z</time>
      </trkpt>
      <trkpt lat="45.9228" lon="6.52811">
        <ele>2359</ele>
        <time>2020-07-30T15:45:24Z</time>
      </trkpt>
      <trkpt lat="45.92268" lon="6.52787">
        <ele>2356</ele>
        <time>2020-07-30T15:45:34Z</time>
      </trkpt>
      <trkpt lat="45.92241" lon="6.52753">
        <ele>2349</ele>
        <time>2020-07-30T15:45:52Z</time>
      </trkpt>
      <trkpt lat="45.92234" lon="6.5274">
        <ele>2344</ele>
        <time>2020-07-30T15:45:58Z</time>
      </trkpt>
      <trkpt lat="45.92228" lon="6.52718">
        <ele>2339</ele>
        <time>2020-07-30T15:46:06Z</time>
      </trkpt>
      <trkpt lat="45.92221" lon="6.52705">
        <ele>2336</ele>
        <time>2020-07-30T15:46:12Z</time>
      </trkpt>
      <trkpt lat="45.92208" lon="6.52668">
        <ele>2333</ele>
        <time>2020-07-30T15:46:26Z</time>
      </trkpt>
      <trkpt lat="45.92198" lon="6.52627">
        <ele>2334</ele>
        <time>2020-07-30T15:46:41Z</time>
      </trkpt>
      <trkpt lat="45.92198" lon="6.52602">
        <ele>2336</ele>
        <time>2020-07-30T15:46:50Z</time>
      </trkpt>
      <trkpt lat="45.92204" lon="6.52576">
        <ele>2338</ele>
        <time>2020-07-30T15:46:59Z</time>
      </trkpt>
      <trkpt lat="45.92201" lon="6.52565">
        <ele>2341</ele>
        <time>2020-07-30T15:47:04Z</time>
      </trkpt>
      <trkpt lat="45.92202" lon="6.52551">
        <ele>2345</ele>
        <time>2020-07-30T15:47:08Z</time>
      </trkpt>
      <trkpt lat="45.92207" lon="6.52549">
        <ele>2344</ele>
        <time>2020-07-30T15:47:11Z</time>
      </trkpt>
      <trkpt lat="45.92213" lon="6.52555">
        <ele>2342</ele>
        <time>2020-07-30T15:47:15Z</time>
      </trkpt>
      <trkpt lat="45.92215" lon="6.52554">
        <ele>2341</ele>
        <time>2020-07-30T15:47:16Z</time>
      </trkpt>
      <trkpt lat="45.9222" lon="6.5254">
        <ele>2343</ele>
        <time>2020-07-30T15:47:21Z</time>
      </trkpt>
      <trkpt lat="45.92226" lon="6.52531">
        <ele>2343</ele>
        <time>2020-07-30T15:47:26Z</time>
      </trkpt>
      <trkpt lat="45.92232" lon="6.52505">
        <ele>2345</ele>
        <time>2020-07-30T15:47:35Z</time>
      </trkpt>
      <trkpt lat="45.92229" lon="6.52495">
        <ele>2347</ele>
        <time>2020-07-30T15:47:39Z</time>
      </trkpt>
      <trkpt lat="45.92231" lon="6.52472">
        <ele>2347</ele>
        <time>2020-07-30T15:47:47Z</time>
      </trkpt>
      <trkpt lat="45.92237" lon="6.52464">
        <ele>2344</ele>
        <time>2020-07-30T15:47:51Z</time>
      </trkpt>
      <trkpt lat="45.9224" lon="6.52447">
        <ele>2344</ele>
        <time>2020-07-30T15:47:57Z</time>
      </trkpt>
      <trkpt lat="45.92246" lon="6.52436">
        <ele>2341</ele>
        <time>2020-07-30T15:48:02Z</time>
      </trkpt>
      <trkpt lat="45.92257" lon="6.52424">
        <ele>2335</ele>
        <time>2020-07-30T15:48:09Z</time>
      </trkpt>
      <trkpt lat="45.9226" lon="6.52395">
        <ele>2331</ele>
        <time>2020-07-30T15:48:19Z</time>
      </trkpt>
      <trkpt lat="45.92251" lon="6.52371">
        <ele>2334</ele>
        <time>2020-07-30T15:48:29Z</time>
      </trkpt>
      <trkpt lat="45.92242" lon="6.52365">
        <ele>2337</ele>
        <time>2020-07-30T15:48:34Z</time>
      </trkpt>
      <trkpt lat="45.92212" lon="6.5236">
        <ele>2345</ele>
        <time>2020-07-30T15:48:49Z</time>
      </trkpt>
      <trkpt lat="45.92195" lon="6.52352">
        <ele>2348</ele>
        <time>2020-07-30T15:48:58Z</time>
      </trkpt>
      <trkpt lat="45.92179" lon="6.52351">
        <ele>2351</ele>
        <time>2020-07-30T15:49:06Z</time>
      </trkpt>
      <trkpt lat="45.92175" lon="6.52348">
        <ele>2352</ele>
        <time>2020-07-30T15:49:08Z</time>
      </trkpt>
      <trkpt lat="45.92174" lon="6.52344">
        <ele>2351</ele>
        <time>2020-07-30T15:49:09Z</time>
      </trkpt>
      <trkpt lat="45.92164" lon="6.52338">
        <ele>2351</ele>
        <time>2020-07-30T15:49:15Z</time>
      </trkpt>
      <trkpt lat="45.92151" lon="6.52324">
        <ele>2351</ele>
        <time>2020-07-30T15:49:23Z</time>
      </trkpt>
      <trkpt lat="45.92122" lon="6.52289">
        <ele>2348</ele>
        <time>2020-07-30T15:49:42Z</time>
      </trkpt>
      <trkpt lat="45.92119" lon="6.5228">
        <ele>2346</ele>
        <time>2020-07-30T15:49:45Z</time>
      </trkpt>
      <trkpt lat="45.92106" lon="6.52259">
        <ele>2344</ele>
        <time>2020-07-30T15:49:55Z</time>
      </trkpt>
      <trkpt lat="45.92104" lon="6.52251">
        <ele>2342</ele>
        <time>2020-07-30T15:49:58Z</time>
      </trkpt>
      <trkpt lat="45.92106" lon="6.52245">
        <ele>2339</ele>
        <time>2020-07-30T15:50:00Z</time>
      </trkpt>
      <trkpt lat="45.92089" lon="6.52204">
        <ele>2332</ele>
        <time>2020-07-30T15:50:17Z</time>
      </trkpt>
      <trkpt lat="45.92071" lon="6.52188">
        <ele>2336</ele>
        <time>2020-07-30T15:50:28Z</time>
      </trkpt>
      <trkpt lat="45.92063" lon="6.52173">
        <ele>2338</ele>
        <time>2020-07-30T15:50:34Z</time>
      </trkpt>
      <trkpt lat="45.92067" lon="6.52173">
        <ele>2335</ele>
        <time>2020-07-30T15:50:36Z</time>
      </trkpt>
      <trkpt lat="45.92067" lon="6.52159">
        <ele>2332</ele>
        <time>2020-07-30T15:50:41Z</time>
      </trkpt>
      <trkpt lat="45.92065" lon="6.52155">
        <ele>2333</ele>
        <time>2020-07-30T15:50:43Z</time>
      </trkpt>
      <trkpt lat="45.92067" lon="6.52139">
        <ele>2329</ele>
        <time>2020-07-30T15:50:48Z</time>
      </trkpt>
      <trkpt lat="45.92055" lon="6.52126">
        <ele>2337</ele>
        <time>2020-07-30T15:50:56Z</time>
      </trkpt>
      <trkpt lat="45.92049" lon="6.52127">
        <ele>2342</ele>
        <time>2020-07-30T15:50:59Z</time>
      </trkpt>
      <trkpt lat="45.92044" lon="6.52111">
        <ele>2346</ele>
        <time>2020-07-30T15:51:05Z</time>
      </trkpt>
      <trkpt lat="45.92036" lon="6.52107">
        <ele>2353</ele>
        <time>2020-07-30T15:51:09Z</time>
      </trkpt>
      <trkpt lat="45.92035" lon="6.52097">
        <ele>2353</ele>
        <time>2020-07-30T15:51:13Z</time>
      </trkpt>
      <trkpt lat="45.92027" lon="6.52085">
        <ele>2361</ele>
        <time>2020-07-30T15:51:19Z</time>
      </trkpt>
      <trkpt lat="45.92023" lon="6.52045">
        <ele>2363</ele>
        <time>2020-07-30T15:51:33Z</time>
      </trkpt>
      <trkpt lat="45.92028" lon="6.52036">
        <ele>2357</ele>
        <time>2020-07-30T15:51:37Z</time>
      </trkpt>
      <trkpt lat="45.92026" lon="6.52032">
        <ele>2359</ele>
        <time>2020-07-30T15:51:38Z</time>
      </trkpt>
      <trkpt lat="45.92021" lon="6.52032">
        <ele>2364</ele>
        <time>2020-07-30T15:51:41Z</time>
      </trkpt>
      <trkpt lat="45.92017" lon="6.52022">
        <ele>2367</ele>
        <time>2020-07-30T15:51:45Z</time>
      </trkpt>
      <trkpt lat="45.92013" lon="6.52019">
        <ele>2371</ele>
        <time>2020-07-30T15:51:47Z</time>
      </trkpt>
      <trkpt lat="45.92003" lon="6.52">
        <ele>2379</ele>
        <time>2020-07-30T15:51:56Z</time>
      </trkpt>
      <trkpt lat="45.92006" lon="6.51996">
        <ele>2376</ele>
        <time>2020-07-30T15:51:58Z</time>
      </trkpt>
      <trkpt lat="45.91993" lon="6.51977">
        <ele>2384</ele>
        <time>2020-07-30T15:52:07Z</time>
      </trkpt>
      <trkpt lat="45.91992" lon="6.51967">
        <ele>2383</ele>
        <time>2020-07-30T15:52:10Z</time>
      </trkpt>
      <trkpt lat="45.91997" lon="6.5195">
        <ele>2380</ele>
        <time>2020-07-30T15:52:17Z</time>
      </trkpt>
      <trkpt lat="45.91994" lon="6.51936">
        <ele>2380</ele>
        <time>2020-07-30T15:52:22Z</time>
      </trkpt>
      <trkpt lat="45.91982" lon="6.51945">
        <ele>2386</ele>
        <time>2020-07-30T15:52:29Z</time>
      </trkpt>
      <trkpt lat="45.9198" lon="6.51942">
        <ele>2386</ele>
        <time>2020-07-30T15:52:30Z</time>
      </trkpt>
      <trkpt lat="45.91982" lon="6.51939">
        <ele>2385</ele>
        <time>2020-07-30T15:52:32Z</time>
      </trkpt>
      <trkpt lat="45.91975" lon="6.5193">
        <ele>2387</ele>
        <time>2020-07-30T15:52:36Z</time>
      </trkpt>
      <trkpt lat="45.91979" lon="6.51911">
        <ele>2384</ele>
        <time>2020-07-30T15:52:43Z</time>
      </trkpt>
      <trkpt lat="45.91978" lon="6.51901">
        <ele>2383</ele>
        <time>2020-07-30T15:52:47Z</time>
      </trkpt>
      <trkpt lat="45.91986" lon="6.51891">
        <ele>2380</ele>
        <time>2020-07-30T15:52:52Z</time>
      </trkpt>
      <trkpt lat="45.91988" lon="6.51884">
        <ele>2379</ele>
        <time>2020-07-30T15:52:55Z</time>
      </trkpt>
      <trkpt lat="45.91995" lon="6.51877">
        <ele>2377</ele>
        <time>2020-07-30T15:52:59Z</time>
      </trkpt>
      <trkpt lat="45.91999" lon="6.5186">
        <ele>2376</ele>
        <time>2020-07-30T15:53:05Z</time>
      </trkpt>
      <trkpt lat="45.92004" lon="6.51851">
        <ele>2374</ele>
        <time>2020-07-30T15:53:09Z</time>
      </trkpt>
      <trkpt lat="45.92003" lon="6.51849">
        <ele>2375</ele>
        <time>2020-07-30T15:53:10Z</time>
      </trkpt>
      <trkpt lat="45.92" lon="6.51844">
        <ele>2376</ele>
        <time>2020-07-30T15:53:12Z</time>
      </trkpt>
      <trkpt lat="45.91996" lon="6.51848">
        <ele>2376</ele>
        <time>2020-07-30T15:53:15Z</time>
      </trkpt>
      <trkpt lat="45.91994" lon="6.51847">
        <ele>2377</ele>
        <time>2020-07-30T15:53:16Z</time>
      </trkpt>
      <trkpt lat="45.91992" lon="6.51841">
        <ele>2376</ele>
        <time>2020-07-30T15:53:18Z</time>
      </trkpt>
      <trkpt lat="45.91989" lon="6.51844">
        <ele>2377</ele>
        <time>2020-07-30T15:53:20Z</time>
      </trkpt>
      <trkpt lat="45.91986" lon="6.51843">
        <ele>2377</ele>
        <time>2020-07-30T15:53:21Z</time>
      </trkpt>
      <trkpt lat="45.91984" lon="6.5183">
        <ele>2375</ele>
        <time>2020-07-30T15:53:26Z</time>
      </trkpt>
      <trkpt lat="45.91972" lon="6.51828">
        <ele>2374</ele>
        <time>2020-07-30T15:53:32Z</time>
      </trkpt>
      <trkpt lat="45.91968" lon="6.51825">
        <ele>2372</ele>
        <time>2020-07-30T15:53:34Z</time>
      </trkpt>
      <trkpt lat="45.91966" lon="6.51819">
        <ele>2369</ele>
        <time>2020-07-30T15:53:37Z</time>
      </trkpt>
      <trkpt lat="45.91958" lon="6.5181">
        <ele>2365</ele>
        <time>2020-07-30T15:53:42Z</time>
      </trkpt>
      <trkpt lat="45.91945" lon="6.51805">
        <ele>2362</ele>
        <time>2020-07-30T15:53:49Z</time>
      </trkpt>
      <trkpt lat="45.91941" lon="6.51799">
        <ele>2359</ele>
        <time>2020-07-30T15:53:51Z</time>
      </trkpt>
      <trkpt lat="45.91923" lon="6.51784">
        <ele>2350</ele>
        <time>2020-07-30T15:54:02Z</time>
      </trkpt>
      <trkpt lat="45.91921" lon="6.51771">
        <ele>2343</ele>
        <time>2020-07-30T15:54:07Z</time>
      </trkpt>
      <trkpt lat="45.91915" lon="6.51761">
        <ele>2337</ele>
        <time>2020-07-30T15:54:11Z</time>
      </trkpt>
      <trkpt lat="45.91915" lon="6.51751">
        <ele>2332</ele>
        <time>2020-07-30T15:54:15Z</time>
      </trkpt>
      <trkpt lat="45.91911" lon="6.51747">
        <ele>2331</ele>
        <time>2020-07-30T15:54:17Z</time>
      </trkpt>
      <trkpt lat="45.91905" lon="6.51748">
        <ele>2332</ele>
        <time>2020-07-30T15:54:20Z</time>
      </trkpt>
      <trkpt lat="45.91897" lon="6.51742">
        <ele>2331</ele>
        <time>2020-07-30T15:54:25Z</time>
      </trkpt>
      <trkpt lat="45.91889" lon="6.51742">
        <ele>2333</ele>
        <time>2020-07-30T15:54:29Z</time>
      </trkpt>
      <trkpt lat="45.91882" lon="6.51747">
        <ele>2336</ele>
        <time>2020-07-30T15:54:32Z</time>
      </trkpt>
      <trkpt lat="45.91871" lon="6.51745">
        <ele>2338</ele>
        <time>2020-07-30T15:54:38Z</time>
      </trkpt>
      <trkpt lat="45.91853" lon="6.51752">
        <ele>2344</ele>
        <time>2020-07-30T15:54:47Z</time>
      </trkpt>
      <trkpt lat="45.91848" lon="6.51757">
        <ele>2348</ele>
        <time>2020-07-30T15:54:50Z</time>
      </trkpt>
      <trkpt lat="45.9182" lon="6.51771">
        <ele>2357</ele>
        <time>2020-07-30T15:55:05Z</time>
      </trkpt>
      <trkpt lat="45.91805" lon="6.51773">
        <ele>2359</ele>
        <time>2020-07-30T15:55:13Z</time>
      </trkpt>
      <trkpt lat="45.91799" lon="6.51769">
        <ele>2357</ele>
        <time>2020-07-30T15:55:16Z</time>
      </trkpt>
      <trkpt lat="45.91797" lon="6.51759">
        <ele>2354</ele>
        <time>2020-07-30T15:55:20Z</time>
      </trkpt>
      <trkpt lat="45.918" lon="6.51751">
        <ele>2351</ele>
        <time>2020-07-30T15:55:23Z</time>
      </trkpt>
      <trkpt lat="45.91799" lon="6.51738">
        <ele>2348</ele>
        <time>2020-07-30T15:55:27Z</time>
      </trkpt>
      <trkpt lat="45.91788" lon="6.51712">
        <ele>2344</ele>
        <time>2020-07-30T15:55:38Z</time>
      </trkpt>
      <trkpt lat="45.91788" lon="6.51703">
        <ele>2342</ele>
        <time>2020-07-30T15:55:41Z</time>
      </trkpt>
      <trkpt lat="45.91783" lon="6.51695">
        <ele>2341</ele>
        <time>2020-07-30T15:55:45Z</time>
      </trkpt>
      <trkpt lat="45.91759" lon="6.51683">
        <ele>2343</ele>
        <time>2020-07-30T15:55:58Z</time>
      </trkpt>
      <trkpt lat="45.91728" lon="6.51657">
        <ele>2340</ele>
        <time>2020-07-30T15:56:16Z</time>
      </trkpt>
      <trkpt lat="45.91714" lon="6.51656">
        <ele>2339</ele>
        <time>2020-07-30T15:56:23Z</time>
      </trkpt>
      <trkpt lat="45.91695" lon="6.51648">
        <ele>2338</ele>
        <time>2020-07-30T15:56:32Z</time>
      </trkpt>
      <trkpt lat="45.91642" lon="6.51595">
        <ele>2336</ele>
        <time>2020-07-30T15:57:05Z</time>
      </trkpt>
      <trkpt lat="45.91625" lon="6.51575">
        <ele>2338</ele>
        <time>2020-07-30T15:57:16Z</time>
      </trkpt>
      <trkpt lat="45.91598" lon="6.51569">
        <ele>2341</ele>
        <time>2020-07-30T15:57:29Z</time>
      </trkpt>
      <trkpt lat="45.91595" lon="6.51566">
        <ele>2341</ele>
        <time>2020-07-30T15:57:31Z</time>
      </trkpt>
      <trkpt lat="45.91587" lon="6.5155">
        <ele>2344</ele>
        <time>2020-07-30T15:57:38Z</time>
      </trkpt>
      <trkpt lat="45.91576" lon="6.51536">
        <ele>2343</ele>
        <time>2020-07-30T15:57:46Z</time>
      </trkpt>
      <trkpt lat="45.9158" lon="6.51502">
        <ele>2349</ele>
        <time>2020-07-30T15:57:58Z</time>
      </trkpt>
      <trkpt lat="45.91575" lon="6.5148">
        <ele>2352</ele>
        <time>2020-07-30T15:58:06Z</time>
      </trkpt>
      <trkpt lat="45.91563" lon="6.51447">
        <ele>2359</ele>
        <time>2020-07-30T15:58:19Z</time>
      </trkpt>
      <trkpt lat="45.91564" lon="6.51426">
        <ele>2364</ele>
        <time>2020-07-30T15:58:26Z</time>
      </trkpt>
      <trkpt lat="45.91573" lon="6.51409">
        <ele>2368</ele>
        <time>2020-07-30T15:58:33Z</time>
      </trkpt>
      <trkpt lat="45.91564" lon="6.51411">
        <ele>2368</ele>
        <time>2020-07-30T15:58:38Z</time>
      </trkpt>
      <trkpt lat="45.91559" lon="6.51387">
        <ele>2376</ele>
        <time>2020-07-30T15:58:47Z</time>
      </trkpt>
      <trkpt lat="45.91563" lon="6.51391">
        <ele>2374</ele>
        <time>2020-07-30T15:58:49Z</time>
      </trkpt>
      <trkpt lat="45.91566" lon="6.51387">
        <ele>2375</ele>
        <time>2020-07-30T15:58:51Z</time>
      </trkpt>
      <trkpt lat="45.91569" lon="6.51359">
        <ele>2384</ele>
        <time>2020-07-30T15:59:01Z</time>
      </trkpt>
      <trkpt lat="45.91574" lon="6.51361">
        <ele>2383</ele>
        <time>2020-07-30T15:59:04Z</time>
      </trkpt>
      <trkpt lat="45.91575" lon="6.51356">
        <ele>2384</ele>
        <time>2020-07-30T15:59:05Z</time>
      </trkpt>
      <trkpt lat="45.91579" lon="6.51354">
        <ele>2384</ele>
        <time>2020-07-30T15:59:07Z</time>
      </trkpt>
      <trkpt lat="45.91579" lon="6.51347">
        <ele>2386</ele>
        <time>2020-07-30T15:59:10Z</time>
      </trkpt>
      <trkpt lat="45.91576" lon="6.51344">
        <ele>2388</ele>
        <time>2020-07-30T15:59:12Z</time>
      </trkpt>
      <trkpt lat="45.91577" lon="6.51327">
        <ele>2393</ele>
        <time>2020-07-30T15:59:18Z</time>
      </trkpt>
      <trkpt lat="45.91585" lon="6.51309">
        <ele>2401</ele>
        <time>2020-07-30T15:59:25Z</time>
      </trkpt>
      <trkpt lat="45.91584" lon="6.51305">
        <ele>2403</ele>
        <time>2020-07-30T15:59:27Z</time>
      </trkpt>
      <trkpt lat="45.9159" lon="6.51289">
        <ele>2409</ele>
        <time>2020-07-30T15:59:33Z</time>
      </trkpt>
      <trkpt lat="45.91591" lon="6.51278">
        <ele>2414</ele>
        <time>2020-07-30T15:59:37Z</time>
      </trkpt>
      <trkpt lat="45.91596" lon="6.51267">
        <ele>2417</ele>
        <time>2020-07-30T15:59:41Z</time>
      </trkpt>
      <trkpt lat="45.91593" lon="6.51265">
        <ele>2419</ele>
        <time>2020-07-30T15:59:43Z</time>
      </trkpt>
      <trkpt lat="45.91589" lon="6.51266">
        <ele>2420</ele>
        <time>2020-07-30T15:59:45Z</time>
      </trkpt>
      <trkpt lat="45.91588" lon="6.51262">
        <ele>2423</ele>
        <time>2020-07-30T15:59:47Z</time>
      </trkpt>
      <trkpt lat="45.91591" lon="6.51259">
        <ele>2423</ele>
        <time>2020-07-30T15:59:48Z</time>
      </trkpt>
      <trkpt lat="45.91589" lon="6.51255">
        <ele>2426</ele>
        <time>2020-07-30T15:59:50Z</time>
      </trkpt>
      <trkpt lat="45.91581" lon="6.51252">
        <ele>2428</ele>
        <time>2020-07-30T15:59:54Z</time>
      </trkpt>
      <trkpt lat="45.91583" lon="6.51244">
        <ele>2427</ele>
        <time>2020-07-30T15:59:57Z</time>
      </trkpt>
      <trkpt lat="45.91577" lon="6.51238">
        <ele>2422</ele>
        <time>2020-07-30T16:00:01Z</time>
      </trkpt>
      <trkpt lat="45.91561" lon="6.51189">
        <ele>2394</ele>
        <time>2020-07-30T16:00:20Z</time>
      </trkpt>
      <trkpt lat="45.91552" lon="6.51189">
        <ele>2390</ele>
        <time>2020-07-30T16:00:24Z</time>
      </trkpt>
      <trkpt lat="45.91553" lon="6.51174">
        <ele>2384</ele>
        <time>2020-07-30T16:00:29Z</time>
      </trkpt>
      <trkpt lat="45.9155" lon="6.51168">
        <ele>2380</ele>
        <time>2020-07-30T16:00:32Z</time>
      </trkpt>
      <trkpt lat="45.91553" lon="6.51144">
        <ele>2369</ele>
        <time>2020-07-30T16:00:40Z</time>
      </trkpt>
      <trkpt lat="45.9155" lon="6.51143">
        <ele>2367</ele>
        <time>2020-07-30T16:00:42Z</time>
      </trkpt>
      <trkpt lat="45.91549" lon="6.51138">
        <ele>2364</ele>
        <time>2020-07-30T16:00:44Z</time>
      </trkpt>
      <trkpt lat="45.91541" lon="6.51136">
        <ele>2360</ele>
        <time>2020-07-30T16:00:48Z</time>
      </trkpt>
      <trkpt lat="45.91533" lon="6.51129">
        <ele>2353</ele>
        <time>2020-07-30T16:00:53Z</time>
      </trkpt>
      <trkpt lat="45.91527" lon="6.5113">
        <ele>2351</ele>
        <time>2020-07-30T16:00:56Z</time>
      </trkpt>
      <trkpt lat="45.9152" lon="6.51123">
        <ele>2345</ele>
        <time>2020-07-30T16:01:00Z</time>
      </trkpt>
      <trkpt lat="45.91518" lon="6.51114">
        <ele>2340</ele>
        <time>2020-07-30T16:01:03Z</time>
      </trkpt>
      <trkpt lat="45.91521" lon="6.51104">
        <ele>2336</ele>
        <time>2020-07-30T16:01:07Z</time>
      </trkpt>
      <trkpt lat="45.91516" lon="6.51094">
        <ele>2329</ele>
        <time>2020-07-30T16:01:11Z</time>
      </trkpt>
      <trkpt lat="45.91522" lon="6.51088">
        <ele>2329</ele>
        <time>2020-07-30T16:01:15Z</time>
      </trkpt>
      <trkpt lat="45.91516" lon="6.51081">
        <ele>2323</ele>
        <time>2020-07-30T16:01:19Z</time>
      </trkpt>
      <trkpt lat="45.91508" lon="6.51078">
        <ele>2319</ele>
        <time>2020-07-30T16:01:23Z</time>
      </trkpt>
      <trkpt lat="45.91499" lon="6.51081">
        <ele>2318</ele>
        <time>2020-07-30T16:01:28Z</time>
      </trkpt>
      <trkpt lat="45.91491" lon="6.51111">
        <ele>2328</ele>
        <time>2020-07-30T16:01:39Z</time>
      </trkpt>
      <trkpt lat="45.91482" lon="6.51121">
        <ele>2329</ele>
        <time>2020-07-30T16:01:44Z</time>
      </trkpt>
      <trkpt lat="45.91476" lon="6.51132">
        <ele>2332</ele>
        <time>2020-07-30T16:01:49Z</time>
      </trkpt>
      <trkpt lat="45.91461" lon="6.51148">
        <ele>2333</ele>
        <time>2020-07-30T16:01:59Z</time>
      </trkpt>
      <trkpt lat="45.91451" lon="6.51152">
        <ele>2330</ele>
        <time>2020-07-30T16:02:04Z</time>
      </trkpt>
      <trkpt lat="45.91443" lon="6.51144">
        <ele>2323</ele>
        <time>2020-07-30T16:02:09Z</time>
      </trkpt>
      <trkpt lat="45.91439" lon="6.51143">
        <ele>2321</ele>
        <time>2020-07-30T16:02:11Z</time>
      </trkpt>
      <trkpt lat="45.91436" lon="6.51149">
        <ele>2323</ele>
        <time>2020-07-30T16:02:13Z</time>
      </trkpt>
      <trkpt lat="45.91429" lon="6.51153">
        <ele>2322</ele>
        <time>2020-07-30T16:02:17Z</time>
      </trkpt>
      <trkpt lat="45.91425" lon="6.51151">
        <ele>2319</ele>
        <time>2020-07-30T16:02:19Z</time>
      </trkpt>
      <trkpt lat="45.91414" lon="6.51156">
        <ele>2317</ele>
        <time>2020-07-30T16:02:25Z</time>
      </trkpt>
      <trkpt lat="45.91397" lon="6.51158">
        <ele>2315</ele>
        <time>2020-07-30T16:02:33Z</time>
      </trkpt>
      <trkpt lat="45.91389" lon="6.51167">
        <ele>2317</ele>
        <time>2020-07-30T16:02:39Z</time>
      </trkpt>
      <trkpt lat="45.91372" lon="6.51172">
        <ele>2316</ele>
        <time>2020-07-30T16:02:47Z</time>
      </trkpt>
      <trkpt lat="45.91369" lon="6.51172">
        <ele>2315</ele>
        <time>2020-07-30T16:02:49Z</time>
      </trkpt>
      <trkpt lat="45.9136" lon="6.51164">
        <ele>2310</ele>
        <time>2020-07-30T16:02:54Z</time>
      </trkpt>
      <trkpt lat="45.91324" lon="6.51167">
        <ele>2308</ele>
        <time>2020-07-30T16:03:12Z</time>
      </trkpt>
      <trkpt lat="45.91317" lon="6.51165">
        <ele>2308</ele>
        <time>2020-07-30T16:03:16Z</time>
      </trkpt>
      <trkpt lat="45.91282" lon="6.51132">
        <ele>2304</ele>
        <time>2020-07-30T16:03:37Z</time>
      </trkpt>
      <trkpt lat="45.91252" lon="6.51066">
        <ele>2295</ele>
        <time>2020-07-30T16:04:04Z</time>
      </trkpt>
      <trkpt lat="45.91243" lon="6.51027">
        <ele>2293</ele>
        <time>2020-07-30T16:04:18Z</time>
      </trkpt>
      <trkpt lat="45.91238" lon="6.51024">
        <ele>2295</ele>
        <time>2020-07-30T16:04:21Z</time>
      </trkpt>
      <trkpt lat="45.91238" lon="6.51029">
        <ele>2296</ele>
        <time>2020-07-30T16:04:23Z</time>
      </trkpt>
      <trkpt lat="45.91227" lon="6.51014">
        <ele>2300</ele>
        <time>2020-07-30T16:04:30Z</time>
      </trkpt>
      <trkpt lat="45.91221" lon="6.51">
        <ele>2300</ele>
        <time>2020-07-30T16:04:36Z</time>
      </trkpt>
      <trkpt lat="45.91212" lon="6.50996">
        <ele>2305</ele>
        <time>2020-07-30T16:04:41Z</time>
      </trkpt>
      <trkpt lat="45.91197" lon="6.50977">
        <ele>2312</ele>
        <time>2020-07-30T16:04:51Z</time>
      </trkpt>
      <trkpt lat="45.91191" lon="6.50975">
        <ele>2316</ele>
        <time>2020-07-30T16:04:54Z</time>
      </trkpt>
      <trkpt lat="45.91186" lon="6.50954">
        <ele>2316</ele>
        <time>2020-07-30T16:05:02Z</time>
      </trkpt>
      <trkpt lat="45.91187" lon="6.50941">
        <ele>2314</ele>
        <time>2020-07-30T16:05:06Z</time>
      </trkpt>
      <trkpt lat="45.91182" lon="6.50923">
        <ele>2315</ele>
        <time>2020-07-30T16:05:13Z</time>
      </trkpt>
      <trkpt lat="45.91171" lon="6.50907">
        <ele>2320</ele>
        <time>2020-07-30T16:05:21Z</time>
      </trkpt>
      <trkpt lat="45.91148" lon="6.50886">
        <ele>2335</ele>
        <time>2020-07-30T16:05:34Z</time>
      </trkpt>
      <trkpt lat="45.91146" lon="6.50889">
        <ele>2337</ele>
        <time>2020-07-30T16:05:36Z</time>
      </trkpt>
      <trkpt lat="45.91139" lon="6.50888">
        <ele>2342</ele>
        <time>2020-07-30T16:05:39Z</time>
      </trkpt>
      <trkpt lat="45.91134" lon="6.50896">
        <ele>2347</ele>
        <time>2020-07-30T16:05:43Z</time>
      </trkpt>
      <trkpt lat="45.9112" lon="6.50903">
        <ele>2359</ele>
        <time>2020-07-30T16:05:51Z</time>
      </trkpt>
      <trkpt lat="45.91114" lon="6.50903">
        <ele>2364</ele>
        <time>2020-07-30T16:05:54Z</time>
      </trkpt>
      <trkpt lat="45.91108" lon="6.50907">
        <ele>2369</ele>
        <time>2020-07-30T16:05:57Z</time>
      </trkpt>
      <trkpt lat="45.91105" lon="6.50904">
        <ele>2371</ele>
        <time>2020-07-30T16:05:59Z</time>
      </trkpt>
      <trkpt lat="45.91098" lon="6.50909">
        <ele>2377</ele>
        <time>2020-07-30T16:06:03Z</time>
      </trkpt>
      <trkpt lat="45.91093" lon="6.50908">
        <ele>2381</ele>
        <time>2020-07-30T16:06:05Z</time>
      </trkpt>
      <trkpt lat="45.91091" lon="6.50911">
        <ele>2382</ele>
        <time>2020-07-30T16:06:07Z</time>
      </trkpt>
      <trkpt lat="45.91063" lon="6.50912">
        <ele>2403</ele>
        <time>2020-07-30T16:06:21Z</time>
      </trkpt>
      <trkpt lat="45.91055" lon="6.50919">
        <ele>2410</ele>
        <time>2020-07-30T16:06:25Z</time>
      </trkpt>
      <trkpt lat="45.91048" lon="6.50902">
        <ele>2412</ele>
        <time>2020-07-30T16:06:32Z</time>
      </trkpt>
      <trkpt lat="45.91046" lon="6.50882">
        <ele>2412</ele>
        <time>2020-07-30T16:06:39Z</time>
      </trkpt>
      <trkpt lat="45.91042" lon="6.5087">
        <ele>2413</ele>
        <time>2020-07-30T16:06:44Z</time>
      </trkpt>
      <trkpt lat="45.91041" lon="6.50851">
        <ele>2412</ele>
        <time>2020-07-30T16:06:50Z</time>
      </trkpt>
      <trkpt lat="45.91039" lon="6.50851">
        <ele>2413</ele>
        <time>2020-07-30T16:06:51Z</time>
      </trkpt>
      <trkpt lat="45.91039" lon="6.50836">
        <ele>2412</ele>
        <time>2020-07-30T16:06:57Z</time>
      </trkpt>
      <trkpt lat="45.91035" lon="6.50838">
        <ele>2415</ele>
        <time>2020-07-30T16:06:59Z</time>
      </trkpt>
      <trkpt lat="45.91028" lon="6.50831">
        <ele>2419</ele>
        <time>2020-07-30T16:07:03Z</time>
      </trkpt>
      <trkpt lat="45.91014" lon="6.50828">
        <ele>2428</ele>
        <time>2020-07-30T16:07:10Z</time>
      </trkpt>
      <trkpt lat="45.90992" lon="6.50812">
        <ele>2439</ele>
        <time>2020-07-30T16:07:23Z</time>
      </trkpt>
      <trkpt lat="45.90986" lon="6.50805">
        <ele>2440</ele>
        <time>2020-07-30T16:07:26Z</time>
      </trkpt>
      <trkpt lat="45.90949" lon="6.5078">
        <ele>2456</ele>
        <time>2020-07-30T16:07:47Z</time>
      </trkpt>
      <trkpt lat="45.90933" lon="6.5078">
        <ele>2464</ele>
        <time>2020-07-30T16:07:55Z</time>
      </trkpt>
      <trkpt lat="45.9093" lon="6.50778">
        <ele>2466</ele>
        <time>2020-07-30T16:07:56Z</time>
      </trkpt>
      <trkpt lat="45.90931" lon="6.50806">
        <ele>2467</ele>
        <time>2020-07-30T16:08:06Z</time>
      </trkpt>
      <trkpt lat="45.90927" lon="6.50806">
        <ele>2469</ele>
        <time>2020-07-30T16:08:08Z</time>
      </trkpt>
      <trkpt lat="45.90926" lon="6.50817">
        <ele>2471</ele>
        <time>2020-07-30T16:08:12Z</time>
      </trkpt>
      <trkpt lat="45.90916" lon="6.50824">
        <ele>2475</ele>
        <time>2020-07-30T16:08:18Z</time>
      </trkpt>
      <trkpt lat="45.90916" lon="6.50827">
        <ele>2475</ele>
        <time>2020-07-30T16:08:19Z</time>
      </trkpt>
      <trkpt lat="45.90911" lon="6.50831">
        <ele>2474</ele>
        <time>2020-07-30T16:08:22Z</time>
      </trkpt>
      <trkpt lat="45.909" lon="6.50823">
        <ele>2471</ele>
        <time>2020-07-30T16:08:28Z</time>
      </trkpt>
      <trkpt lat="45.90898" lon="6.50828">
        <ele>2471</ele>
        <time>2020-07-30T16:08:30Z</time>
      </trkpt>
      <trkpt lat="45.90892" lon="6.50828">
        <ele>2469</ele>
        <time>2020-07-30T16:08:33Z</time>
      </trkpt>
      <trkpt lat="45.90887" lon="6.50816">
        <ele>2467</ele>
        <time>2020-07-30T16:08:38Z</time>
      </trkpt>
      <trkpt lat="45.9087" lon="6.5079">
        <ele>2460</ele>
        <time>2020-07-30T16:08:50Z</time>
      </trkpt>
      <trkpt lat="45.90865" lon="6.50829">
        <ele>2463</ele>
        <time>2020-07-30T16:09:04Z</time>
      </trkpt>
      <trkpt lat="45.90855" lon="6.50857">
        <ele>2462</ele>
        <time>2020-07-30T16:09:15Z</time>
      </trkpt>
      <trkpt lat="45.90847" lon="6.50865">
        <ele>2460</ele>
        <time>2020-07-30T16:09:20Z</time>
      </trkpt>
      <trkpt lat="45.90839" lon="6.50869">
        <ele>2457</ele>
        <time>2020-07-30T16:09:24Z</time>
      </trkpt>
      <trkpt lat="45.90828" lon="6.50882">
        <ele>2455</ele>
        <time>2020-07-30T16:09:31Z</time>
      </trkpt>
      <trkpt lat="45.90825" lon="6.50881">
        <ele>2455</ele>
        <time>2020-07-30T16:09:33Z</time>
      </trkpt>
      <trkpt lat="45.9082" lon="6.50871">
        <ele>2454</ele>
        <time>2020-07-30T16:09:37Z</time>
      </trkpt>
      <trkpt lat="45.90813" lon="6.50865">
        <ele>2453</ele>
        <time>2020-07-30T16:09:41Z</time>
      </trkpt>
      <trkpt lat="45.90811" lon="6.50862">
        <ele>2453</ele>
        <time>2020-07-30T16:09:42Z</time>
      </trkpt>
      <trkpt lat="45.90811" lon="6.50849">
        <ele>2453</ele>
        <time>2020-07-30T16:09:47Z</time>
      </trkpt>
      <trkpt lat="45.90815" lon="6.50836">
        <ele>2453</ele>
        <time>2020-07-30T16:09:52Z</time>
      </trkpt>
      <trkpt lat="45.90814" lon="6.50823">
        <ele>2451</ele>
        <time>2020-07-30T16:09:56Z</time>
      </trkpt>
      <trkpt lat="45.90801" lon="6.50797">
        <ele>2443</ele>
        <time>2020-07-30T16:10:08Z</time>
      </trkpt>
      <trkpt lat="45.90785" lon="6.50745">
        <ele>2427</ele>
        <time>2020-07-30T16:10:27Z</time>
      </trkpt>
      <trkpt lat="45.90785" lon="6.50732">
        <ele>2424</ele>
        <time>2020-07-30T16:10:32Z</time>
      </trkpt>
      <trkpt lat="45.9078" lon="6.50705">
        <ele>2414</ele>
        <time>2020-07-30T16:10:42Z</time>
      </trkpt>
      <trkpt lat="45.90782" lon="6.50699">
        <ele>2414</ele>
        <time>2020-07-30T16:10:44Z</time>
      </trkpt>
      <trkpt lat="45.90781" lon="6.50675">
        <ele>2407</ele>
        <time>2020-07-30T16:10:52Z</time>
      </trkpt>
      <trkpt lat="45.90768" lon="6.50675">
        <ele>2400</ele>
        <time>2020-07-30T16:10:59Z</time>
      </trkpt>
      <trkpt lat="45.90761" lon="6.5066">
        <ele>2393</ele>
        <time>2020-07-30T16:11:05Z</time>
      </trkpt>
      <trkpt lat="45.90752" lon="6.50651">
        <ele>2387</ele>
        <time>2020-07-30T16:11:11Z</time>
      </trkpt>
      <trkpt lat="45.90747" lon="6.5063">
        <ele>2381</ele>
        <time>2020-07-30T16:11:18Z</time>
      </trkpt>
      <trkpt lat="45.9074" lon="6.50525">
        <ele>2352</ele>
        <time>2020-07-30T16:11:55Z</time>
      </trkpt>
      <trkpt lat="45.90751" lon="6.505">
        <ele>2349</ele>
        <time>2020-07-30T16:12:05Z</time>
      </trkpt>
      <trkpt lat="45.9075" lon="6.50492">
        <ele>2347</ele>
        <time>2020-07-30T16:12:08Z</time>
      </trkpt>
      <trkpt lat="45.90752" lon="6.50486">
        <ele>2346</ele>
        <time>2020-07-30T16:12:11Z</time>
      </trkpt>
      <trkpt lat="45.90746" lon="6.50457">
        <ele>2334</ele>
        <time>2020-07-30T16:12:21Z</time>
      </trkpt>
      <trkpt lat="45.90738" lon="6.50432">
        <ele>2324</ele>
        <time>2020-07-30T16:12:31Z</time>
      </trkpt>
      <trkpt lat="45.90708" lon="6.50394">
        <ele>2303</ele>
        <time>2020-07-30T16:12:51Z</time>
      </trkpt>
      <trkpt lat="45.90705" lon="6.50381">
        <ele>2299</ele>
        <time>2020-07-30T16:12:55Z</time>
      </trkpt>
      <trkpt lat="45.90712" lon="6.50339">
        <ele>2290</ele>
        <time>2020-07-30T16:13:10Z</time>
      </trkpt>
      <trkpt lat="45.90712" lon="6.50328">
        <ele>2287</ele>
        <time>2020-07-30T16:13:14Z</time>
      </trkpt>
      <trkpt lat="45.90707" lon="6.50313">
        <ele>2283</ele>
        <time>2020-07-30T16:13:20Z</time>
      </trkpt>
      <trkpt lat="45.90711" lon="6.50268">
        <ele>2272</ele>
        <time>2020-07-30T16:13:36Z</time>
      </trkpt>
      <trkpt lat="45.9071" lon="6.50254">
        <ele>2268</ele>
        <time>2020-07-30T16:13:41Z</time>
      </trkpt>
      <trkpt lat="45.90713" lon="6.50243">
        <ele>2266</ele>
        <time>2020-07-30T16:13:45Z</time>
      </trkpt>
      <trkpt lat="45.90701" lon="6.50228">
        <ele>2263</ele>
        <time>2020-07-30T16:13:53Z</time>
      </trkpt>
      <trkpt lat="45.90673" lon="6.50204">
        <ele>2258</ele>
        <time>2020-07-30T16:14:09Z</time>
      </trkpt>
      <trkpt lat="45.90665" lon="6.50187">
        <ele>2254</ele>
        <time>2020-07-30T16:14:16Z</time>
      </trkpt>
      <trkpt lat="45.90663" lon="6.50159">
        <ele>2249</ele>
        <time>2020-07-30T16:14:26Z</time>
      </trkpt>
      <trkpt lat="45.90646" lon="6.50107">
        <ele>2234</ele>
        <time>2020-07-30T16:14:46Z</time>
      </trkpt>
      <trkpt lat="45.90641" lon="6.50079">
        <ele>2226</ele>
        <time>2020-07-30T16:14:56Z</time>
      </trkpt>
      <trkpt lat="45.90621" lon="6.50054">
        <ele>2214</ele>
        <time>2020-07-30T16:15:09Z</time>
      </trkpt>
      <trkpt lat="45.90612" lon="6.5003">
        <ele>2204</ele>
        <time>2020-07-30T16:15:19Z</time>
      </trkpt>
      <trkpt lat="45.90612" lon="6.49995">
        <ele>2193</ele>
        <time>2020-07-30T16:15:31Z</time>
      </trkpt>
      <trkpt lat="45.90616" lon="6.4998">
        <ele>2189</ele>
        <time>2020-07-30T16:15:37Z</time>
      </trkpt>
      <trkpt lat="45.90615" lon="6.49974">
        <ele>2187</ele>
        <time>2020-07-30T16:15:39Z</time>
      </trkpt>
      <trkpt lat="45.90607" lon="6.49963">
        <ele>2182</ele>
        <time>2020-07-30T16:15:44Z</time>
      </trkpt>
      <trkpt lat="45.90598" lon="6.49959">
        <ele>2181</ele>
        <time>2020-07-30T16:15:49Z</time>
      </trkpt>
      <trkpt lat="45.90591" lon="6.49966">
        <ele>2182</ele>
        <time>2020-07-30T16:15:53Z</time>
      </trkpt>
      <trkpt lat="45.90581" lon="6.49964">
        <ele>2181</ele>
        <time>2020-07-30T16:15:58Z</time>
      </trkpt>
      <trkpt lat="45.90568" lon="6.49946">
        <ele>2178</ele>
        <time>2020-07-30T16:16:07Z</time>
      </trkpt>
      <trkpt lat="45.90555" lon="6.49933">
        <ele>2176</ele>
        <time>2020-07-30T16:16:15Z</time>
      </trkpt>
      <trkpt lat="45.9055" lon="6.49931">
        <ele>2177</ele>
        <time>2020-07-30T16:16:18Z</time>
      </trkpt>
      <trkpt lat="45.90542" lon="6.49916">
        <ele>2175</ele>
        <time>2020-07-30T16:16:25Z</time>
      </trkpt>
      <trkpt lat="45.90535" lon="6.49909">
        <ele>2175</ele>
        <time>2020-07-30T16:16:29Z</time>
      </trkpt>
      <trkpt lat="45.90528" lon="6.49903">
        <ele>2175</ele>
        <time>2020-07-30T16:16:33Z</time>
      </trkpt>
      <trkpt lat="45.9049" lon="6.49884">
        <ele>2185</ele>
        <time>2020-07-30T16:16:53Z</time>
      </trkpt>
      <trkpt lat="45.90486" lon="6.49869">
        <ele>2186</ele>
        <time>2020-07-30T16:16:59Z</time>
      </trkpt>
      <trkpt lat="45.9048" lon="6.49867">
        <ele>2190</ele>
        <time>2020-07-30T16:17:02Z</time>
      </trkpt>
      <trkpt lat="45.90476" lon="6.49852">
        <ele>2192</ele>
        <time>2020-07-30T16:17:07Z</time>
      </trkpt>
      <trkpt lat="45.90464" lon="6.49843">
        <ele>2200</ele>
        <time>2020-07-30T16:17:14Z</time>
      </trkpt>
      <trkpt lat="45.90459" lon="6.49843">
        <ele>2203</ele>
        <time>2020-07-30T16:17:17Z</time>
      </trkpt>
      <trkpt lat="45.90459" lon="6.49839">
        <ele>2203</ele>
        <time>2020-07-30T16:17:18Z</time>
      </trkpt>
      <trkpt lat="45.90454" lon="6.49837">
        <ele>2206</ele>
        <time>2020-07-30T16:17:21Z</time>
      </trkpt>
      <trkpt lat="45.90451" lon="6.49825">
        <ele>2209</ele>
        <time>2020-07-30T16:17:25Z</time>
      </trkpt>
      <trkpt lat="45.90441" lon="6.49811">
        <ele>2219</ele>
        <time>2020-07-30T16:17:32Z</time>
      </trkpt>
      <trkpt lat="45.90436" lon="6.49819">
        <ele>2222</ele>
        <time>2020-07-30T16:17:36Z</time>
      </trkpt>
      <trkpt lat="45.90427" lon="6.49793">
        <ele>2234</ele>
        <time>2020-07-30T16:17:46Z</time>
      </trkpt>
      <trkpt lat="45.90427" lon="6.49798">
        <ele>2233</ele>
        <time>2020-07-30T16:17:48Z</time>
      </trkpt>
      <trkpt lat="45.90418" lon="6.49798">
        <ele>2241</ele>
        <time>2020-07-30T16:17:52Z</time>
      </trkpt>
      <trkpt lat="45.90417" lon="6.49792">
        <ele>2244</ele>
        <time>2020-07-30T16:17:54Z</time>
      </trkpt>
      <trkpt lat="45.90411" lon="6.49792">
        <ele>2253</ele>
        <time>2020-07-30T16:17:57Z</time>
      </trkpt>
      <trkpt lat="45.90402" lon="6.49774">
        <ele>2271</ele>
        <time>2020-07-30T16:18:05Z</time>
      </trkpt>
      <trkpt lat="45.90398" lon="6.4977">
        <ele>2277</ele>
        <time>2020-07-30T16:18:07Z</time>
      </trkpt>
      <trkpt lat="45.90394" lon="6.49774">
        <ele>2283</ele>
        <time>2020-07-30T16:18:10Z</time>
      </trkpt>
      <trkpt lat="45.90394" lon="6.49771">
        <ele>2283</ele>
        <time>2020-07-30T16:18:11Z</time>
      </trkpt>
      <trkpt lat="45.90391" lon="6.49772">
        <ele>2287</ele>
        <time>2020-07-30T16:18:12Z</time>
      </trkpt>
      <trkpt lat="45.9039" lon="6.49768">
        <ele>2290</ele>
        <time>2020-07-30T16:18:14Z</time>
      </trkpt>
      <trkpt lat="45.90386" lon="6.49772">
        <ele>2295</ele>
        <time>2020-07-30T16:18:16Z</time>
      </trkpt>
      <trkpt lat="45.90384" lon="6.49783">
        <ele>2296</ele>
        <time>2020-07-30T16:18:20Z</time>
      </trkpt>
      <trkpt lat="45.90373" lon="6.49799">
        <ele>2310</ele>
        <time>2020-07-30T16:18:28Z</time>
      </trkpt>
      <trkpt lat="45.90372" lon="6.49804">
        <ele>2311</ele>
        <time>2020-07-30T16:18:30Z</time>
      </trkpt>
      <trkpt lat="45.90359" lon="6.49815">
        <ele>2330</ele>
        <time>2020-07-30T16:18:38Z</time>
      </trkpt>
      <trkpt lat="45.90357" lon="6.49825">
        <ele>2333</ele>
        <time>2020-07-30T16:18:41Z</time>
      </trkpt>
      <trkpt lat="45.9036" lon="6.49832">
        <ele>2327</ele>
        <time>2020-07-30T16:18:44Z</time>
      </trkpt>
      <trkpt lat="45.90356" lon="6.49837">
        <ele>2333</ele>
        <time>2020-07-30T16:18:47Z</time>
      </trkpt>
      <trkpt lat="45.9035" lon="6.49839">
        <ele>2342</ele>
        <time>2020-07-30T16:18:50Z</time>
      </trkpt>
      <trkpt lat="45.90349" lon="6.49846">
        <ele>2342</ele>
        <time>2020-07-30T16:18:52Z</time>
      </trkpt>
      <trkpt lat="45.90352" lon="6.49851">
        <ele>2336</ele>
        <time>2020-07-30T16:18:55Z</time>
      </trkpt>
      <trkpt lat="45.90346" lon="6.49858">
        <ele>2344</ele>
        <time>2020-07-30T16:18:58Z</time>
      </trkpt>
      <trkpt lat="45.90348" lon="6.49864">
        <ele>2339</ele>
        <time>2020-07-30T16:19:01Z</time>
      </trkpt>
      <trkpt lat="45.90344" lon="6.49866">
        <ele>2345</ele>
        <time>2020-07-30T16:19:03Z</time>
      </trkpt>
      <trkpt lat="45.90346" lon="6.49882">
        <ele>2338</ele>
        <time>2020-07-30T16:19:09Z</time>
      </trkpt>
      <trkpt lat="45.90343" lon="6.49884">
        <ele>2342</ele>
        <time>2020-07-30T16:19:10Z</time>
      </trkpt>
      <trkpt lat="45.90342" lon="6.49889">
        <ele>2342</ele>
        <time>2020-07-30T16:19:12Z</time>
      </trkpt>
      <trkpt lat="45.90344" lon="6.49892">
        <ele>2338</ele>
        <time>2020-07-30T16:19:13Z</time>
      </trkpt>
      <trkpt lat="45.90341" lon="6.49893">
        <ele>2342</ele>
        <time>2020-07-30T16:19:15Z</time>
      </trkpt>
      <trkpt lat="45.90343" lon="6.4991">
        <ele>2335</ele>
        <time>2020-07-30T16:19:21Z</time>
      </trkpt>
      <trkpt lat="45.90341" lon="6.49918">
        <ele>2336</ele>
        <time>2020-07-30T16:19:24Z</time>
      </trkpt>
      <trkpt lat="45.90343" lon="6.49922">
        <ele>2333</ele>
        <time>2020-07-30T16:19:26Z</time>
      </trkpt>
      <trkpt lat="45.90332" lon="6.49937">
        <ele>2348</ele>
        <time>2020-07-30T16:19:33Z</time>
      </trkpt>
      <trkpt lat="45.90328" lon="6.49956">
        <ele>2352</ele>
        <time>2020-07-30T16:19:40Z</time>
      </trkpt>
      <trkpt lat="45.9033" lon="6.49966">
        <ele>2350</ele>
        <time>2020-07-30T16:19:44Z</time>
      </trkpt>
      <trkpt lat="45.90325" lon="6.4997">
        <ele>2355</ele>
        <time>2020-07-30T16:19:47Z</time>
      </trkpt>
      <trkpt lat="45.90323" lon="6.49977">
        <ele>2357</ele>
        <time>2020-07-30T16:19:49Z</time>
      </trkpt>
      <trkpt lat="45.90314" lon="6.49977">
        <ele>2365</ele>
        <time>2020-07-30T16:19:54Z</time>
      </trkpt>
      <trkpt lat="45.90305" lon="6.49972">
        <ele>2373</ele>
        <time>2020-07-30T16:19:59Z</time>
      </trkpt>
      <trkpt lat="45.903" lon="6.49976">
        <ele>2378</ele>
        <time>2020-07-30T16:20:01Z</time>
      </trkpt>
      <trkpt lat="45.90286" lon="6.49975">
        <ele>2391</ele>
        <time>2020-07-30T16:20:08Z</time>
      </trkpt>
      <trkpt lat="45.90283" lon="6.49972">
        <ele>2394</ele>
        <time>2020-07-30T16:20:10Z</time>
      </trkpt>
      <trkpt lat="45.90281" lon="6.49991">
        <ele>2396</ele>
        <time>2020-07-30T16:20:17Z</time>
      </trkpt>
      <trkpt lat="45.90277" lon="6.49996">
        <ele>2400</ele>
        <time>2020-07-30T16:20:20Z</time>
      </trkpt>
      <trkpt lat="45.90267" lon="6.5">
        <ele>2409</ele>
        <time>2020-07-30T16:20:25Z</time>
      </trkpt>
      <trkpt lat="45.90258" lon="6.50008">
        <ele>2418</ele>
        <time>2020-07-30T16:20:30Z</time>
      </trkpt>
      <trkpt lat="45.90233" lon="6.50015">
        <ele>2431</ele>
        <time>2020-07-30T16:20:43Z</time>
      </trkpt>
      <trkpt lat="45.90234" lon="6.50031">
        <ele>2432</ele>
        <time>2020-07-30T16:20:48Z</time>
      </trkpt>
      <trkpt lat="45.90229" lon="6.50037">
        <ele>2435</ele>
        <time>2020-07-30T16:20:52Z</time>
      </trkpt>
      <trkpt lat="45.90225" lon="6.50035">
        <ele>2436</ele>
        <time>2020-07-30T16:20:54Z</time>
      </trkpt>
      <trkpt lat="45.9022" lon="6.50038">
        <ele>2439</ele>
        <time>2020-07-30T16:20:57Z</time>
      </trkpt>
      <trkpt lat="45.90205" lon="6.50037">
        <ele>2446</ele>
        <time>2020-07-30T16:21:04Z</time>
      </trkpt>
      <trkpt lat="45.90202" lon="6.50042">
        <ele>2448</ele>
        <time>2020-07-30T16:21:06Z</time>
      </trkpt>
      <trkpt lat="45.90199" lon="6.50041">
        <ele>2449</ele>
        <time>2020-07-30T16:21:08Z</time>
      </trkpt>
      <trkpt lat="45.90188" lon="6.50015">
        <ele>2447</ele>
        <time>2020-07-30T16:21:19Z</time>
      </trkpt>
      <trkpt lat="45.90195" lon="6.50006">
        <ele>2442</ele>
        <time>2020-07-30T16:21:23Z</time>
      </trkpt>
      <trkpt lat="45.90195" lon="6.49993">
        <ele>2439</ele>
        <time>2020-07-30T16:21:28Z</time>
      </trkpt>
      <trkpt lat="45.90163" lon="6.49961">
        <ele>2437</ele>
        <time>2020-07-30T16:21:47Z</time>
      </trkpt>
      <trkpt lat="45.90164" lon="6.49944">
        <ele>2432</ele>
        <time>2020-07-30T16:21:53Z</time>
      </trkpt>
      <trkpt lat="45.90162" lon="6.4994">
        <ele>2431</ele>
        <time>2020-07-30T16:21:55Z</time>
      </trkpt>
      <trkpt lat="45.90158" lon="6.49939">
        <ele>2429</ele>
        <time>2020-07-30T16:21:57Z</time>
      </trkpt>
      <trkpt lat="45.90149" lon="6.49943">
        <ele>2428</ele>
        <time>2020-07-30T16:22:02Z</time>
      </trkpt>
      <trkpt lat="45.90141" lon="6.49939">
        <ele>2424</ele>
        <time>2020-07-30T16:22:06Z</time>
      </trkpt>
      <trkpt lat="45.90137" lon="6.49943">
        <ele>2425</ele>
        <time>2020-07-30T16:22:08Z</time>
      </trkpt>
      <trkpt lat="45.90127" lon="6.49941">
        <ele>2421</ele>
        <time>2020-07-30T16:22:13Z</time>
      </trkpt>
      <trkpt lat="45.90123" lon="6.49945">
        <ele>2421</ele>
        <time>2020-07-30T16:22:16Z</time>
      </trkpt>
      <trkpt lat="45.90115" lon="6.49942">
        <ele>2418</ele>
        <time>2020-07-30T16:22:20Z</time>
      </trkpt>
      <trkpt lat="45.90106" lon="6.49925">
        <ele>2407</ele>
        <time>2020-07-30T16:22:27Z</time>
      </trkpt>
      <trkpt lat="45.901" lon="6.4988">
        <ele>2385</ele>
        <time>2020-07-30T16:22:43Z</time>
      </trkpt>
      <trkpt lat="45.90095" lon="6.49878">
        <ele>2382</ele>
        <time>2020-07-30T16:22:46Z</time>
      </trkpt>
      <trkpt lat="45.90077" lon="6.49834">
        <ele>2359</ele>
        <time>2020-07-30T16:23:04Z</time>
      </trkpt>
      <trkpt lat="45.90075" lon="6.49823">
        <ele>2354</ele>
        <time>2020-07-30T16:23:08Z</time>
      </trkpt>
      <trkpt lat="45.90077" lon="6.49797">
        <ele>2342</ele>
        <time>2020-07-30T16:23:17Z</time>
      </trkpt>
      <trkpt lat="45.90075" lon="6.4977">
        <ele>2330</ele>
        <time>2020-07-30T16:23:26Z</time>
      </trkpt>
      <trkpt lat="45.90055" lon="6.49738">
        <ele>2317</ele>
        <time>2020-07-30T16:23:41Z</time>
      </trkpt>
      <trkpt lat="45.90053" lon="6.49707">
        <ele>2306</ele>
        <time>2020-07-30T16:23:52Z</time>
      </trkpt>
      <trkpt lat="45.90059" lon="6.49694">
        <ele>2300</ele>
        <time>2020-07-30T16:23:58Z</time>
      </trkpt>
      <trkpt lat="45.90058" lon="6.49678">
        <ele>2294</ele>
        <time>2020-07-30T16:24:03Z</time>
      </trkpt>
      <trkpt lat="45.90061" lon="6.49668">
        <ele>2291</ele>
        <time>2020-07-30T16:24:07Z</time>
      </trkpt>
      <trkpt lat="45.90071" lon="6.49655">
        <ele>2286</ele>
        <time>2020-07-30T16:24:14Z</time>
      </trkpt>
      <trkpt lat="45.90072" lon="6.49639">
        <ele>2282</ele>
        <time>2020-07-30T16:24:19Z</time>
      </trkpt>
      <trkpt lat="45.90068" lon="6.49618">
        <ele>2276</ele>
        <time>2020-07-30T16:24:27Z</time>
      </trkpt>
      <trkpt lat="45.90057" lon="6.49602">
        <ele>2272</ele>
        <time>2020-07-30T16:24:35Z</time>
      </trkpt>
      <trkpt lat="45.90047" lon="6.49578">
        <ele>2265</ele>
        <time>2020-07-30T16:24:44Z</time>
      </trkpt>
      <trkpt lat="45.9005" lon="6.49547">
        <ele>2260</ele>
        <time>2020-07-30T16:24:55Z</time>
      </trkpt>
      <trkpt lat="45.90017" lon="6.49482">
        <ele>2246</ele>
        <time>2020-07-30T16:25:23Z</time>
      </trkpt>
      <trkpt lat="45.89996" lon="6.49448">
        <ele>2239</ele>
        <time>2020-07-30T16:25:39Z</time>
      </trkpt>
      <trkpt lat="45.89935" lon="6.49334">
        <ele>2208</ele>
        <time>2020-07-30T16:26:29Z</time>
      </trkpt>
      <trkpt lat="45.89927" lon="6.49273">
        <ele>2196</ele>
        <time>2020-07-30T16:26:51Z</time>
      </trkpt>
      <trkpt lat="45.89924" lon="6.49267">
        <ele>2195</ele>
        <time>2020-07-30T16:26:53Z</time>
      </trkpt>
      <trkpt lat="45.89834" lon="6.49192">
        <ele>2184</ele>
        <time>2020-07-30T16:27:45Z</time>
      </trkpt>
      <trkpt lat="45.89823" lon="6.4917">
        <ele>2182</ele>
        <time>2020-07-30T16:27:55Z</time>
      </trkpt>
      <trkpt lat="45.89808" lon="6.49154">
        <ele>2181</ele>
        <time>2020-07-30T16:28:04Z</time>
      </trkpt>
      <trkpt lat="45.89786" lon="6.49119">
        <ele>2179</ele>
        <time>2020-07-30T16:28:21Z</time>
      </trkpt>
      <trkpt lat="45.89771" lon="6.49042">
        <ele>2169</ele>
        <time>2020-07-30T16:28:49Z</time>
      </trkpt>
      <trkpt lat="45.89771" lon="6.48998">
        <ele>2162</ele>
        <time>2020-07-30T16:29:04Z</time>
      </trkpt>
      <trkpt lat="45.89755" lon="6.4896">
        <ele>2160</ele>
        <time>2020-07-30T16:29:19Z</time>
      </trkpt>
      <trkpt lat="45.89747" lon="6.4892">
        <ele>2158</ele>
        <time>2020-07-30T16:29:34Z</time>
      </trkpt>
      <trkpt lat="45.89748" lon="6.48856">
        <ele>2144</ele>
        <time>2020-07-30T16:29:56Z</time>
      </trkpt>
      <trkpt lat="45.89743" lon="6.48827">
        <ele>2144</ele>
        <time>2020-07-30T16:30:07Z</time>
      </trkpt>
      <trkpt lat="45.89744" lon="6.48802">
        <ele>2142</ele>
        <time>2020-07-30T16:30:15Z</time>
      </trkpt>
      <trkpt lat="45.89748" lon="6.48789">
        <ele>2138</ele>
        <time>2020-07-30T16:30:20Z</time>
      </trkpt>
      <trkpt lat="45.89753" lon="6.48792">
        <ele>2136</ele>
        <time>2020-07-30T16:30:23Z</time>
      </trkpt>
      <trkpt lat="45.8976" lon="6.48815">
        <ele>2133</ele>
        <time>2020-07-30T16:30:32Z</time>
      </trkpt>
      <trkpt lat="45.89764" lon="6.48814">
        <ele>2132</ele>
        <time>2020-07-30T16:30:34Z</time>
      </trkpt>
      <trkpt lat="45.89764" lon="6.48782">
        <ele>2130</ele>
        <time>2020-07-30T16:30:45Z</time>
      </trkpt>
      <trkpt lat="45.89763" lon="6.48748">
        <ele>2129</ele>
        <time>2020-07-30T16:30:57Z</time>
      </trkpt>
      <trkpt lat="45.89744" lon="6.48641">
        <ele>2109</ele>
        <time>2020-07-30T16:31:35Z</time>
      </trkpt>
      <trkpt lat="45.89742" lon="6.48591">
        <ele>2099</ele>
        <time>2020-07-30T16:31:53Z</time>
      </trkpt>
      <trkpt lat="45.89731" lon="6.48556">
        <ele>2093</ele>
        <time>2020-07-30T16:32:06Z</time>
      </trkpt>
      <trkpt lat="45.89721" lon="6.48542">
        <ele>2090</ele>
        <time>2020-07-30T16:32:13Z</time>
      </trkpt>
      <trkpt lat="45.89682" lon="6.48505">
        <ele>2085</ele>
        <time>2020-07-30T16:32:36Z</time>
      </trkpt>
      <trkpt lat="45.8966" lon="6.48493">
        <ele>2085</ele>
        <time>2020-07-30T16:32:48Z</time>
      </trkpt>
      <trkpt lat="45.89652" lon="6.48486">
        <ele>2086</ele>
        <time>2020-07-30T16:32:53Z</time>
      </trkpt>
      <trkpt lat="45.89638" lon="6.48462">
        <ele>2084</ele>
        <time>2020-07-30T16:33:04Z</time>
      </trkpt>
      <trkpt lat="45.89636" lon="6.48446">
        <ele>2080</ele>
        <time>2020-07-30T16:33:09Z</time>
      </trkpt>
      <trkpt lat="45.89652" lon="6.48418">
        <ele>2067</ele>
        <time>2020-07-30T16:33:22Z</time>
      </trkpt>
      <trkpt lat="45.89649" lon="6.48396">
        <ele>2062</ele>
        <time>2020-07-30T16:33:30Z</time>
      </trkpt>
      <trkpt lat="45.89655" lon="6.48357">
        <ele>2048</ele>
        <time>2020-07-30T16:33:44Z</time>
      </trkpt>
      <trkpt lat="45.89651" lon="6.48343">
        <ele>2045</ele>
        <time>2020-07-30T16:33:49Z</time>
      </trkpt>
      <trkpt lat="45.89642" lon="6.48313">
        <ele>2038</ele>
        <time>2020-07-30T16:34:00Z</time>
      </trkpt>
      <trkpt lat="45.89636" lon="6.48301">
        <ele>2036</ele>
        <time>2020-07-30T16:34:05Z</time>
      </trkpt>
      <trkpt lat="45.89625" lon="6.48291">
        <ele>2036</ele>
        <time>2020-07-30T16:34:12Z</time>
      </trkpt>
      <trkpt lat="45.89623" lon="6.4828">
        <ele>2033</ele>
        <time>2020-07-30T16:34:16Z</time>
      </trkpt>
      <trkpt lat="45.89608" lon="6.48257">
        <ele>2029</ele>
        <time>2020-07-30T16:34:27Z</time>
      </trkpt>
      <trkpt lat="45.89604" lon="6.48236">
        <ele>2023</ele>
        <time>2020-07-30T16:34:35Z</time>
      </trkpt>
      <trkpt lat="45.89604" lon="6.48221">
        <ele>2018</ele>
        <time>2020-07-30T16:34:40Z</time>
      </trkpt>
      <trkpt lat="45.89593" lon="6.48202">
        <ele>2014</ele>
        <time>2020-07-30T16:34:48Z</time>
      </trkpt>
      <trkpt lat="45.89588" lon="6.48183">
        <ele>2009</ele>
        <time>2020-07-30T16:34:55Z</time>
      </trkpt>
      <trkpt lat="45.89589" lon="6.48158">
        <ele>2000</ele>
        <time>2020-07-30T16:35:04Z</time>
      </trkpt>
      <trkpt lat="45.89584" lon="6.48151">
        <ele>1999</ele>
        <time>2020-07-30T16:35:08Z</time>
      </trkpt>
      <trkpt lat="45.89559" lon="6.48133">
        <ele>2004</ele>
        <time>2020-07-30T16:35:22Z</time>
      </trkpt>
      <trkpt lat="45.89554" lon="6.48117">
        <ele>2000</ele>
        <time>2020-07-30T16:35:28Z</time>
      </trkpt>
      <trkpt lat="45.89554" lon="6.48107">
        <ele>1997</ele>
        <time>2020-07-30T16:35:31Z</time>
      </trkpt>
      <trkpt lat="45.89543" lon="6.48074">
        <ele>1991</ele>
        <time>2020-07-30T16:35:44Z</time>
      </trkpt>
      <trkpt lat="45.89537" lon="6.48063">
        <ele>1991</ele>
        <time>2020-07-30T16:35:49Z</time>
      </trkpt>
      <trkpt lat="45.89533" lon="6.48029">
        <ele>1984</ele>
        <time>2020-07-30T16:36:01Z</time>
      </trkpt>
      <trkpt lat="45.89521" lon="6.48009">
        <ele>1983</ele>
        <time>2020-07-30T16:36:10Z</time>
      </trkpt>
      <trkpt lat="45.8949" lon="6.47974">
        <ele>1996</ele>
        <time>2020-07-30T16:36:30Z</time>
      </trkpt>
      <trkpt lat="45.89487" lon="6.47928">
        <ele>1993</ele>
        <time>2020-07-30T16:36:46Z</time>
      </trkpt>
      <trkpt lat="45.89477" lon="6.479">
        <ele>2007</ele>
        <time>2020-07-30T16:36:57Z</time>
      </trkpt>
      <trkpt lat="45.8948" lon="6.4788">
        <ele>2007</ele>
        <time>2020-07-30T16:37:04Z</time>
      </trkpt>
      <trkpt lat="45.89479" lon="6.47863">
        <ele>2012</ele>
        <time>2020-07-30T16:37:10Z</time>
      </trkpt>
      <trkpt lat="45.89476" lon="6.47858">
        <ele>2018</ele>
        <time>2020-07-30T16:37:12Z</time>
      </trkpt>
      <trkpt lat="45.89466" lon="6.47856">
        <ele>2032</ele>
        <time>2020-07-30T16:37:17Z</time>
      </trkpt>
      <trkpt lat="45.89466" lon="6.47852">
        <ele>2033</ele>
        <time>2020-07-30T16:37:19Z</time>
      </trkpt>
      <trkpt lat="45.89461" lon="6.47854">
        <ele>2039</ele>
        <time>2020-07-30T16:37:21Z</time>
      </trkpt>
      <trkpt lat="45.89456" lon="6.47851">
        <ele>2047</ele>
        <time>2020-07-30T16:37:24Z</time>
      </trkpt>
      <trkpt lat="45.89457" lon="6.47848">
        <ele>2046</ele>
        <time>2020-07-30T16:37:25Z</time>
      </trkpt>
      <trkpt lat="45.89453" lon="6.47843">
        <ele>2053</ele>
        <time>2020-07-30T16:37:28Z</time>
      </trkpt>
      <trkpt lat="45.89455" lon="6.47835">
        <ele>2053</ele>
        <time>2020-07-30T16:37:31Z</time>
      </trkpt>
      <trkpt lat="45.89452" lon="6.47821">
        <ele>2057</ele>
        <time>2020-07-30T16:37:36Z</time>
      </trkpt>
      <trkpt lat="45.89453" lon="6.47807">
        <ele>2056</ele>
        <time>2020-07-30T16:37:41Z</time>
      </trkpt>
      <trkpt lat="45.89448" lon="6.47797">
        <ele>2062</ele>
        <time>2020-07-30T16:37:45Z</time>
      </trkpt>
      <trkpt lat="45.89446" lon="6.47798">
        <ele>2065</ele>
        <time>2020-07-30T16:37:46Z</time>
      </trkpt>
      <trkpt lat="45.89445" lon="6.47795">
        <ele>2066</ele>
        <time>2020-07-30T16:37:47Z</time>
      </trkpt>
      <trkpt lat="45.89441" lon="6.47795">
        <ele>2071</ele>
        <time>2020-07-30T16:37:49Z</time>
      </trkpt>
      <trkpt lat="45.89435" lon="6.47801">
        <ele>2080</ele>
        <time>2020-07-30T16:37:53Z</time>
      </trkpt>
      <trkpt lat="45.89427" lon="6.47802">
        <ele>2091</ele>
        <time>2020-07-30T16:37:57Z</time>
      </trkpt>
      <trkpt lat="45.89432" lon="6.47819">
        <ele>2085</ele>
        <time>2020-07-30T16:38:03Z</time>
      </trkpt>
      <trkpt lat="45.89425" lon="6.47829">
        <ele>2096</ele>
        <time>2020-07-30T16:38:08Z</time>
      </trkpt>
      <trkpt lat="45.89414" lon="6.47827">
        <ele>2108</ele>
        <time>2020-07-30T16:38:14Z</time>
      </trkpt>
      <trkpt lat="45.8941" lon="6.47834">
        <ele>2110</ele>
        <time>2020-07-30T16:38:17Z</time>
      </trkpt>
      <trkpt lat="45.89405" lon="6.47836">
        <ele>2111</ele>
        <time>2020-07-30T16:38:20Z</time>
      </trkpt>
      <trkpt lat="45.89405" lon="6.47841">
        <ele>2109</ele>
        <time>2020-07-30T16:38:21Z</time>
      </trkpt>
      <trkpt lat="45.89401" lon="6.4784">
        <ele>2111</ele>
        <time>2020-07-30T16:38:23Z</time>
      </trkpt>
      <trkpt lat="45.89391" lon="6.47844">
        <ele>2113</ele>
        <time>2020-07-30T16:38:29Z</time>
      </trkpt>
      <trkpt lat="45.8939" lon="6.47852">
        <ele>2111</ele>
        <time>2020-07-30T16:38:31Z</time>
      </trkpt>
      <trkpt lat="45.89383" lon="6.47855">
        <ele>2113</ele>
        <time>2020-07-30T16:38:35Z</time>
      </trkpt>
      <trkpt lat="45.89381" lon="6.47861">
        <ele>2113</ele>
        <time>2020-07-30T16:38:37Z</time>
      </trkpt>
      <trkpt lat="45.89369" lon="6.47866">
        <ele>2117</ele>
        <time>2020-07-30T16:38:44Z</time>
      </trkpt>
      <trkpt lat="45.89365" lon="6.47873">
        <ele>2118</ele>
        <time>2020-07-30T16:38:47Z</time>
      </trkpt>
      <trkpt lat="45.89359" lon="6.47872">
        <ele>2121</ele>
        <time>2020-07-30T16:38:50Z</time>
      </trkpt>
      <trkpt lat="45.89358" lon="6.47876">
        <ele>2121</ele>
        <time>2020-07-30T16:38:51Z</time>
      </trkpt>
      <trkpt lat="45.89354" lon="6.47879">
        <ele>2123</ele>
        <time>2020-07-30T16:38:54Z</time>
      </trkpt>
      <trkpt lat="45.89349" lon="6.47879">
        <ele>2126</ele>
        <time>2020-07-30T16:38:56Z</time>
      </trkpt>
      <trkpt lat="45.89343" lon="6.47883">
        <ele>2129</ele>
        <time>2020-07-30T16:38:59Z</time>
      </trkpt>
      <trkpt lat="45.89345" lon="6.47887">
        <ele>2128</ele>
        <time>2020-07-30T16:39:01Z</time>
      </trkpt>
      <trkpt lat="45.89338" lon="6.47916">
        <ele>2131</ele>
        <time>2020-07-30T16:39:12Z</time>
      </trkpt>
      <trkpt lat="45.89334" lon="6.47922">
        <ele>2135</ele>
        <time>2020-07-30T16:39:15Z</time>
      </trkpt>
      <trkpt lat="45.89324" lon="6.47923">
        <ele>2140</ele>
        <time>2020-07-30T16:39:20Z</time>
      </trkpt>
      <trkpt lat="45.89317" lon="6.47932">
        <ele>2147</ele>
        <time>2020-07-30T16:39:24Z</time>
      </trkpt>
      <trkpt lat="45.89314" lon="6.47948">
        <ele>2155</ele>
        <time>2020-07-30T16:39:30Z</time>
      </trkpt>
      <trkpt lat="45.89306" lon="6.47947">
        <ele>2158</ele>
        <time>2020-07-30T16:39:34Z</time>
      </trkpt>
      <trkpt lat="45.89297" lon="6.47938">
        <ele>2159</ele>
        <time>2020-07-30T16:39:40Z</time>
      </trkpt>
      <trkpt lat="45.89293" lon="6.47947">
        <ele>2164</ele>
        <time>2020-07-30T16:39:43Z</time>
      </trkpt>
      <trkpt lat="45.89291" lon="6.47946">
        <ele>2165</ele>
        <time>2020-07-30T16:39:44Z</time>
      </trkpt>
      <trkpt lat="45.89285" lon="6.4794">
        <ele>2165</ele>
        <time>2020-07-30T16:39:48Z</time>
      </trkpt>
      <trkpt lat="45.89283" lon="6.4793">
        <ele>2162</ele>
        <time>2020-07-30T16:39:52Z</time>
      </trkpt>
      <trkpt lat="45.8928" lon="6.47931">
        <ele>2164</ele>
        <time>2020-07-30T16:39:53Z</time>
      </trkpt>
      <trkpt lat="45.89267" lon="6.47923">
        <ele>2166</ele>
        <time>2020-07-30T16:40:00Z</time>
      </trkpt>
      <trkpt lat="45.89251" lon="6.47909">
        <ele>2168</ele>
        <time>2020-07-30T16:40:10Z</time>
      </trkpt>
      <trkpt lat="45.89236" lon="6.47904">
        <ele>2170</ele>
        <time>2020-07-30T16:40:17Z</time>
      </trkpt>
      <trkpt lat="45.89224" lon="6.47897">
        <ele>2170</ele>
        <time>2020-07-30T16:40:24Z</time>
      </trkpt>
      <trkpt lat="45.89209" lon="6.47895">
        <ele>2174</ele>
        <time>2020-07-30T16:40:31Z</time>
      </trkpt>
      <trkpt lat="45.89204" lon="6.47892">
        <ele>2174</ele>
        <time>2020-07-30T16:40:34Z</time>
      </trkpt>
      <trkpt lat="45.89203" lon="6.47884">
        <ele>2170</ele>
        <time>2020-07-30T16:40:37Z</time>
      </trkpt>
      <trkpt lat="45.89187" lon="6.47879">
        <ele>2171</ele>
        <time>2020-07-30T16:40:45Z</time>
      </trkpt>
      <trkpt lat="45.89183" lon="6.47873">
        <ele>2169</ele>
        <time>2020-07-30T16:40:48Z</time>
      </trkpt>
      <trkpt lat="45.89175" lon="6.47871">
        <ele>2169</ele>
        <time>2020-07-30T16:40:52Z</time>
      </trkpt>
      <trkpt lat="45.89166" lon="6.47865">
        <ele>2168</ele>
        <time>2020-07-30T16:40:57Z</time>
      </trkpt>
      <trkpt lat="45.89164" lon="6.47868">
        <ele>2170</ele>
        <time>2020-07-30T16:40:59Z</time>
      </trkpt>
      <trkpt lat="45.89158" lon="6.47869">
        <ele>2171</ele>
        <time>2020-07-30T16:41:02Z</time>
      </trkpt>
      <trkpt lat="45.89146" lon="6.47866">
        <ele>2170</ele>
        <time>2020-07-30T16:41:08Z</time>
      </trkpt>
      <trkpt lat="45.89139" lon="6.47867">
        <ele>2171</ele>
        <time>2020-07-30T16:41:11Z</time>
      </trkpt>
      <trkpt lat="45.89136" lon="6.4787">
        <ele>2173</ele>
        <time>2020-07-30T16:41:13Z</time>
      </trkpt>
      <trkpt lat="45.89124" lon="6.47868">
        <ele>2172</ele>
        <time>2020-07-30T16:41:19Z</time>
      </trkpt>
      <trkpt lat="45.89116" lon="6.47862">
        <ele>2169</ele>
        <time>2020-07-30T16:41:24Z</time>
      </trkpt>
      <trkpt lat="45.89103" lon="6.47871">
        <ele>2175</ele>
        <time>2020-07-30T16:41:31Z</time>
      </trkpt>
      <trkpt lat="45.89088" lon="6.47877">
        <ele>2180</ele>
        <time>2020-07-30T16:41:39Z</time>
      </trkpt>
      <trkpt lat="45.89076" lon="6.47874">
        <ele>2180</ele>
        <time>2020-07-30T16:41:45Z</time>
      </trkpt>
      <trkpt lat="45.89062" lon="6.47876">
        <ele>2183</ele>
        <time>2020-07-30T16:41:52Z</time>
      </trkpt>
      <trkpt lat="45.89056" lon="6.47869">
        <ele>2180</ele>
        <time>2020-07-30T16:41:56Z</time>
      </trkpt>
      <trkpt lat="45.89047" lon="6.47864">
        <ele>2179</ele>
        <time>2020-07-30T16:42:00Z</time>
      </trkpt>
      <trkpt lat="45.89043" lon="6.47864">
        <ele>2180</ele>
        <time>2020-07-30T16:42:02Z</time>
      </trkpt>
      <trkpt lat="45.89041" lon="6.47867">
        <ele>2182</ele>
        <time>2020-07-30T16:42:04Z</time>
      </trkpt>
      <trkpt lat="45.89036" lon="6.47864">
        <ele>2181</ele>
        <time>2020-07-30T16:42:07Z</time>
      </trkpt>
      <trkpt lat="45.89034" lon="6.47866">
        <ele>2183</ele>
        <time>2020-07-30T16:42:08Z</time>
      </trkpt>
      <trkpt lat="45.89025" lon="6.47866">
        <ele>2184</ele>
        <time>2020-07-30T16:42:12Z</time>
      </trkpt>
      <trkpt lat="45.8902" lon="6.47878">
        <ele>2191</ele>
        <time>2020-07-30T16:42:17Z</time>
      </trkpt>
      <trkpt lat="45.89022" lon="6.47883">
        <ele>2193</ele>
        <time>2020-07-30T16:42:19Z</time>
      </trkpt>
      <trkpt lat="45.89018" lon="6.47888">
        <ele>2195</ele>
        <time>2020-07-30T16:42:22Z</time>
      </trkpt>
      <trkpt lat="45.89012" lon="6.4789">
        <ele>2197</ele>
        <time>2020-07-30T16:42:25Z</time>
      </trkpt>
      <trkpt lat="45.89009" lon="6.47895">
        <ele>2199</ele>
        <time>2020-07-30T16:42:27Z</time>
      </trkpt>
      <trkpt lat="45.89001" lon="6.479">
        <ele>2202</ele>
        <time>2020-07-30T16:42:32Z</time>
      </trkpt>
      <trkpt lat="45.88991" lon="6.47899">
        <ele>2203</ele>
        <time>2020-07-30T16:42:37Z</time>
      </trkpt>
      <trkpt lat="45.88988" lon="6.47902">
        <ele>2205</ele>
        <time>2020-07-30T16:42:38Z</time>
      </trkpt>
      <trkpt lat="45.88981" lon="6.479">
        <ele>2205</ele>
        <time>2020-07-30T16:42:42Z</time>
      </trkpt>
      <trkpt lat="45.88975" lon="6.47902">
        <ele>2207</ele>
        <time>2020-07-30T16:42:45Z</time>
      </trkpt>
      <trkpt lat="45.88971" lon="6.47909">
        <ele>2210</ele>
        <time>2020-07-30T16:42:48Z</time>
      </trkpt>
      <trkpt lat="45.88971" lon="6.47918">
        <ele>2213</ele>
        <time>2020-07-30T16:42:51Z</time>
      </trkpt>
      <trkpt lat="45.88963" lon="6.47918">
        <ele>2214</ele>
        <time>2020-07-30T16:42:55Z</time>
      </trkpt>
      <trkpt lat="45.88963" lon="6.47921">
        <ele>2216</ele>
        <time>2020-07-30T16:42:56Z</time>
      </trkpt>
      <trkpt lat="45.88952" lon="6.4792">
        <ele>2217</ele>
        <time>2020-07-30T16:43:02Z</time>
      </trkpt>
      <trkpt lat="45.88948" lon="6.47924">
        <ele>2219</ele>
        <time>2020-07-30T16:43:04Z</time>
      </trkpt>
      <trkpt lat="45.88948" lon="6.47933">
        <ele>2222</ele>
        <time>2020-07-30T16:43:07Z</time>
      </trkpt>
      <trkpt lat="45.88943" lon="6.47936">
        <ele>2224</ele>
        <time>2020-07-30T16:43:10Z</time>
      </trkpt>
      <trkpt lat="45.88934" lon="6.47931">
        <ele>2223</ele>
        <time>2020-07-30T16:43:15Z</time>
      </trkpt>
      <trkpt lat="45.88931" lon="6.47933">
        <ele>2224</ele>
        <time>2020-07-30T16:43:17Z</time>
      </trkpt>
      <trkpt lat="45.88932" lon="6.47939">
        <ele>2226</ele>
        <time>2020-07-30T16:43:19Z</time>
      </trkpt>
      <trkpt lat="45.88925" lon="6.47946">
        <ele>2229</ele>
        <time>2020-07-30T16:43:23Z</time>
      </trkpt>
      <trkpt lat="45.8892" lon="6.47959">
        <ele>2234</ele>
        <time>2020-07-30T16:43:28Z</time>
      </trkpt>
      <trkpt lat="45.88915" lon="6.47962">
        <ele>2236</ele>
        <time>2020-07-30T16:43:31Z</time>
      </trkpt>
      <trkpt lat="45.88913" lon="6.47969">
        <ele>2238</ele>
        <time>2020-07-30T16:43:34Z</time>
      </trkpt>
      <trkpt lat="45.88902" lon="6.47974">
        <ele>2242</ele>
        <time>2020-07-30T16:43:39Z</time>
      </trkpt>
      <trkpt lat="45.88892" lon="6.47989">
        <ele>2249</ele>
        <time>2020-07-30T16:43:47Z</time>
      </trkpt>
      <trkpt lat="45.88887" lon="6.4801">
        <ele>2259</ele>
        <time>2020-07-30T16:43:54Z</time>
      </trkpt>
      <trkpt lat="45.88879" lon="6.48016">
        <ele>2263</ele>
        <time>2020-07-30T16:43:59Z</time>
      </trkpt>
      <trkpt lat="45.88869" lon="6.48018">
        <ele>2266</ele>
        <time>2020-07-30T16:44:04Z</time>
      </trkpt>
      <trkpt lat="45.88861" lon="6.48025">
        <ele>2271</ele>
        <time>2020-07-30T16:44:09Z</time>
      </trkpt>
      <trkpt lat="45.88848" lon="6.48025">
        <ele>2273</ele>
        <time>2020-07-30T16:44:15Z</time>
      </trkpt>
      <trkpt lat="45.88836" lon="6.48031">
        <ele>2278</ele>
        <time>2020-07-30T16:44:21Z</time>
      </trkpt>
      <trkpt lat="45.8883" lon="6.48031">
        <ele>2279</ele>
        <time>2020-07-30T16:44:24Z</time>
      </trkpt>
      <trkpt lat="45.88821" lon="6.48037">
        <ele>2283</ele>
        <time>2020-07-30T16:44:29Z</time>
      </trkpt>
      <trkpt lat="45.88824" lon="6.48039">
        <ele>2283</ele>
        <time>2020-07-30T16:44:31Z</time>
      </trkpt>
      <trkpt lat="45.8882" lon="6.48039">
        <ele>2284</ele>
        <time>2020-07-30T16:44:33Z</time>
      </trkpt>
      <trkpt lat="45.88825" lon="6.48049">
        <ele>2287</ele>
        <time>2020-07-30T16:44:37Z</time>
      </trkpt>
      <trkpt lat="45.88829" lon="6.48052">
        <ele>2288</ele>
        <time>2020-07-30T16:44:40Z</time>
      </trkpt>
      <trkpt lat="45.88829" lon="6.48061">
        <ele>2291</ele>
        <time>2020-07-30T16:44:43Z</time>
      </trkpt>
      <trkpt lat="45.88818" lon="6.48065">
        <ele>2295</ele>
        <time>2020-07-30T16:44:48Z</time>
      </trkpt>
      <trkpt lat="45.88816" lon="6.4807">
        <ele>2297</ele>
        <time>2020-07-30T16:44:50Z</time>
      </trkpt>
      <trkpt lat="45.8881" lon="6.48072">
        <ele>2299</ele>
        <time>2020-07-30T16:44:54Z</time>
      </trkpt>
      <trkpt lat="45.8881" lon="6.4808">
        <ele>2302</ele>
        <time>2020-07-30T16:44:56Z</time>
      </trkpt>
      <trkpt lat="45.88805" lon="6.4808">
        <ele>2302</ele>
        <time>2020-07-30T16:44:59Z</time>
      </trkpt>
      <trkpt lat="45.888" lon="6.48086">
        <ele>2305</ele>
        <time>2020-07-30T16:45:02Z</time>
      </trkpt>
      <trkpt lat="45.88792" lon="6.48083">
        <ele>2305</ele>
        <time>2020-07-30T16:45:06Z</time>
      </trkpt>
      <trkpt lat="45.88797" lon="6.48096">
        <ele>2311</ele>
        <time>2020-07-30T16:45:11Z</time>
      </trkpt>
      <trkpt lat="45.88794" lon="6.48104">
        <ele>2315</ele>
        <time>2020-07-30T16:45:15Z</time>
      </trkpt>
      <trkpt lat="45.88797" lon="6.48107">
        <ele>2316</ele>
        <time>2020-07-30T16:45:16Z</time>
      </trkpt>
      <trkpt lat="45.88795" lon="6.48115">
        <ele>2320</ele>
        <time>2020-07-30T16:45:19Z</time>
      </trkpt>
      <trkpt lat="45.88797" lon="6.48122">
        <ele>2323</ele>
        <time>2020-07-30T16:45:22Z</time>
      </trkpt>
      <trkpt lat="45.88789" lon="6.48126">
        <ele>2328</ele>
        <time>2020-07-30T16:45:26Z</time>
      </trkpt>
      <trkpt lat="45.88793" lon="6.48132">
        <ele>2329</ele>
        <time>2020-07-30T16:45:29Z</time>
      </trkpt>
      <trkpt lat="45.88793" lon="6.48139">
        <ele>2333</ele>
        <time>2020-07-30T16:45:32Z</time>
      </trkpt>
      <trkpt lat="45.88773" lon="6.4814">
        <ele>2341</ele>
        <time>2020-07-30T16:45:42Z</time>
      </trkpt>
      <trkpt lat="45.88763" lon="6.48144">
        <ele>2347</ele>
        <time>2020-07-30T16:45:47Z</time>
      </trkpt>
      <trkpt lat="45.88755" lon="6.48139">
        <ele>2346</ele>
        <time>2020-07-30T16:45:51Z</time>
      </trkpt>
      <trkpt lat="45.88739" lon="6.48141">
        <ele>2354</ele>
        <time>2020-07-30T16:45:59Z</time>
      </trkpt>
      <trkpt lat="45.88729" lon="6.48138">
        <ele>2357</ele>
        <time>2020-07-30T16:46:04Z</time>
      </trkpt>
      <trkpt lat="45.88725" lon="6.4814">
        <ele>2360</ele>
        <time>2020-07-30T16:46:06Z</time>
      </trkpt>
      <trkpt lat="45.88724" lon="6.48138">
        <ele>2359</ele>
        <time>2020-07-30T16:46:07Z</time>
      </trkpt>
      <trkpt lat="45.88718" lon="6.48139">
        <ele>2363</ele>
        <time>2020-07-30T16:46:10Z</time>
      </trkpt>
      <trkpt lat="45.88718" lon="6.48137">
        <ele>2362</ele>
        <time>2020-07-30T16:46:11Z</time>
      </trkpt>
      <trkpt lat="45.88714" lon="6.4814">
        <ele>2365</ele>
        <time>2020-07-30T16:46:13Z</time>
      </trkpt>
      <trkpt lat="45.88708" lon="6.48137">
        <ele>2367</ele>
        <time>2020-07-30T16:46:16Z</time>
      </trkpt>
      <trkpt lat="45.887" lon="6.48141">
        <ele>2371</ele>
        <time>2020-07-30T16:46:21Z</time>
      </trkpt>
      <trkpt lat="45.88691" lon="6.48135">
        <ele>2375</ele>
        <time>2020-07-30T16:46:26Z</time>
      </trkpt>
      <trkpt lat="45.88682" lon="6.48139">
        <ele>2379</ele>
        <time>2020-07-30T16:46:30Z</time>
      </trkpt>
      <trkpt lat="45.88676" lon="6.48133">
        <ele>2382</ele>
        <time>2020-07-30T16:46:34Z</time>
      </trkpt>
      <trkpt lat="45.88675" lon="6.48135">
        <ele>2382</ele>
        <time>2020-07-30T16:46:35Z</time>
      </trkpt>
      <trkpt lat="45.88665" lon="6.48133">
        <ele>2386</ele>
        <time>2020-07-30T16:46:40Z</time>
      </trkpt>
      <trkpt lat="45.88664" lon="6.48139">
        <ele>2384</ele>
        <time>2020-07-30T16:46:42Z</time>
      </trkpt>
      <trkpt lat="45.88661" lon="6.48141">
        <ele>2381</ele>
        <time>2020-07-30T16:46:44Z</time>
      </trkpt>
      <trkpt lat="45.88656" lon="6.48132">
        <ele>2379</ele>
        <time>2020-07-30T16:46:48Z</time>
      </trkpt>
      <trkpt lat="45.88656" lon="6.48121">
        <ele>2381</ele>
        <time>2020-07-30T16:46:52Z</time>
      </trkpt>
      <trkpt lat="45.88653" lon="6.48114">
        <ele>2380</ele>
        <time>2020-07-30T16:46:54Z</time>
      </trkpt>
      <trkpt lat="45.88618" lon="6.48047">
        <ele>2366</ele>
        <time>2020-07-30T16:47:24Z</time>
      </trkpt>
      <trkpt lat="45.88602" lon="6.48035">
        <ele>2359</ele>
        <time>2020-07-30T16:47:33Z</time>
      </trkpt>
      <trkpt lat="45.88599" lon="6.48036">
        <ele>2358</ele>
        <time>2020-07-30T16:47:34Z</time>
      </trkpt>
      <trkpt lat="45.88597" lon="6.48029">
        <ele>2358</ele>
        <time>2020-07-30T16:47:37Z</time>
      </trkpt>
      <trkpt lat="45.88595" lon="6.48033">
        <ele>2356</ele>
        <time>2020-07-30T16:47:39Z</time>
      </trkpt>
      <trkpt lat="45.88593" lon="6.48032">
        <ele>2355</ele>
        <time>2020-07-30T16:47:40Z</time>
      </trkpt>
      <trkpt lat="45.88594" lon="6.48029">
        <ele>2356</ele>
        <time>2020-07-30T16:47:41Z</time>
      </trkpt>
      <trkpt lat="45.8859" lon="6.48036">
        <ele>2353</ele>
        <time>2020-07-30T16:47:44Z</time>
      </trkpt>
      <trkpt lat="45.88586" lon="6.48033">
        <ele>2352</ele>
        <time>2020-07-30T16:47:46Z</time>
      </trkpt>
      <trkpt lat="45.8858" lon="6.48036">
        <ele>2347</ele>
        <time>2020-07-30T16:47:49Z</time>
      </trkpt>
      <trkpt lat="45.88578" lon="6.48033">
        <ele>2346</ele>
        <time>2020-07-30T16:47:51Z</time>
      </trkpt>
      <trkpt lat="45.88574" lon="6.48037">
        <ele>2342</ele>
        <time>2020-07-30T16:47:53Z</time>
      </trkpt>
      <trkpt lat="45.88562" lon="6.4802">
        <ele>2336</ele>
        <time>2020-07-30T16:48:02Z</time>
      </trkpt>
      <trkpt lat="45.88558" lon="6.48027">
        <ele>2332</ele>
        <time>2020-07-30T16:48:05Z</time>
      </trkpt>
      <trkpt lat="45.88553" lon="6.48022">
        <ele>2329</ele>
        <time>2020-07-30T16:48:08Z</time>
      </trkpt>
      <trkpt lat="45.8855" lon="6.48025">
        <ele>2326</ele>
        <time>2020-07-30T16:48:10Z</time>
      </trkpt>
      <trkpt lat="45.88548" lon="6.48024">
        <ele>2324</ele>
        <time>2020-07-30T16:48:11Z</time>
      </trkpt>
      <trkpt lat="45.88545" lon="6.48016">
        <ele>2323</ele>
        <time>2020-07-30T16:48:14Z</time>
      </trkpt>
      <trkpt lat="45.88544" lon="6.48">
        <ele>2325</ele>
        <time>2020-07-30T16:48:20Z</time>
      </trkpt>
      <trkpt lat="45.88536" lon="6.47988">
        <ele>2318</ele>
        <time>2020-07-30T16:48:25Z</time>
      </trkpt>
      <trkpt lat="45.88537" lon="6.47972">
        <ele>2319</ele>
        <time>2020-07-30T16:48:31Z</time>
      </trkpt>
      <trkpt lat="45.88535" lon="6.47969">
        <ele>2317</ele>
        <time>2020-07-30T16:48:32Z</time>
      </trkpt>
      <trkpt lat="45.88537" lon="6.47959">
        <ele>2319</ele>
        <time>2020-07-30T16:48:36Z</time>
      </trkpt>
      <trkpt lat="45.88531" lon="6.47928">
        <ele>2313</ele>
        <time>2020-07-30T16:48:47Z</time>
      </trkpt>
      <trkpt lat="45.8853" lon="6.47898">
        <ele>2313</ele>
        <time>2020-07-30T16:48:58Z</time>
      </trkpt>
      <trkpt lat="45.88528" lon="6.47894">
        <ele>2311</ele>
        <time>2020-07-30T16:48:59Z</time>
      </trkpt>
      <trkpt lat="45.88531" lon="6.47848">
        <ele>2320</ele>
        <time>2020-07-30T16:49:15Z</time>
      </trkpt>
      <trkpt lat="45.88526" lon="6.47824">
        <ele>2317</ele>
        <time>2020-07-30T16:49:24Z</time>
      </trkpt>
      <trkpt lat="45.88513" lon="6.47813">
        <ele>2303</ele>
        <time>2020-07-30T16:49:32Z</time>
      </trkpt>
      <trkpt lat="45.88509" lon="6.47795">
        <ele>2303</ele>
        <time>2020-07-30T16:49:38Z</time>
      </trkpt>
      <trkpt lat="45.88502" lon="6.47784">
        <ele>2298</ele>
        <time>2020-07-30T16:49:44Z</time>
      </trkpt>
      <trkpt lat="45.88502" lon="6.47747">
        <ele>2307</ele>
        <time>2020-07-30T16:49:56Z</time>
      </trkpt>
      <trkpt lat="45.88492" lon="6.47722">
        <ele>2297</ele>
        <time>2020-07-30T16:50:06Z</time>
      </trkpt>
      <trkpt lat="45.8847" lon="6.47684">
        <ele>2279</ele>
        <time>2020-07-30T16:50:24Z</time>
      </trkpt>
      <trkpt lat="45.88458" lon="6.47672">
        <ele>2270</ele>
        <time>2020-07-30T16:50:31Z</time>
      </trkpt>
      <trkpt lat="45.88447" lon="6.47654">
        <ele>2259</ele>
        <time>2020-07-30T16:50:39Z</time>
      </trkpt>
      <trkpt lat="45.88443" lon="6.47654">
        <ele>2256</ele>
        <time>2020-07-30T16:50:41Z</time>
      </trkpt>
      <trkpt lat="45.88427" lon="6.47642">
        <ele>2242</ele>
        <time>2020-07-30T16:50:50Z</time>
      </trkpt>
      <trkpt lat="45.88419" lon="6.47626">
        <ele>2234</ele>
        <time>2020-07-30T16:50:57Z</time>
      </trkpt>
      <trkpt lat="45.88416" lon="6.47613">
        <ele>2230</ele>
        <time>2020-07-30T16:51:02Z</time>
      </trkpt>
      <trkpt lat="45.88413" lon="6.47611">
        <ele>2228</ele>
        <time>2020-07-30T16:51:04Z</time>
      </trkpt>
      <trkpt lat="45.88403" lon="6.47618">
        <ele>2222</ele>
        <time>2020-07-30T16:51:09Z</time>
      </trkpt>
      <trkpt lat="45.88396" lon="6.47612">
        <ele>2217</ele>
        <time>2020-07-30T16:51:13Z</time>
      </trkpt>
      <trkpt lat="45.88389" lon="6.47616">
        <ele>2213</ele>
        <time>2020-07-30T16:51:17Z</time>
      </trkpt>
      <trkpt lat="45.88387" lon="6.47605">
        <ele>2211</ele>
        <time>2020-07-30T16:51:21Z</time>
      </trkpt>
      <trkpt lat="45.88361" lon="6.476">
        <ele>2195</ele>
        <time>2020-07-30T16:51:34Z</time>
      </trkpt>
      <trkpt lat="45.88357" lon="6.47566">
        <ele>2187</ele>
        <time>2020-07-30T16:51:46Z</time>
      </trkpt>
      <trkpt lat="45.88358" lon="6.47547">
        <ele>2182</ele>
        <time>2020-07-30T16:51:53Z</time>
      </trkpt>
      <trkpt lat="45.88341" lon="6.47537">
        <ele>2168</ele>
        <time>2020-07-30T16:52:02Z</time>
      </trkpt>
      <trkpt lat="45.88338" lon="6.47531">
        <ele>2164</ele>
        <time>2020-07-30T16:52:05Z</time>
      </trkpt>
      <trkpt lat="45.8833" lon="6.47527">
        <ele>2158</ele>
        <time>2020-07-30T16:52:09Z</time>
      </trkpt>
      <trkpt lat="45.88335" lon="6.47464">
        <ele>2143</ele>
        <time>2020-07-30T16:52:31Z</time>
      </trkpt>
      <trkpt lat="45.88319" lon="6.47451">
        <ele>2131</ele>
        <time>2020-07-30T16:52:40Z</time>
      </trkpt>
      <trkpt lat="45.88317" lon="6.47439">
        <ele>2126</ele>
        <time>2020-07-30T16:52:44Z</time>
      </trkpt>
      <trkpt lat="45.88308" lon="6.47429">
        <ele>2118</ele>
        <time>2020-07-30T16:52:50Z</time>
      </trkpt>
      <trkpt lat="45.88297" lon="6.47429">
        <ele>2111</ele>
        <time>2020-07-30T16:52:56Z</time>
      </trkpt>
      <trkpt lat="45.88288" lon="6.47418">
        <ele>2102</ele>
        <time>2020-07-30T16:53:01Z</time>
      </trkpt>
      <trkpt lat="45.88285" lon="6.47408">
        <ele>2098</ele>
        <time>2020-07-30T16:53:05Z</time>
      </trkpt>
      <trkpt lat="45.88274" lon="6.47396">
        <ele>2088</ele>
        <time>2020-07-30T16:53:12Z</time>
      </trkpt>
      <trkpt lat="45.88268" lon="6.47393">
        <ele>2084</ele>
        <time>2020-07-30T16:53:15Z</time>
      </trkpt>
      <trkpt lat="45.88265" lon="6.47384">
        <ele>2080</ele>
        <time>2020-07-30T16:53:19Z</time>
      </trkpt>
      <trkpt lat="45.88259" lon="6.47376">
        <ele>2074</ele>
        <time>2020-07-30T16:53:23Z</time>
      </trkpt>
      <trkpt lat="45.88252" lon="6.47375">
        <ele>2069</ele>
        <time>2020-07-30T16:53:26Z</time>
      </trkpt>
      <trkpt lat="45.88246" lon="6.47379">
        <ele>2066</ele>
        <time>2020-07-30T16:53:30Z</time>
      </trkpt>
      <trkpt lat="45.88243" lon="6.47378">
        <ele>2064</ele>
        <time>2020-07-30T16:53:31Z</time>
      </trkpt>
      <trkpt lat="45.88239" lon="6.47362">
        <ele>2058</ele>
        <time>2020-07-30T16:53:37Z</time>
      </trkpt>
      <trkpt lat="45.88234" lon="6.47359">
        <ele>2055</ele>
        <time>2020-07-30T16:53:40Z</time>
      </trkpt>
      <trkpt lat="45.88225" lon="6.47332">
        <ele>2043</ele>
        <time>2020-07-30T16:53:50Z</time>
      </trkpt>
      <trkpt lat="45.88206" lon="6.47337">
        <ele>2033</ele>
        <time>2020-07-30T16:54:00Z</time>
      </trkpt>
      <trkpt lat="45.88196" lon="6.47332">
        <ele>2025</ele>
        <time>2020-07-30T16:54:05Z</time>
      </trkpt>
      <trkpt lat="45.8819" lon="6.4732">
        <ele>2020</ele>
        <time>2020-07-30T16:54:11Z</time>
      </trkpt>
      <trkpt lat="45.8818" lon="6.47316">
        <ele>2013</ele>
        <time>2020-07-30T16:54:16Z</time>
      </trkpt>
      <trkpt lat="45.88174" lon="6.47318">
        <ele>2010</ele>
        <time>2020-07-30T16:54:19Z</time>
      </trkpt>
      <trkpt lat="45.88166" lon="6.47317">
        <ele>2004</ele>
        <time>2020-07-30T16:54:23Z</time>
      </trkpt>
      <trkpt lat="45.8816" lon="6.47303">
        <ele>1998</ele>
        <time>2020-07-30T16:54:29Z</time>
      </trkpt>
      <trkpt lat="45.88162" lon="6.47294">
        <ele>1997</ele>
        <time>2020-07-30T16:54:32Z</time>
      </trkpt>
      <trkpt lat="45.8816" lon="6.47294">
        <ele>1996</ele>
        <time>2020-07-30T16:54:33Z</time>
      </trkpt>
      <trkpt lat="45.88159" lon="6.47288">
        <ele>1994</ele>
        <time>2020-07-30T16:54:35Z</time>
      </trkpt>
      <trkpt lat="45.88157" lon="6.4729">
        <ele>1993</ele>
        <time>2020-07-30T16:54:36Z</time>
      </trkpt>
      <trkpt lat="45.88155" lon="6.47285">
        <ele>1991</ele>
        <time>2020-07-30T16:54:38Z</time>
      </trkpt>
      <trkpt lat="45.88149" lon="6.47289">
        <ele>1987</ele>
        <time>2020-07-30T16:54:42Z</time>
      </trkpt>
      <trkpt lat="45.88137" lon="6.4729">
        <ele>1979</ele>
        <time>2020-07-30T16:54:48Z</time>
      </trkpt>
      <trkpt lat="45.88125" lon="6.47289">
        <ele>1970</ele>
        <time>2020-07-30T16:54:54Z</time>
      </trkpt>
      <trkpt lat="45.88123" lon="6.47285">
        <ele>1968</ele>
        <time>2020-07-30T16:54:55Z</time>
      </trkpt>
      <trkpt lat="45.88115" lon="6.47288">
        <ele>1963</ele>
        <time>2020-07-30T16:54:59Z</time>
      </trkpt>
      <trkpt lat="45.88107" lon="6.47287">
        <ele>1957</ele>
        <time>2020-07-30T16:55:03Z</time>
      </trkpt>
      <trkpt lat="45.88099" lon="6.47294">
        <ele>1953</ele>
        <time>2020-07-30T16:55:08Z</time>
      </trkpt>
      <trkpt lat="45.88093" lon="6.47289">
        <ele>1948</ele>
        <time>2020-07-30T16:55:12Z</time>
      </trkpt>
      <trkpt lat="45.88087" lon="6.47253">
        <ele>1935</ele>
        <time>2020-07-30T16:55:24Z</time>
      </trkpt>
      <trkpt lat="45.88083" lon="6.47248">
        <ele>1932</ele>
        <time>2020-07-30T16:55:27Z</time>
      </trkpt>
      <trkpt lat="45.88073" lon="6.47244">
        <ele>1925</ele>
        <time>2020-07-30T16:55:32Z</time>
      </trkpt>
      <trkpt lat="45.88069" lon="6.47235">
        <ele>1921</ele>
        <time>2020-07-30T16:55:36Z</time>
      </trkpt>
      <trkpt lat="45.88051" lon="6.47186">
        <ele>1904</ele>
        <time>2020-07-30T16:55:55Z</time>
      </trkpt>
      <trkpt lat="45.88031" lon="6.4712">
        <ele>1893</ele>
        <time>2020-07-30T16:56:20Z</time>
      </trkpt>
      <trkpt lat="45.88024" lon="6.4711">
        <ele>1889</ele>
        <time>2020-07-30T16:56:25Z</time>
      </trkpt>
      <trkpt lat="45.88007" lon="6.47095">
        <ele>1879</ele>
        <time>2020-07-30T16:56:35Z</time>
      </trkpt>
      <trkpt lat="45.87964" lon="6.4702">
        <ele>1866</ele>
        <time>2020-07-30T16:57:09Z</time>
      </trkpt>
      <trkpt lat="45.87954" lon="6.4701">
        <ele>1861</ele>
        <time>2020-07-30T16:57:15Z</time>
      </trkpt>
      <trkpt lat="45.87934" lon="6.46996">
        <ele>1846</ele>
        <time>2020-07-30T16:57:26Z</time>
      </trkpt>
      <trkpt lat="45.87925" lon="6.46996">
        <ele>1838</ele>
        <time>2020-07-30T16:57:31Z</time>
      </trkpt>
      <trkpt lat="45.8792" lon="6.46992">
        <ele>1834</ele>
        <time>2020-07-30T16:57:34Z</time>
      </trkpt>
      <trkpt lat="45.87909" lon="6.46977">
        <ele>1825</ele>
        <time>2020-07-30T16:57:41Z</time>
      </trkpt>
      <trkpt lat="45.879" lon="6.46968">
        <ele>1817</ele>
        <time>2020-07-30T16:57:47Z</time>
      </trkpt>
      <trkpt lat="45.87896" lon="6.46967">
        <ele>1814</ele>
        <time>2020-07-30T16:57:49Z</time>
      </trkpt>
      <trkpt lat="45.87895" lon="6.46962">
        <ele>1813</ele>
        <time>2020-07-30T16:57:51Z</time>
      </trkpt>
      <trkpt lat="45.87888" lon="6.46955">
        <ele>1808</ele>
        <time>2020-07-30T16:57:55Z</time>
      </trkpt>
      <trkpt lat="45.87882" lon="6.46955">
        <ele>1803</ele>
        <time>2020-07-30T16:57:58Z</time>
      </trkpt>
      <trkpt lat="45.87881" lon="6.46952">
        <ele>1802</ele>
        <time>2020-07-30T16:57:59Z</time>
      </trkpt>
      <trkpt lat="45.87878" lon="6.46952">
        <ele>1800</ele>
        <time>2020-07-30T16:58:01Z</time>
      </trkpt>
      <trkpt lat="45.87873" lon="6.46947">
        <ele>1796</ele>
        <time>2020-07-30T16:58:04Z</time>
      </trkpt>
      <trkpt lat="45.87865" lon="6.46947">
        <ele>1790</ele>
        <time>2020-07-30T16:58:08Z</time>
      </trkpt>
      <trkpt lat="45.87862" lon="6.46941">
        <ele>1787</ele>
        <time>2020-07-30T16:58:10Z</time>
      </trkpt>
      <trkpt lat="45.87852" lon="6.46936">
        <ele>1779</ele>
        <time>2020-07-30T16:58:16Z</time>
      </trkpt>
      <trkpt lat="45.87849" lon="6.4693">
        <ele>1776</ele>
        <time>2020-07-30T16:58:18Z</time>
      </trkpt>
      <trkpt lat="45.87846" lon="6.46933">
        <ele>1774</ele>
        <time>2020-07-30T16:58:20Z</time>
      </trkpt>
      <trkpt lat="45.87838" lon="6.46929">
        <ele>1768</ele>
        <time>2020-07-30T16:58:24Z</time>
      </trkpt>
      <trkpt lat="45.87835" lon="6.46931">
        <ele>1766</ele>
        <time>2020-07-30T16:58:26Z</time>
      </trkpt>
      <trkpt lat="45.87821" lon="6.4692">
        <ele>1756</ele>
        <time>2020-07-30T16:58:34Z</time>
      </trkpt>
      <trkpt lat="45.87817" lon="6.46903">
        <ele>1751</ele>
        <time>2020-07-30T16:58:40Z</time>
      </trkpt>
      <trkpt lat="45.87811" lon="6.46897">
        <ele>1747</ele>
        <time>2020-07-30T16:58:44Z</time>
      </trkpt>
      <trkpt lat="45.87804" lon="6.46896">
        <ele>1742</ele>
        <time>2020-07-30T16:58:47Z</time>
      </trkpt>
      <trkpt lat="45.87793" lon="6.46873">
        <ele>1733</ele>
        <time>2020-07-30T16:58:57Z</time>
      </trkpt>
      <trkpt lat="45.87781" lon="6.4686">
        <ele>1723</ele>
        <time>2020-07-30T16:59:05Z</time>
      </trkpt>
      <trkpt lat="45.87776" lon="6.46858">
        <ele>1720</ele>
        <time>2020-07-30T16:59:07Z</time>
      </trkpt>
      <trkpt lat="45.87766" lon="6.4686">
        <ele>1714</ele>
        <time>2020-07-30T16:59:12Z</time>
      </trkpt>
      <trkpt lat="45.87761" lon="6.46855">
        <ele>1710</ele>
        <time>2020-07-30T16:59:15Z</time>
      </trkpt>
      <trkpt lat="45.87754" lon="6.46856">
        <ele>1706</ele>
        <time>2020-07-30T16:59:19Z</time>
      </trkpt>
      <trkpt lat="45.87751" lon="6.46852">
        <ele>1703</ele>
        <time>2020-07-30T16:59:21Z</time>
      </trkpt>
      <trkpt lat="45.87744" lon="6.46855">
        <ele>1699</ele>
        <time>2020-07-30T16:59:24Z</time>
      </trkpt>
      <trkpt lat="45.87737" lon="6.46851">
        <ele>1694</ele>
        <time>2020-07-30T16:59:28Z</time>
      </trkpt>
      <trkpt lat="45.87717" lon="6.46846">
        <ele>1681</ele>
        <time>2020-07-30T16:59:38Z</time>
      </trkpt>
      <trkpt lat="45.87711" lon="6.46842">
        <ele>1677</ele>
        <time>2020-07-30T16:59:42Z</time>
      </trkpt>
      <trkpt lat="45.87697" lon="6.46822">
        <ele>1667</ele>
        <time>2020-07-30T16:59:52Z</time>
      </trkpt>
      <trkpt lat="45.87682" lon="6.46814">
        <ele>1657</ele>
        <time>2020-07-30T17:00:00Z</time>
      </trkpt>
      <trkpt lat="45.87679" lon="6.46815">
        <ele>1655</ele>
        <time>2020-07-30T17:00:01Z</time>
      </trkpt>
      <trkpt lat="45.87669" lon="6.46808">
        <ele>1648</ele>
        <time>2020-07-30T17:00:07Z</time>
      </trkpt>
      <trkpt lat="45.87652" lon="6.46804">
        <ele>1639</ele>
        <time>2020-07-30T17:00:15Z</time>
      </trkpt>
      <trkpt lat="45.87647" lon="6.46799">
        <ele>1636</ele>
        <time>2020-07-30T17:00:18Z</time>
      </trkpt>
      <trkpt lat="45.87608" lon="6.46794">
        <ele>1617</ele>
        <time>2020-07-30T17:00:38Z</time>
      </trkpt>
      <trkpt lat="45.87593" lon="6.4677">
        <ele>1606</ele>
        <time>2020-07-30T17:00:49Z</time>
      </trkpt>
      <trkpt lat="45.87575" lon="6.46723">
        <ele>1592</ele>
        <time>2020-07-30T17:01:08Z</time>
      </trkpt>
      <trkpt lat="45.87554" lon="6.46709">
        <ele>1582</ele>
        <time>2020-07-30T17:01:19Z</time>
      </trkpt>
      <trkpt lat="45.87545" lon="6.46695">
        <ele>1576</ele>
        <time>2020-07-30T17:01:26Z</time>
      </trkpt>
      <trkpt lat="45.87539" lon="6.46691">
        <ele>1573</ele>
        <time>2020-07-30T17:01:29Z</time>
      </trkpt>
      <trkpt lat="45.87525" lon="6.46658">
        <ele>1563</ele>
        <time>2020-07-30T17:01:43Z</time>
      </trkpt>
      <trkpt lat="45.87503" lon="6.46642">
        <ele>1553</ele>
        <time>2020-07-30T17:01:55Z</time>
      </trkpt>
      <trkpt lat="45.87492" lon="6.4664">
        <ele>1549</ele>
        <time>2020-07-30T17:02:01Z</time>
      </trkpt>
      <trkpt lat="45.87473" lon="6.46629">
        <ele>1542</ele>
        <time>2020-07-30T17:02:11Z</time>
      </trkpt>
      <trkpt lat="45.87459" lon="6.46625">
        <ele>1538</ele>
        <time>2020-07-30T17:02:18Z</time>
      </trkpt>
      <trkpt lat="45.87449" lon="6.46615">
        <ele>1534</ele>
        <time>2020-07-30T17:02:24Z</time>
      </trkpt>
      <trkpt lat="45.87412" lon="6.46593">
        <ele>1522</ele>
        <time>2020-07-30T17:02:44Z</time>
      </trkpt>
      <trkpt lat="45.87403" lon="6.46583">
        <ele>1520</ele>
        <time>2020-07-30T17:02:50Z</time>
      </trkpt>
      <trkpt lat="45.87372" lon="6.46564">
        <ele>1512</ele>
        <time>2020-07-30T17:03:07Z</time>
      </trkpt>
      <trkpt lat="45.8736" lon="6.46558">
        <ele>1509</ele>
        <time>2020-07-30T17:03:13Z</time>
      </trkpt>
      <trkpt lat="45.87327" lon="6.46548">
        <ele>1502</ele>
        <time>2020-07-30T17:03:30Z</time>
      </trkpt>
      <trkpt lat="45.87307" lon="6.46536">
        <ele>1498</ele>
        <time>2020-07-30T17:03:41Z</time>
      </trkpt>
      <trkpt lat="45.87299" lon="6.46525">
        <ele>1497</ele>
        <time>2020-07-30T17:03:46Z</time>
      </trkpt>
      <trkpt lat="45.87277" lon="6.46507">
        <ele>1493</ele>
        <time>2020-07-30T17:03:59Z</time>
      </trkpt>
      <trkpt lat="45.87265" lon="6.46493">
        <ele>1491</ele>
        <time>2020-07-30T17:04:07Z</time>
      </trkpt>
      <trkpt lat="45.87257" lon="6.46491">
        <ele>1489</ele>
        <time>2020-07-30T17:04:11Z</time>
      </trkpt>
      <trkpt lat="45.87241" lon="6.4647">
        <ele>1487</ele>
        <time>2020-07-30T17:04:22Z</time>
      </trkpt>
    </trkseg>
  </trk>
</gpx>